<?xml version='1.0' encoding='UTF-8'?><gpx version="1.1" creator="JPX - https://github.com/jenetics/jpx" xmlns="http://www.topografix.com/GPX/1/1"><trk><trkseg><trkpt lat="43.67129494706619" lon="11.358184229870682"><ele>231.0</ele><time>2026-04-25T08:20:51.998Z</time></trkpt><trkpt lat="43.6713522112588" lon="11.358259048042823"><ele>231.0</ele><time>2026-04-25T08:21:16Z</time></trkpt><trkpt lat="43.67129075504093" lon="11.358336310087447"><ele>231.0</ele><time>2026-04-25T08:21:30Z</time></trkpt><trkpt lat="43.67127352970316" lon="11.358487218797013"><ele>231.0</ele><time>2026-04-25T08:21:32Z</time></trkpt><trkpt lat="43.67125328761448" lon="11.358575022736646"><ele>231.0</ele><time>2026-04-25T08:21:33Z</time></trkpt><trkpt lat="43.67122817625736" lon="11.358663140378319"><ele>231.0</ele><time>2026-04-25T08:21:34Z</time></trkpt><trkpt lat="43.671198237201494" lon="11.358748583316716"><ele>231.20000000000002</ele><time>2026-04-25T08:21:35Z</time></trkpt><trkpt lat="43.67116380190727" lon="11.35892037283771"><ele>231.40000000000003</ele><time>2026-04-25T08:21:37Z</time></trkpt><trkpt lat="43.67114709972582" lon="11.359034159630461"><ele>231.6</ele><time>2026-04-25T08:21:38Z</time></trkpt><trkpt lat="43.671117895019094" lon="11.359154504013953"><ele>231.8</ele><time>2026-04-25T08:21:39Z</time></trkpt><trkpt lat="43.671092809071695" lon="11.359294734418414"><ele>232.0</ele><time>2026-04-25T08:21:40Z</time></trkpt><trkpt lat="43.671059190219445" lon="11.359430162069705"><ele>232.39999999999998</ele><time>2026-04-25T08:21:41Z</time></trkpt><trkpt lat="43.67101418675442" lon="11.35956869495415"><ele>232.79999999999998</ele><time>2026-04-25T08:21:42Z</time></trkpt><trkpt lat="43.670979027752544" lon="11.359717289112577"><ele>233.2</ele><time>2026-04-25T08:21:43Z</time></trkpt><trkpt lat="43.670938012412435" lon="11.359859173644342"><ele>233.6</ele><time>2026-04-25T08:21:44Z</time></trkpt><trkpt lat="43.67089614426416" lon="11.36000509658876"><ele>234.0</ele><time>2026-04-25T08:21:45Z</time></trkpt><trkpt lat="43.67084828402698" lon="11.360152318561866"><ele>234.5</ele><time>2026-04-25T08:21:46Z</time></trkpt><trkpt lat="43.67081116571989" lon="11.360303819427251"><ele>235.0</ele><time>2026-04-25T08:21:47Z</time></trkpt><trkpt lat="43.67077924638435" lon="11.360463844008097"><ele>235.5</ele><time>2026-04-25T08:21:48Z</time></trkpt><trkpt lat="43.67074749223797" lon="11.360624597993066"><ele>236.0</ele><time>2026-04-25T08:21:49Z</time></trkpt><trkpt lat="43.67070741661303" lon="11.360778212731145"><ele>236.0</ele><time>2026-04-25T08:21:50Z</time></trkpt><trkpt lat="43.67065467755216" lon="11.360970535131841"><ele>236.0</ele><time>2026-04-25T08:21:51.999Z</time></trkpt><trkpt lat="43.67061153125278" lon="11.361123996161163"><ele>236.0</ele><time>2026-04-25T08:21:52.999Z</time></trkpt><trkpt lat="43.670567692393064" lon="11.361268961376659"><ele>236.0</ele><time>2026-04-25T08:21:53.999Z</time></trkpt><trkpt lat="43.67052384036886" lon="11.36142007602556"><ele>236.25</ele><time>2026-04-25T08:21:54.999Z</time></trkpt><trkpt lat="43.67047553093585" lon="11.361565972288714"><ele>236.5</ele><time>2026-04-25T08:21:55.999Z</time></trkpt><trkpt lat="43.67041607609562" lon="11.361715237114419"><ele>236.75</ele><time>2026-04-25T08:21:56.999Z</time></trkpt><trkpt lat="43.670380637038505" lon="11.361863107022936"><ele>237.0</ele><time>2026-04-25T08:21:57.999Z</time></trkpt><trkpt lat="43.670347993136154" lon="11.362003224696666"><ele>237.0</ele><time>2026-04-25T08:21:58.999Z</time></trkpt><trkpt lat="43.67031429137284" lon="11.362147883064528"><ele>237.0</ele><time>2026-04-25T08:21:59.999Z</time></trkpt><trkpt lat="43.6702814704785" lon="11.362282693728114"><ele>237.0</ele><time>2026-04-25T08:22:00.999Z</time></trkpt><trkpt lat="43.67024726833139" lon="11.36242173592528"><ele>237.0</ele><time>2026-04-25T08:22:01.999Z</time></trkpt><trkpt lat="43.67021361239039" lon="11.362558557633294"><ele>237.0</ele><time>2026-04-25T08:22:02.999Z</time></trkpt><trkpt lat="43.670178930297844" lon="11.362700509792985"><ele>238.0</ele><time>2026-04-25T08:22:03.999Z</time></trkpt><trkpt lat="43.6701483185775" lon="11.362829636431734"><ele>239.0</ele><time>2026-04-25T08:22:04.999Z</time></trkpt><trkpt lat="43.670116345630184" lon="11.362964505017462"><ele>240.0</ele><time>2026-04-25T08:22:05.999Z</time></trkpt><trkpt lat="43.67008487284733" lon="11.363097263802437"><ele>241.0</ele><time>2026-04-25T08:22:06.999Z</time></trkpt><trkpt lat="43.670053263495724" lon="11.363230598656473"><ele>242.0</ele><time>2026-04-25T08:22:07.999Z</time></trkpt><trkpt lat="43.67002079389502" lon="11.363359580796711"><ele>242.00000000000003</ele><time>2026-04-25T08:22:08.999Z</time></trkpt><trkpt lat="43.66998792207782" lon="11.363477724123822"><ele>242.0</ele><time>2026-04-25T08:22:09.999Z</time></trkpt><trkpt lat="43.669964501942616" lon="11.363573733879976"><ele>242.0</ele><time>2026-04-25T08:22:10.999Z</time></trkpt><trkpt lat="43.66992159709691" lon="11.363648080089865"><ele>242.0</ele><time>2026-04-25T08:22:11.999Z</time></trkpt><trkpt lat="43.669865694030804" lon="11.36376361045151"><ele>242.00000000000003</ele><time>2026-04-25T08:22:13.999Z</time></trkpt><trkpt lat="43.66977454347549" lon="11.363700344194894"><ele>242.0</ele><time>2026-04-25T08:22:16.999Z</time></trkpt><trkpt lat="43.6697244677823" lon="11.36358004218435"><ele>242.0</ele><time>2026-04-25T08:22:18.999Z</time></trkpt><trkpt lat="43.66967873561601" lon="11.363489407340472"><ele>241.99999999999997</ele><time>2026-04-25T08:22:19.999Z</time></trkpt><trkpt lat="43.66964471472028" lon="11.363394425677578"><ele>242.0</ele><time>2026-04-25T08:22:20.999Z</time></trkpt><trkpt lat="43.66961622608463" lon="11.363308876790711"><ele>242.0</ele><time>2026-04-25T08:22:21.999Z</time></trkpt><trkpt lat="43.66961506842551" lon="11.36320539370294"><ele>241.99999999999997</ele><time>2026-04-25T08:22:22.999Z</time></trkpt><trkpt lat="43.66961077812443" lon="11.363111918810114"><ele>242.0</ele><time>2026-04-25T08:22:23.999Z</time></trkpt><trkpt lat="43.66959455712901" lon="11.36302144937815"><ele>242.0</ele><time>2026-04-25T08:22:24.999Z</time></trkpt><trkpt lat="43.66957902407247" lon="11.362924314794999"><ele>242.16666666666669</ele><time>2026-04-25T08:22:25.999Z</time></trkpt><trkpt lat="43.66952853766179" lon="11.362866986411245"><ele>242.33333333333334</ele><time>2026-04-25T08:22:26.999Z</time></trkpt><trkpt lat="43.66946531491693" lon="11.362865155083462"><ele>242.5</ele><time>2026-04-25T08:22:27.999Z</time></trkpt><trkpt lat="43.66938678638019" lon="11.362922680393405"><ele>242.66666666666669</ele><time>2026-04-25T08:22:28.999Z</time></trkpt><trkpt lat="43.66933826347701" lon="11.36300102521147"><ele>242.83333333333334</ele><time>2026-04-25T08:22:29.999Z</time></trkpt><trkpt lat="43.66930669280879" lon="11.363115243448503"><ele>243.0</ele><time>2026-04-25T08:22:30.999Z</time></trkpt><trkpt lat="43.66929266511584" lon="11.36326007714093"><ele>247.0</ele><time>2026-04-25T08:22:31.999Z</time></trkpt><trkpt lat="43.66934297624894" lon="11.363339062104716"><ele>251.0</ele><time>2026-04-25T08:22:32.999Z</time></trkpt><trkpt lat="43.66938021950264" lon="11.363419807656816"><ele>255.0</ele><time>2026-04-25T08:22:33.999Z</time></trkpt><trkpt lat="43.66935736012821" lon="11.363559740823993"><ele>259.0</ele><time>2026-04-25T08:22:35.999Z</time></trkpt><trkpt lat="43.669300278994186" lon="11.363641517780938"><ele>263.0</ele><time>2026-04-25T08:22:37.999Z</time></trkpt><trkpt lat="43.669166419483616" lon="11.363582735880819"><ele>263.0</ele><time>2026-04-25T08:22:39.999Z</time></trkpt><trkpt lat="43.66910857649805" lon="11.363541135920498"><ele>263.0</ele><time>2026-04-25T08:22:40.999Z</time></trkpt><trkpt lat="43.669046862988125" lon="11.363492802277774"><ele>263.0</ele><time>2026-04-25T08:22:41.999Z</time></trkpt><trkpt lat="43.668995349364764" lon="11.36342789710204"><ele>263.0</ele><time>2026-04-25T08:22:42.999Z</time></trkpt><trkpt lat="43.66892900611879" lon="11.363347216541516"><ele>263.0</ele><time>2026-04-25T08:22:43.999Z</time></trkpt><trkpt lat="43.66886763234874" lon="11.363263800366159"><ele>263.0</ele><time>2026-04-25T08:22:44.999Z</time></trkpt><trkpt lat="43.66880631623368" lon="11.363174553300752"><ele>263.0</ele><time>2026-04-25T08:22:45.999Z</time></trkpt><trkpt lat="43.668755575421095" lon="11.363089675687958"><ele>263.0</ele><time>2026-04-25T08:22:46.999Z</time></trkpt><trkpt lat="43.66874522919291" lon="11.362984239767481"><ele>263.0</ele><time>2026-04-25T08:22:47.999Z</time></trkpt><trkpt lat="43.66873699843606" lon="11.362868892024498"><ele>263.0</ele><time>2026-04-25T08:22:48.999Z</time></trkpt><trkpt lat="43.66876421508867" lon="11.362759245997717"><ele>263.0</ele><time>2026-04-25T08:22:49.999Z</time></trkpt><trkpt lat="43.66881904204346" lon="11.362666424423042"><ele>263.0</ele><time>2026-04-25T08:22:50.999Z</time></trkpt><trkpt lat="43.668881545189976" lon="11.362569117847116"><ele>263.8</ele><time>2026-04-25T08:22:51.999Z</time></trkpt><trkpt lat="43.66895302388675" lon="11.362481065491913"><ele>264.6</ele><time>2026-04-25T08:22:52.999Z</time></trkpt><trkpt lat="43.66901671139799" lon="11.362410768507695"><ele>265.4</ele><time>2026-04-25T08:22:53.999Z</time></trkpt><trkpt lat="43.669036722082645" lon="11.362280877535675"><ele>266.2</ele><time>2026-04-25T08:22:55.999Z</time></trkpt><trkpt lat="43.66895607832283" lon="11.36222228766942"><ele>267.0</ele><time>2026-04-25T08:22:57.999Z</time></trkpt><trkpt lat="43.668851931482656" lon="11.362309587699142"><ele>267.0</ele><time>2026-04-25T08:22:59.998Z</time></trkpt><trkpt lat="43.66879096011189" lon="11.362365073676918"><ele>267.0</ele><time>2026-04-25T08:23:00.998Z</time></trkpt><trkpt lat="43.66873186488935" lon="11.362434298418318"><ele>267.0</ele><time>2026-04-25T08:23:01.998Z</time></trkpt><trkpt lat="43.66867057213105" lon="11.362498380734655"><ele>267.0</ele><time>2026-04-25T08:23:02.998Z</time></trkpt><trkpt lat="43.66861945083304" lon="11.362560182967584"><ele>267.0</ele><time>2026-04-25T08:23:03.998Z</time></trkpt><trkpt lat="43.66856663744188" lon="11.362642847617558"><ele>267.0</ele><time>2026-04-25T08:23:05Z</time></trkpt><trkpt lat="43.6685147537998" lon="11.362742619061345"><ele>270.5</ele><time>2026-04-25T08:23:06Z</time></trkpt><trkpt lat="43.66848134810434" lon="11.362844622965637"><ele>274.0</ele><time>2026-04-25T08:23:07Z</time></trkpt><trkpt lat="43.66846461694361" lon="11.362937644462027"><ele>277.5</ele><time>2026-04-25T08:23:08Z</time></trkpt><trkpt lat="43.66846272230216" lon="11.363039309396482"><ele>281.0</ele><time>2026-04-25T08:23:09Z</time></trkpt><trkpt lat="43.66846256768733" lon="11.363135062482334"><ele>284.5</ele><time>2026-04-25T08:23:10Z</time></trkpt><trkpt lat="43.66846784354072" lon="11.363239308159756"><ele>288.0</ele><time>2026-04-25T08:23:11Z</time></trkpt><trkpt lat="43.66836053554865" lon="11.363296895787892"><ele>288.0</ele><time>2026-04-25T08:23:13Z</time></trkpt><trkpt lat="43.66823001637103" lon="11.363182336400937"><ele>288.0</ele><time>2026-04-25T08:23:15Z</time></trkpt><trkpt lat="43.66817360838229" lon="11.363123645551353"><ele>288.0</ele><time>2026-04-25T08:23:16Z</time></trkpt><trkpt lat="43.66810147907179" lon="11.363100813967597"><ele>288.0</ele><time>2026-04-25T08:23:17Z</time></trkpt><trkpt lat="43.66801444163217" lon="11.363126871290504"><ele>288.0</ele><time>2026-04-25T08:23:18Z</time></trkpt><trkpt lat="43.66794484138059" lon="11.363162592401498"><ele>288.0</ele><time>2026-04-25T08:23:19Z</time></trkpt><trkpt lat="43.66787833339328" lon="11.3632060312288"><ele>288.0</ele><time>2026-04-25T08:23:20Z</time></trkpt><trkpt lat="43.66783204261344" lon="11.363275247184799"><ele>288.0</ele><time>2026-04-25T08:23:21Z</time></trkpt><trkpt lat="43.667779350561354" lon="11.363383420377003"><ele>288.0</ele><time>2026-04-25T08:23:22Z</time></trkpt><trkpt lat="43.66776262431132" lon="11.363508220447397"><ele>288.0</ele><time>2026-04-25T08:23:23Z</time></trkpt><trkpt lat="43.66774686003787" lon="11.363604644846722"><ele>288.0</ele><time>2026-04-25T08:23:24Z</time></trkpt><trkpt lat="43.667757614869764" lon="11.363722548020194"><ele>289.8333333333333</ele><time>2026-04-25T08:23:25Z</time></trkpt><trkpt lat="43.66773159060453" lon="11.363820031907249"><ele>291.6666666666667</ele><time>2026-04-25T08:23:26Z</time></trkpt><trkpt lat="43.667664940880925" lon="11.363880192730017"><ele>293.5</ele><time>2026-04-25T08:23:27Z</time></trkpt><trkpt lat="43.66759306330087" lon="11.363915959593072"><ele>295.33333333333337</ele><time>2026-04-25T08:23:28Z</time></trkpt><trkpt lat="43.66750535876127" lon="11.363903542808458"><ele>297.1666666666667</ele><time>2026-04-25T08:23:29Z</time></trkpt><trkpt lat="43.66741536926031" lon="11.363862081323422"><ele>299.0</ele><time>2026-04-25T08:23:30Z</time></trkpt><trkpt lat="43.667344792925796" lon="11.36384780639823"><ele>299.0</ele><time>2026-04-25T08:23:31Z</time></trkpt><trkpt lat="43.66727845515433" lon="11.363845667273512"><ele>299.0</ele><time>2026-04-25T08:23:32Z</time></trkpt><trkpt lat="43.667192611376976" lon="11.363900200010201"><ele>299.0</ele><time>2026-04-25T08:23:33Z</time></trkpt><trkpt lat="43.667121837545835" lon="11.363932266686167"><ele>299.0</ele><time>2026-04-25T08:23:34Z</time></trkpt><trkpt lat="43.6670661936356" lon="11.363991202642774"><ele>299.0</ele><time>2026-04-25T08:23:35Z</time></trkpt><trkpt lat="43.66701874976454" lon="11.364077945190973"><ele>299.0</ele><time>2026-04-25T08:23:36Z</time></trkpt><trkpt lat="43.66697086212059" lon="11.364148083815419"><ele>303.2</ele><time>2026-04-25T08:23:37Z</time></trkpt><trkpt lat="43.66689379203271" lon="11.364246411281663"><ele>307.4</ele><time>2026-04-25T08:23:38Z</time></trkpt><trkpt lat="43.6668432672857" lon="11.364354646952048"><ele>311.6</ele><time>2026-04-25T08:23:39Z</time></trkpt><trkpt lat="43.666779743147615" lon="11.364438318615862"><ele>315.8</ele><time>2026-04-25T08:23:40Z</time></trkpt><trkpt lat="43.666726775612865" lon="11.364521995009737"><ele>320.0</ele><time>2026-04-25T08:23:41Z</time></trkpt><trkpt lat="43.66662319815309" lon="11.364564664389013"><ele>320.0</ele><time>2026-04-25T08:23:43Z</time></trkpt><trkpt lat="43.666595579991174" lon="11.36448324402821"><ele>320.0</ele><time>2026-04-25T08:23:44Z</time></trkpt><trkpt lat="43.666577774841706" lon="11.364399216725733"><ele>320.0</ele><time>2026-04-25T08:23:45Z</time></trkpt><trkpt lat="43.66660275620797" lon="11.364284527741816"><ele>320.0</ele><time>2026-04-25T08:23:46Z</time></trkpt><trkpt lat="43.66662967219769" lon="11.364179100257102"><ele>320.0</ele><time>2026-04-25T08:23:47Z</time></trkpt><trkpt lat="43.66664762599037" lon="11.36406291414661"><ele>320.0</ele><time>2026-04-25T08:23:48Z</time></trkpt><trkpt lat="43.66666822221519" lon="11.363942318037166"><ele>320.0</ele><time>2026-04-25T08:23:49Z</time></trkpt><trkpt lat="43.66667806908945" lon="11.363851382556502"><ele>320.0</ele><time>2026-04-25T08:23:50Z</time></trkpt><trkpt lat="43.66661837712186" lon="11.363744520601506"><ele>320.0</ele><time>2026-04-25T08:23:52Z</time></trkpt><trkpt lat="43.66652707397052" lon="11.36381778166622"><ele>320.0</ele><time>2026-04-25T08:23:54Z</time></trkpt><trkpt lat="43.66648247771687" lon="11.363907426582129"><ele>320.0</ele><time>2026-04-25T08:23:55Z</time></trkpt><trkpt lat="43.66643388917116" lon="11.36398660638291"><ele>320.0</ele><time>2026-04-25T08:23:56Z</time></trkpt><trkpt lat="43.66638364719105" lon="11.364068038661518"><ele>320.0</ele><time>2026-04-25T08:23:56.999Z</time></trkpt><trkpt lat="43.66633529994101" lon="11.364144456972944"><ele>320.0</ele><time>2026-04-25T08:23:57.999Z</time></trkpt><trkpt lat="43.66628557394053" lon="11.364234336246067"><ele>320.0</ele><time>2026-04-25T08:23:58.999Z</time></trkpt><trkpt lat="43.66622856230694" lon="11.364319430689035"><ele>320.0</ele><time>2026-04-25T08:23:59.999Z</time></trkpt><trkpt lat="43.66617469694708" lon="11.364404197002605"><ele>320.0</ele><time>2026-04-25T08:24:00.999Z</time></trkpt><trkpt lat="43.66612148421879" lon="11.36449627811195"><ele>320.0</ele><time>2026-04-25T08:24:01.999Z</time></trkpt><trkpt lat="43.66604612108393" lon="11.364543020714603"><ele>323.1666666666667</ele><time>2026-04-25T08:24:02.999Z</time></trkpt><trkpt lat="43.66599107056951" lon="11.364605714127183"><ele>326.33333333333337</ele><time>2026-04-25T08:24:03.999Z</time></trkpt><trkpt lat="43.66595522361628" lon="11.364696819451305"><ele>329.5</ele><time>2026-04-25T08:24:04.999Z</time></trkpt><trkpt lat="43.66584067082334" lon="11.364698571956545"><ele>332.6666666666667</ele><time>2026-04-25T08:24:06.999Z</time></trkpt><trkpt lat="43.665803357845135" lon="11.364619757271608"><ele>335.8333333333333</ele><time>2026-04-25T08:24:07.999Z</time></trkpt><trkpt lat="43.665790817852105" lon="11.364514918056596"><ele>339.0</ele><time>2026-04-25T08:24:08.999Z</time></trkpt><trkpt lat="43.665782168205276" lon="11.364396191019296"><ele>339.6666666666667</ele><time>2026-04-25T08:24:09.999Z</time></trkpt><trkpt lat="43.6657800011152" lon="11.364296489342658"><ele>340.3333333333333</ele><time>2026-04-25T08:24:10.999Z</time></trkpt><trkpt lat="43.66576252391461" lon="11.364177687581133"><ele>341.0</ele><time>2026-04-25T08:24:11.999Z</time></trkpt><trkpt lat="43.66575066717306" lon="11.364053669983614"><ele>341.66666666666663</ele><time>2026-04-25T08:24:12.999Z</time></trkpt><trkpt lat="43.6657330922532" lon="11.363927038754984"><ele>342.3333333333333</ele><time>2026-04-25T08:24:13.999Z</time></trkpt><trkpt lat="43.665704429984366" lon="11.363836009947056"><ele>343.0</ele><time>2026-04-25T08:24:14.999Z</time></trkpt><trkpt lat="43.66562852658008" lon="11.363764554902295"><ele>343.0</ele><time>2026-04-25T08:24:16.999Z</time></trkpt><trkpt lat="43.665550801406724" lon="11.363792680484766"><ele>343.0</ele><time>2026-04-25T08:24:18.999Z</time></trkpt><trkpt lat="43.665495997970744" lon="11.363921222049006"><ele>343.0</ele><time>2026-04-25T08:24:19.999Z</time></trkpt><trkpt lat="43.66545371154417" lon="11.364010697100854"><ele>343.0</ele><time>2026-04-25T08:24:20.999Z</time></trkpt><trkpt lat="43.66541558280397" lon="11.36408107752297"><ele>343.0</ele><time>2026-04-25T08:24:21.999Z</time></trkpt><trkpt lat="43.66537364090409" lon="11.36416663403346"><ele>343.0</ele><time>2026-04-25T08:24:22.999Z</time></trkpt><trkpt lat="43.66532667869561" lon="11.364257650688591"><ele>343.0</ele><time>2026-04-25T08:24:23.999Z</time></trkpt><trkpt lat="43.66528294328612" lon="11.364356349644487"><ele>343.0</ele><time>2026-04-25T08:24:24.999Z</time></trkpt><trkpt lat="43.66524355713277" lon="11.364454155893947"><ele>343.0</ele><time>2026-04-25T08:24:25.999Z</time></trkpt><trkpt lat="43.665221230278355" lon="11.364569187210162"><ele>343.0</ele><time>2026-04-25T08:24:26.999Z</time></trkpt><trkpt lat="43.665208112755764" lon="11.364682027231487"><ele>343.0</ele><time>2026-04-25T08:24:27.999Z</time></trkpt><trkpt lat="43.66519118436709" lon="11.364792785730586"><ele>343.0</ele><time>2026-04-25T08:24:28.999Z</time></trkpt><trkpt lat="43.66516198255334" lon="11.364893525748633"><ele>348.4</ele><time>2026-04-25T08:24:29.999Z</time></trkpt><trkpt lat="43.66511782786682" lon="11.364981353106234"><ele>353.79999999999995</ele><time>2026-04-25T08:24:30.999Z</time></trkpt><trkpt lat="43.66510279170894" lon="11.365093230337717"><ele>359.2</ele><time>2026-04-25T08:24:31.999Z</time></trkpt><trkpt lat="43.66508413864532" lon="11.365203994713587"><ele>364.6</ele><time>2026-04-25T08:24:32.999Z</time></trkpt><trkpt lat="43.665052156433354" lon="11.365295981903216"><ele>370.0</ele><time>2026-04-25T08:24:33.999Z</time></trkpt><trkpt lat="43.664903251699705" lon="11.365308352448794"><ele>370.0</ele><time>2026-04-25T08:24:34.999Z</time></trkpt><trkpt lat="43.66482178804112" lon="11.365330235980611"><ele>370.0</ele><time>2026-04-25T08:24:35.999Z</time></trkpt><trkpt lat="43.66475426799889" lon="11.365294340340231"><ele>370.0</ele><time>2026-04-25T08:24:36.999Z</time></trkpt><trkpt lat="43.66466832497865" lon="11.365296608470944"><ele>370.0</ele><time>2026-04-25T08:24:37.999Z</time></trkpt><trkpt lat="43.66459531104413" lon="11.365314343210404"><ele>370.0</ele><time>2026-04-25T08:24:38.999Z</time></trkpt><trkpt lat="43.664504094646176" lon="11.365368559862647"><ele>370.0</ele><time>2026-04-25T08:24:39.999Z</time></trkpt><trkpt lat="43.664413751574706" lon="11.365521772129407"><ele>370.16666666666663</ele><time>2026-04-25T08:24:41.999Z</time></trkpt><trkpt lat="43.66433594473025" lon="11.36555260268818"><ele>370.3333333333333</ele><time>2026-04-25T08:24:42.999Z</time></trkpt><trkpt lat="43.66427468740257" lon="11.365619359241629"><ele>370.5</ele><time>2026-04-25T08:24:43.999Z</time></trkpt><trkpt lat="43.66422571540733" lon="11.365707758959557"><ele>370.6666666666667</ele><time>2026-04-25T08:24:44.999Z</time></trkpt><trkpt lat="43.664177192367745" lon="11.365806320335242"><ele>370.83333333333337</ele><time>2026-04-25T08:24:45.999Z</time></trkpt><trkpt lat="43.664130510504805" lon="11.365914252164686"><ele>371.0</ele><time>2026-04-25T08:24:46.999Z</time></trkpt><trkpt lat="43.66408505901738" lon="11.366020382334272"><ele>371.0</ele><time>2026-04-25T08:24:47.999Z</time></trkpt><trkpt lat="43.66403605523834" lon="11.366134024049627"><ele>371.0</ele><time>2026-04-25T08:24:48.999Z</time></trkpt><trkpt lat="43.66398031079477" lon="11.366263498371598"><ele>371.0</ele><time>2026-04-25T08:24:49.999Z</time></trkpt><trkpt lat="43.66392492304281" lon="11.3663869917317"><ele>371.0</ele><time>2026-04-25T08:24:50.999Z</time></trkpt><trkpt lat="43.663875152810775" lon="11.36650876365371"><ele>371.0</ele><time>2026-04-25T08:24:51.999Z</time></trkpt><trkpt lat="43.66383227202122" lon="11.366630581143548"><ele>372.83333333333337</ele><time>2026-04-25T08:24:52.999Z</time></trkpt><trkpt lat="43.66377474183513" lon="11.366727897794172"><ele>374.6666666666667</ele><time>2026-04-25T08:24:53.999Z</time></trkpt><trkpt lat="43.66371054366323" lon="11.3667684931575"><ele>376.5</ele><time>2026-04-25T08:24:54.999Z</time></trkpt><trkpt lat="43.663660562157084" lon="11.366854056472803"><ele>378.3333333333333</ele><time>2026-04-25T08:24:55.999Z</time></trkpt><trkpt lat="43.66359131698054" lon="11.366901658643252"><ele>380.16666666666663</ele><time>2026-04-25T08:24:56.999Z</time></trkpt><trkpt lat="43.663524807210834" lon="11.36694146736627"><ele>382.0</ele><time>2026-04-25T08:24:57.999Z</time></trkpt><trkpt lat="43.663460347758274" lon="11.36699458494039"><ele>382.0</ele><time>2026-04-25T08:24:58.999Z</time></trkpt><trkpt lat="43.66340062662375" lon="11.36702274919559"><ele>382.0</ele><time>2026-04-25T08:24:59.999Z</time></trkpt><trkpt lat="43.66333712083699" lon="11.367019494023234"><ele>382.0</ele><time>2026-04-25T08:25:00.999Z</time></trkpt><trkpt lat="43.663265606348" lon="11.36700513852951"><ele>382.0</ele><time>2026-04-25T08:25:01.999Z</time></trkpt><trkpt lat="43.6631858956067" lon="11.367016785294108"><ele>382.0</ele><time>2026-04-25T08:25:02.999Z</time></trkpt><trkpt lat="43.663108477633315" lon="11.367013448388718"><ele>382.0</ele><time>2026-04-25T08:25:03.999Z</time></trkpt><trkpt lat="43.66304319896065" lon="11.366976123708985"><ele>382.0</ele><time>2026-04-25T08:25:04.998Z</time></trkpt><trkpt lat="43.66297357541632" lon="11.366918177029392"><ele>382.0</ele><time>2026-04-25T08:25:05.998Z</time></trkpt><trkpt lat="43.66291046373404" lon="11.366873910864232"><ele>382.0</ele><time>2026-04-25T08:25:06.998Z</time></trkpt><trkpt lat="43.66285086129557" lon="11.36681844990587"><ele>382.0</ele><time>2026-04-25T08:25:07.998Z</time></trkpt><trkpt lat="43.662792505591526" lon="11.36677009789418"><ele>382.0</ele><time>2026-04-25T08:25:08.998Z</time></trkpt><trkpt lat="43.662730135819565" lon="11.366729386066549"><ele>382.0</ele><time>2026-04-25T08:25:09.998Z</time></trkpt><trkpt lat="43.66266795716526" lon="11.36669526241704"><ele>382.0</ele><time>2026-04-25T08:25:11Z</time></trkpt><trkpt lat="43.66258826981902" lon="11.366679542768047"><ele>382.0</ele><time>2026-04-25T08:25:12Z</time></trkpt><trkpt lat="43.66246882124869" lon="11.366603941329105"><ele>381.8</ele><time>2026-04-25T08:25:14Z</time></trkpt><trkpt lat="43.662390825018825" lon="11.366529017021621"><ele>381.6</ele><time>2026-04-25T08:25:16Z</time></trkpt><trkpt lat="43.66230831665762" lon="11.366435020124133"><ele>381.40000000000003</ele><time>2026-04-25T08:25:18Z</time></trkpt><trkpt lat="43.66221921068411" lon="11.366323535611576"><ele>381.20000000000005</ele><time>2026-04-25T08:25:20Z</time></trkpt><trkpt lat="43.66216036746909" lon="11.366262767894868"><ele>381.0</ele><time>2026-04-25T08:25:21Z</time></trkpt><trkpt lat="43.662066946026435" lon="11.366204858879291"><ele>383.6666666666667</ele><time>2026-04-25T08:25:23Z</time></trkpt><trkpt lat="43.66199155625787" lon="11.366209802548603"><ele>386.33333333333337</ele><time>2026-04-25T08:25:24Z</time></trkpt><trkpt lat="43.661918678829785" lon="11.366220810174669"><ele>389.0</ele><time>2026-04-25T08:25:25Z</time></trkpt><trkpt lat="43.66184877674948" lon="11.366127642350158"><ele>391.6666666666667</ele><time>2026-04-25T08:25:27Z</time></trkpt><trkpt lat="43.66184119221478" lon="11.366040655469428"><ele>394.33333333333337</ele><time>2026-04-25T08:25:28Z</time></trkpt><trkpt lat="43.66185979218577" lon="11.365950505279462"><ele>397.0</ele><time>2026-04-25T08:25:29Z</time></trkpt><trkpt lat="43.661874454087666" lon="11.365837428675478"><ele>397.00000000000006</ele><time>2026-04-25T08:25:30Z</time></trkpt><trkpt lat="43.66188707610135" lon="11.365697635818032"><ele>397.0</ele><time>2026-04-25T08:25:31Z</time></trkpt><trkpt lat="43.66188960664543" lon="11.365555732211552"><ele>397.0</ele><time>2026-04-25T08:25:32Z</time></trkpt><trkpt lat="43.66190433042643" lon="11.365456033486886"><ele>397.0</ele><time>2026-04-25T08:25:33Z</time></trkpt><trkpt lat="43.661929899574915" lon="11.365357388351164"><ele>397.00000000000006</ele><time>2026-04-25T08:25:34Z</time></trkpt><trkpt lat="43.66196395314723" lon="11.365243589693678"><ele>397.0</ele><time>2026-04-25T08:25:35Z</time></trkpt><trkpt lat="43.6620186178286" lon="11.365125969881678"><ele>403.20000000000005</ele><time>2026-04-25T08:25:36Z</time></trkpt><trkpt lat="43.66206347835193" lon="11.365021500405119"><ele>409.4</ele><time>2026-04-25T08:25:37Z</time></trkpt><trkpt lat="43.6621555431383" lon="11.364942005107965"><ele>415.59999999999997</ele><time>2026-04-25T08:25:39Z</time></trkpt><trkpt lat="43.66224602030365" lon="11.364920360654184"><ele>421.79999999999995</ele><time>2026-04-25T08:25:40Z</time></trkpt><trkpt lat="43.662326487014596" lon="11.36486964491636"><ele>428.0</ele><time>2026-04-25T08:25:41Z</time></trkpt><trkpt lat="43.66243967395677" lon="11.364806981533237"><ele>427.99999999999994</ele><time>2026-04-25T08:25:42Z</time></trkpt><trkpt lat="43.662530615903144" lon="11.364770900006649"><ele>428.0</ele><time>2026-04-25T08:25:43Z</time></trkpt><trkpt lat="43.66259221992521" lon="11.364731375963597"><ele>428.0</ele><time>2026-04-25T08:25:44Z</time></trkpt><trkpt lat="43.66262379227675" lon="11.364650937511687"><ele>428.0</ele><time>2026-04-25T08:25:45Z</time></trkpt><trkpt lat="43.66267902224055" lon="11.364565106312297"><ele>427.99999999999994</ele><time>2026-04-25T08:25:46Z</time></trkpt><trkpt lat="43.662725716483244" lon="11.364442191583503"><ele>428.0</ele><time>2026-04-25T08:25:47Z</time></trkpt><trkpt lat="43.66277580265495" lon="11.364369718922635"><ele>430.0</ele><time>2026-04-25T08:25:49Z</time></trkpt><trkpt lat="43.662843562313014" lon="11.364493247878142"><ele>431.99999999999994</ele><time>2026-04-25T08:25:51Z</time></trkpt><trkpt lat="43.66289924641699" lon="11.364671101583912"><ele>433.99999999999994</ele><time>2026-04-25T08:25:53Z</time></trkpt><trkpt lat="43.66295661069544" lon="11.364766956364129"><ele>436.0</ele><time>2026-04-25T08:25:54Z</time></trkpt><trkpt lat="43.66298571967016" lon="11.364848803128867"><ele>438.0</ele><time>2026-04-25T08:25:55Z</time></trkpt><trkpt lat="43.66306327280258" lon="11.364941670870397"><ele>438.0</ele><time>2026-04-25T08:25:56Z</time></trkpt><trkpt lat="43.663187031392454" lon="11.364903348418794"><ele>437.99999999999994</ele><time>2026-04-25T08:25:58Z</time></trkpt><trkpt lat="43.66324065887075" lon="11.364830480966758"><ele>437.99999999999994</ele><time>2026-04-25T08:25:59Z</time></trkpt><trkpt lat="43.663289245222515" lon="11.364772690119066"><ele>438.0</ele><time>2026-04-25T08:25:59.999Z</time></trkpt><trkpt lat="43.663354229444174" lon="11.36464123988679"><ele>438.0</ele><time>2026-04-25T08:26:01.999Z</time></trkpt><trkpt lat="43.66338538849069" lon="11.364545485345992"><ele>441.0</ele><time>2026-04-25T08:26:02.999Z</time></trkpt><trkpt lat="43.66342957498141" lon="11.364431806955935"><ele>443.99999999999994</ele><time>2026-04-25T08:26:03.999Z</time></trkpt><trkpt lat="43.66347514019065" lon="11.364312689349196"><ele>446.99999999999994</ele><time>2026-04-25T08:26:04.999Z</time></trkpt><trkpt lat="43.66351938495997" lon="11.364230389365918"><ele>450.0</ele><time>2026-04-25T08:26:05.999Z</time></trkpt><trkpt lat="43.66353442455671" lon="11.364116984784554"><ele>453.0</ele><time>2026-04-25T08:26:06.999Z</time></trkpt><trkpt lat="43.66351477403192" lon="11.363943648068554"><ele>456.0</ele><time>2026-04-25T08:26:07.999Z</time></trkpt><trkpt lat="43.663489018605894" lon="11.363785844867254"><ele>459.0</ele><time>2026-04-25T08:26:08.999Z</time></trkpt><trkpt lat="43.66346483908277" lon="11.363627170934004"><ele>462.0</ele><time>2026-04-25T08:26:09.999Z</time></trkpt><trkpt lat="43.663433155608786" lon="11.363462232433326"><ele>465.0</ele><time>2026-04-25T08:26:10.999Z</time></trkpt><trkpt lat="43.663396715008396" lon="11.363280005303809"><ele>465.0</ele><time>2026-04-25T08:26:11.999Z</time></trkpt><trkpt lat="43.66337674179282" lon="11.36306284125039"><ele>465.0</ele><time>2026-04-25T08:26:12.999Z</time></trkpt><trkpt lat="43.66335783124702" lon="11.36283070295744"><ele>465.0</ele><time>2026-04-25T08:26:13.999Z</time></trkpt><trkpt lat="43.66333606363278" lon="11.362599983697104"><ele>468.5</ele><time>2026-04-25T08:26:14.999Z</time></trkpt><trkpt lat="43.663318623203715" lon="11.362417418165712"><ele>472.0</ele><time>2026-04-25T08:26:15.999Z</time></trkpt><trkpt lat="43.66331104458239" lon="11.362266184471896"><ele>475.5</ele><time>2026-04-25T08:26:16.999Z</time></trkpt><trkpt lat="43.663300371470456" lon="11.362113459340371"><ele>479.0</ele><time>2026-04-25T08:26:17.999Z</time></trkpt><trkpt lat="43.66329125049887" lon="11.36196381012639"><ele>478.99999999999994</ele><time>2026-04-25T08:26:18.999Z</time></trkpt><trkpt lat="43.663318359910186" lon="11.361870423371958"><ele>479.0</ele><time>2026-04-25T08:26:59.999Z</time></trkpt><trkpt lat="43.66333204901685" lon="11.361784512985674"><ele>479.0</ele><time>2026-04-25T08:27:01.999Z</time></trkpt><trkpt lat="43.66336324369069" lon="11.36168709998817"><ele>479.0</ele><time>2026-04-25T08:27:02.999Z</time></trkpt><trkpt lat="43.66334087819282" lon="11.361590720502516"><ele>478.99999999999994</ele><time>2026-04-25T08:27:03.999Z</time></trkpt><trkpt lat="43.663316235383114" lon="11.361497812196642"><ele>479.0</ele><time>2026-04-25T08:27:04.999Z</time></trkpt><trkpt lat="43.66326053004843" lon="11.361327755315743"><ele>479.0</ele><time>2026-04-25T08:27:05.998Z</time></trkpt><trkpt lat="43.663172916877336" lon="11.361194837737022"><ele>479.0</ele><time>2026-04-25T08:27:06.998Z</time></trkpt><trkpt lat="43.66307107997708" lon="11.361109512830852"><ele>479.0</ele><time>2026-04-25T08:27:07.998Z</time></trkpt><trkpt lat="43.662963701215105" lon="11.360999268662036"><ele>479.0</ele><time>2026-04-25T08:27:08.998Z</time></trkpt><trkpt lat="43.66287085470136" lon="11.360916157720412"><ele>479.0</ele><time>2026-04-25T08:27:09.998Z</time></trkpt><trkpt lat="43.66278808835026" lon="11.36085532983366"><ele>479.0</ele><time>2026-04-25T08:27:10.998Z</time></trkpt><trkpt lat="43.6626650051111" lon="11.36078373973744"><ele>479.0</ele><time>2026-04-25T08:27:11.998Z</time></trkpt><trkpt lat="43.662555173116246" lon="11.360712304920952"><ele>479.0</ele><time>2026-04-25T08:27:12.998Z</time></trkpt><trkpt lat="43.662440658365895" lon="11.360623880164631"><ele>479.79999999999995</ele><time>2026-04-25T08:27:13.998Z</time></trkpt><trkpt lat="43.66231791894414" lon="11.36056035013033"><ele>480.59999999999997</ele><time>2026-04-25T08:27:14.998Z</time></trkpt><trkpt lat="43.662218227241695" lon="11.360496986831459"><ele>481.4</ele><time>2026-04-25T08:27:15.998Z</time></trkpt><trkpt lat="43.662126994534354" lon="11.360432761740348"><ele>482.2</ele><time>2026-04-25T08:27:17Z</time></trkpt><trkpt lat="43.66202870513139" lon="11.360381300414968"><ele>483.0</ele><time>2026-04-25T08:27:18Z</time></trkpt><trkpt lat="43.661916567595505" lon="11.360309667591093"><ele>490.75</ele><time>2026-04-25T08:27:19Z</time></trkpt><trkpt lat="43.66180232643165" lon="11.360213411158451"><ele>498.5</ele><time>2026-04-25T08:27:20Z</time></trkpt><trkpt lat="43.661699789910905" lon="11.360105212485832"><ele>506.25</ele><time>2026-04-25T08:27:21Z</time></trkpt><trkpt lat="43.66161674378944" lon="11.360004641936632"><ele>514.0</ele><time>2026-04-25T08:27:22Z</time></trkpt><trkpt lat="43.66154289828137" lon="11.359900581118461"><ele>514.0</ele><time>2026-04-25T08:27:23Z</time></trkpt><trkpt lat="43.66146080530266" lon="11.359806017040912"><ele>514.0</ele><time>2026-04-25T08:27:24Z</time></trkpt><trkpt lat="43.661303707636506" lon="11.359762905322812"><ele>514.0</ele><time>2026-04-25T08:27:25Z</time></trkpt><trkpt lat="43.66121456037216" lon="11.359673796526476"><ele>514.0</ele><time>2026-04-25T08:27:26Z</time></trkpt><trkpt lat="43.661144560935526" lon="11.359588014587187"><ele>517.1666666666667</ele><time>2026-04-25T08:27:27Z</time></trkpt><trkpt lat="43.66113340352465" lon="11.359459147953222"><ele>520.3333333333334</ele><time>2026-04-25T08:27:28Z</time></trkpt><trkpt lat="43.661108695453166" lon="11.359341889386563"><ele>523.5</ele><time>2026-04-25T08:27:29Z</time></trkpt><trkpt lat="43.66109834345563" lon="11.359234851331474"><ele>526.6666666666666</ele><time>2026-04-25T08:27:30Z</time></trkpt><trkpt lat="43.66100486201357" lon="11.359134889259467"><ele>529.8333333333333</ele><time>2026-04-25T08:27:32Z</time></trkpt><trkpt lat="43.6609406923105" lon="11.359102221613382"><ele>533.0</ele><time>2026-04-25T08:27:34Z</time></trkpt><trkpt lat="43.66086617318911" lon="11.359112235368281"><ele>533.0</ele><time>2026-04-25T08:27:35Z</time></trkpt><trkpt lat="43.66078638619574" lon="11.359119985013931"><ele>533.0</ele><time>2026-04-25T08:27:36Z</time></trkpt><trkpt lat="43.660701307494605" lon="11.359131148513345"><ele>533.0</ele><time>2026-04-25T08:27:37Z</time></trkpt><trkpt lat="43.66060854577663" lon="11.359099825356708"><ele>533.0</ele><time>2026-04-25T08:27:38Z</time></trkpt><trkpt lat="43.66051945925707" lon="11.35906990142813"><ele>533.0</ele><time>2026-04-25T08:27:39Z</time></trkpt><trkpt lat="43.660443872552996" lon="11.359019913891947"><ele>533.0</ele><time>2026-04-25T08:27:40Z</time></trkpt><trkpt lat="43.66036009983392" lon="11.358974487686233"><ele>534.4</ele><time>2026-04-25T08:27:41Z</time></trkpt><trkpt lat="43.66028835632504" lon="11.35884756113584"><ele>535.8</ele><time>2026-04-25T08:27:42Z</time></trkpt><trkpt lat="43.660175101755236" lon="11.358788302415036"><ele>537.2</ele><time>2026-04-25T08:27:43Z</time></trkpt><trkpt lat="43.660090915718094" lon="11.35875378431027"><ele>538.6</ele><time>2026-04-25T08:27:44Z</time></trkpt><trkpt lat="43.660000952299015" lon="11.358689485315097"><ele>540.0</ele><time>2026-04-25T08:27:45Z</time></trkpt><trkpt lat="43.65992260216594" lon="11.358573902682123"><ele>540.0</ele><time>2026-04-25T08:27:46Z</time></trkpt><trkpt lat="43.65984017629453" lon="11.358475462450578"><ele>540.0</ele><time>2026-04-25T08:27:47Z</time></trkpt><trkpt lat="43.65976726283027" lon="11.358392413904623"><ele>540.0</ele><time>2026-04-25T08:27:48Z</time></trkpt><trkpt lat="43.65967397667131" lon="11.358335028349941"><ele>540.0</ele><time>2026-04-25T08:27:49Z</time></trkpt><trkpt lat="43.65961478560018" lon="11.358261366691417"><ele>540.0</ele><time>2026-04-25T08:27:50Z</time></trkpt><trkpt lat="43.65948613505254" lon="11.358271267337514"><ele>543.8</ele><time>2026-04-25T08:27:52Z</time></trkpt><trkpt lat="43.65937204732171" lon="11.358338392182649"><ele>547.6</ele><time>2026-04-25T08:27:54Z</time></trkpt><trkpt lat="43.65930483598206" lon="11.358419719398642"><ele>551.4</ele><time>2026-04-25T08:27:55Z</time></trkpt><trkpt lat="43.659207779333016" lon="11.358452797137243"><ele>555.2</ele><time>2026-04-25T08:27:56Z</time></trkpt><trkpt lat="43.65912856670794" lon="11.358457942937246"><ele>559.0</ele><time>2026-04-25T08:27:57Z</time></trkpt><trkpt lat="43.659038526757335" lon="11.35844379419109"><ele>559.0</ele><time>2026-04-25T08:27:58Z</time></trkpt><trkpt lat="43.658958123246705" lon="11.358473546461417"><ele>559.0</ele><time>2026-04-25T08:27:59Z</time></trkpt><trkpt lat="43.65886135765713" lon="11.358503779806561"><ele>559.0</ele><time>2026-04-25T08:28:00Z</time></trkpt><trkpt lat="43.65877961251016" lon="11.358444460427071"><ele>559.0</ele><time>2026-04-25T08:28:01Z</time></trkpt><trkpt lat="43.65871182960519" lon="11.358439836348676"><ele>559.0</ele><time>2026-04-25T08:28:02Z</time></trkpt><trkpt lat="43.6586396288571" lon="11.358462623455505"><ele>559.0</ele><time>2026-04-25T08:28:03Z</time></trkpt><trkpt lat="43.65855996347603" lon="11.358527172212478"><ele>561.0</ele><time>2026-04-25T08:28:04Z</time></trkpt><trkpt lat="43.65849393037223" lon="11.358609270824257"><ele>563.0</ele><time>2026-04-25T08:28:05Z</time></trkpt><trkpt lat="43.658381474755345" lon="11.358526283240293"><ele>565.0</ele><time>2026-04-25T08:28:07.999Z</time></trkpt><trkpt lat="43.658309807306324" lon="11.358450649544055"><ele>567.0</ele><time>2026-04-25T08:28:08.999Z</time></trkpt><trkpt lat="43.65825328168823" lon="11.358368980226167"><ele>569.0</ele><time>2026-04-25T08:28:09.999Z</time></trkpt><trkpt lat="43.658196738986284" lon="11.35825653185506"><ele>569.0</ele><time>2026-04-25T08:28:10.999Z</time></trkpt><trkpt lat="43.658141058656774" lon="11.358136808017566"><ele>569.0</ele><time>2026-04-25T08:28:11.999Z</time></trkpt><trkpt lat="43.658081561543504" lon="11.358035292333641"><ele>569.0</ele><time>2026-04-25T08:28:12.999Z</time></trkpt><trkpt lat="43.65801659314486" lon="11.357967877970854"><ele>569.0</ele><time>2026-04-25T08:28:13.999Z</time></trkpt><trkpt lat="43.65794508113752" lon="11.357919641118395"><ele>569.0</ele><time>2026-04-25T08:28:14.999Z</time></trkpt><trkpt lat="43.65784878372266" lon="11.35789468071264"><ele>571.0</ele><time>2026-04-25T08:28:15.999Z</time></trkpt><trkpt lat="43.657764229154274" lon="11.357860941284274"><ele>573.0</ele><time>2026-04-25T08:28:16.999Z</time></trkpt><trkpt lat="43.65769841955214" lon="11.357819964721253"><ele>575.0</ele><time>2026-04-25T08:28:17.999Z</time></trkpt><trkpt lat="43.657593475442475" lon="11.3577912179178"><ele>577.0</ele><time>2026-04-25T08:28:18.999Z</time></trkpt><trkpt lat="43.65751577510294" lon="11.357725462768766"><ele>579.0</ele><time>2026-04-25T08:28:19.999Z</time></trkpt><trkpt lat="43.6574295064859" lon="11.357653992301765"><ele>579.0</ele><time>2026-04-25T08:28:21.999Z</time></trkpt><trkpt lat="43.65735152651141" lon="11.357605970576913"><ele>579.0</ele><time>2026-04-25T08:28:22.999Z</time></trkpt><trkpt lat="43.657244135517814" lon="11.357561159128371"><ele>579.0</ele><time>2026-04-25T08:28:23.999Z</time></trkpt><trkpt lat="43.65715009847149" lon="11.357530875209765"><ele>579.0</ele><time>2026-04-25T08:28:24.999Z</time></trkpt><trkpt lat="43.65706933330039" lon="11.357493289342324"><ele>579.0</ele><time>2026-04-25T08:28:25.999Z</time></trkpt><trkpt lat="43.656986080591594" lon="11.357414312682106"><ele>580.0</ele><time>2026-04-25T08:28:26.999Z</time></trkpt><trkpt lat="43.65688457342815" lon="11.357365927606697"><ele>581.0</ele><time>2026-04-25T08:28:27.999Z</time></trkpt><trkpt lat="43.656759269823525" lon="11.357344018579756"><ele>582.0</ele><time>2026-04-25T08:28:28.999Z</time></trkpt><trkpt lat="43.65661102256693" lon="11.357332924735676"><ele>583.0</ele><time>2026-04-25T08:28:29.999Z</time></trkpt><trkpt lat="43.65649563813972" lon="11.357315129321421"><ele>583.0</ele><time>2026-04-25T08:28:30.999Z</time></trkpt><trkpt lat="43.656403745597665" lon="11.357296937239983"><ele>583.0</ele><time>2026-04-25T08:28:31.999Z</time></trkpt><trkpt lat="43.656311645758095" lon="11.357329722540701"><ele>583.0</ele><time>2026-04-25T08:28:32.999Z</time></trkpt><trkpt lat="43.656179341198936" lon="11.35737367289844"><ele>583.0</ele><time>2026-04-25T08:28:34.999Z</time></trkpt><trkpt lat="43.65609248803077" lon="11.357377613593316"><ele>583.0</ele><time>2026-04-25T08:28:35.999Z</time></trkpt><trkpt lat="43.65598572709712" lon="11.35728109886059"><ele>583.8333333333334</ele><time>2026-04-25T08:28:36.999Z</time></trkpt><trkpt lat="43.6558777769705" lon="11.357284128852664"><ele>584.6666666666667</ele><time>2026-04-25T08:28:37.999Z</time></trkpt><trkpt lat="43.65579424570899" lon="11.357268026633959"><ele>585.5</ele><time>2026-04-25T08:28:38.999Z</time></trkpt><trkpt lat="43.65571468157837" lon="11.357280682488112"><ele>586.3333333333334</ele><time>2026-04-25T08:28:39.999Z</time></trkpt><trkpt lat="43.65563173812571" lon="11.357279755911632"><ele>587.1666666666666</ele><time>2026-04-25T08:28:40.999Z</time></trkpt><trkpt lat="43.655559867174496" lon="11.357329001677362"><ele>588.0</ele><time>2026-04-25T08:28:41.999Z</time></trkpt><trkpt lat="43.65545181673606" lon="11.35745131898371"><ele>588.0</ele><time>2026-04-25T08:28:42.999Z</time></trkpt><trkpt lat="43.65535172024572" lon="11.357509173782521"><ele>588.0</ele><time>2026-04-25T08:28:43.999Z</time></trkpt><trkpt lat="43.65527984321855" lon="11.357519640234319"><ele>588.0</ele><time>2026-04-25T08:28:44.999Z</time></trkpt><trkpt lat="43.65523372801322" lon="11.357605707181937"><ele>588.0</ele><time>2026-04-25T08:28:45.999Z</time></trkpt><trkpt lat="43.65515557158338" lon="11.357809340644327"><ele>588.0</ele><time>2026-04-25T08:28:46.999Z</time></trkpt><trkpt lat="43.65507901283505" lon="11.357974432844863"><ele>586.75</ele><time>2026-04-25T08:28:47.999Z</time></trkpt><trkpt lat="43.65500789538556" lon="11.358083831044578"><ele>585.5</ele><time>2026-04-25T08:28:48.999Z</time></trkpt><trkpt lat="43.65495190172803" lon="11.358160389488322"><ele>584.25</ele><time>2026-04-25T08:28:49.999Z</time></trkpt><trkpt lat="43.654858230986825" lon="11.35811772854362"><ele>583.0</ele><time>2026-04-25T08:28:51.999Z</time></trkpt><trkpt lat="43.663875152810775" lon="11.36650876365371"><ele>549.5</ele><time>2026-04-25T08:24:51.999Z</time></trkpt><trkpt lat="43.66383227202122" lon="11.366630581143548"><ele>516.0</ele><time>2026-04-25T08:24:52.999Z</time></trkpt><trkpt lat="43.66377474183513" lon="11.366727897794172"><ele>482.5</ele><time>2026-04-25T08:24:53.999Z</time></trkpt><trkpt lat="43.66371054366323" lon="11.3667684931575"><ele>449.0</ele><time>2026-04-25T08:24:54.999Z</time></trkpt><trkpt lat="43.663660562157084" lon="11.366854056472803"><ele>415.5</ele><time>2026-04-25T08:24:55.999Z</time></trkpt><trkpt lat="43.66359131698054" lon="11.366901658643252"><ele>382.0</ele><time>2026-04-25T08:24:56.999Z</time></trkpt><trkpt lat="43.663524807210834" lon="11.36694146736627"><ele>382.0</ele><time>2026-04-25T08:24:57.999Z</time></trkpt><trkpt lat="43.663460347758274" lon="11.36699458494039"><ele>382.0</ele><time>2026-04-25T08:24:58.999Z</time></trkpt><trkpt lat="43.66340062662375" lon="11.36702274919559"><ele>382.0</ele><time>2026-04-25T08:24:59.999Z</time></trkpt><trkpt lat="43.66333712083699" lon="11.367019494023234"><ele>382.0</ele><time>2026-04-25T08:25:00.999Z</time></trkpt><trkpt lat="43.663265606348" lon="11.36700513852951"><ele>382.0</ele><time>2026-04-25T08:25:01.999Z</time></trkpt><trkpt lat="43.6631858956067" lon="11.367016785294108"><ele>382.0</ele><time>2026-04-25T08:25:02.999Z</time></trkpt><trkpt lat="43.663108477633315" lon="11.367013448388718"><ele>382.0</ele><time>2026-04-25T08:25:03.999Z</time></trkpt><trkpt lat="43.66304319896065" lon="11.366976123708985"><ele>382.0</ele><time>2026-04-25T08:25:04.998Z</time></trkpt><trkpt lat="43.66297357541632" lon="11.366918177029392"><ele>382.0</ele><time>2026-04-25T08:25:05.998Z</time></trkpt><trkpt lat="43.66291046373404" lon="11.366873910864232"><ele>382.0</ele><time>2026-04-25T08:25:06.998Z</time></trkpt><trkpt lat="43.66285086129557" lon="11.36681844990587"><ele>382.0</ele><time>2026-04-25T08:25:07.998Z</time></trkpt><trkpt lat="43.662792505591526" lon="11.36677009789418"><ele>382.0</ele><time>2026-04-25T08:25:08.998Z</time></trkpt><trkpt lat="43.662730135819565" lon="11.366729386066549"><ele>382.0</ele><time>2026-04-25T08:25:09.998Z</time></trkpt><trkpt lat="43.66266795716526" lon="11.36669526241704"><ele>382.0</ele><time>2026-04-25T08:25:11Z</time></trkpt><trkpt lat="43.66258826981902" lon="11.366679542768047"><ele>381.75</ele><time>2026-04-25T08:25:12Z</time></trkpt><trkpt lat="43.66246882124869" lon="11.366603941329105"><ele>381.5</ele><time>2026-04-25T08:25:14Z</time></trkpt><trkpt lat="43.662390825018825" lon="11.366529017021621"><ele>381.25</ele><time>2026-04-25T08:25:16Z</time></trkpt><trkpt lat="43.66230831665762" lon="11.366435020124133"><ele>381.0</ele><time>2026-04-25T08:25:18Z</time></trkpt><trkpt lat="43.66221921068411" lon="11.366323535611576"><ele>383.6666666666667</ele><time>2026-04-25T08:25:20Z</time></trkpt><trkpt lat="43.66216036746909" lon="11.366262767894868"><ele>386.33333333333337</ele><time>2026-04-25T08:25:21Z</time></trkpt><trkpt lat="43.662066946026435" lon="11.366204858879291"><ele>389.0</ele><time>2026-04-25T08:25:23Z</time></trkpt><trkpt lat="43.66199155625787" lon="11.366209802548603"><ele>391.6666666666667</ele><time>2026-04-25T08:25:24Z</time></trkpt><trkpt lat="43.661918678829785" lon="11.366220810174669"><ele>394.33333333333337</ele><time>2026-04-25T08:25:25Z</time></trkpt><trkpt lat="43.66184877674948" lon="11.366127642350158"><ele>397.0</ele><time>2026-04-25T08:25:27Z</time></trkpt><trkpt lat="43.66184119221478" lon="11.366040655469428"><ele>397.00000000000006</ele><time>2026-04-25T08:25:28Z</time></trkpt><trkpt lat="43.66185979218577" lon="11.365950505279462"><ele>397.0</ele><time>2026-04-25T08:25:29Z</time></trkpt><trkpt lat="43.661874454087666" lon="11.365837428675478"><ele>397.0</ele><time>2026-04-25T08:25:30Z</time></trkpt><trkpt lat="43.66188707610135" lon="11.365697635818032"><ele>397.0</ele><time>2026-04-25T08:25:31Z</time></trkpt><trkpt lat="43.66188960664543" lon="11.365555732211552"><ele>397.00000000000006</ele><time>2026-04-25T08:25:32Z</time></trkpt><trkpt lat="43.66190433042643" lon="11.365456033486886"><ele>397.0</ele><time>2026-04-25T08:25:33Z</time></trkpt><trkpt lat="43.661929899574915" lon="11.365357388351164"><ele>403.20000000000005</ele><time>2026-04-25T08:25:34Z</time></trkpt><trkpt lat="43.66196395314723" lon="11.365243589693678"><ele>409.4</ele><time>2026-04-25T08:25:35Z</time></trkpt><trkpt lat="43.6620186178286" lon="11.365125969881678"><ele>415.59999999999997</ele><time>2026-04-25T08:25:36Z</time></trkpt><trkpt lat="43.66206347835193" lon="11.365021500405119"><ele>421.79999999999995</ele><time>2026-04-25T08:25:37Z</time></trkpt><trkpt lat="43.6621555431383" lon="11.364942005107965"><ele>428.0</ele><time>2026-04-25T08:25:39Z</time></trkpt><trkpt lat="43.66224602030365" lon="11.364920360654184"><ele>427.99999999999994</ele><time>2026-04-25T08:25:40Z</time></trkpt><trkpt lat="43.662326487014596" lon="11.36486964491636"><ele>428.0</ele><time>2026-04-25T08:25:41Z</time></trkpt><trkpt lat="43.66243967395677" lon="11.364806981533237"><ele>428.0</ele><time>2026-04-25T08:25:42Z</time></trkpt><trkpt lat="43.662530615903144" lon="11.364770900006649"><ele>428.0</ele><time>2026-04-25T08:25:43Z</time></trkpt><trkpt lat="43.66259221992521" lon="11.364731375963597"><ele>427.99999999999994</ele><time>2026-04-25T08:25:44Z</time></trkpt><trkpt lat="43.66262379227675" lon="11.364650937511687"><ele>428.0</ele><time>2026-04-25T08:25:45Z</time></trkpt><trkpt lat="43.66267902224055" lon="11.364565106312297"><ele>430.0</ele><time>2026-04-25T08:25:46Z</time></trkpt><trkpt lat="43.662725716483244" lon="11.364442191583503"><ele>431.99999999999994</ele><time>2026-04-25T08:25:47Z</time></trkpt><trkpt lat="43.66277580265495" lon="11.364369718922635"><ele>433.99999999999994</ele><time>2026-04-25T08:25:49Z</time></trkpt><trkpt lat="43.662843562313014" lon="11.364493247878142"><ele>436.0</ele><time>2026-04-25T08:25:51Z</time></trkpt><trkpt lat="43.66289924641699" lon="11.364671101583912"><ele>438.0</ele><time>2026-04-25T08:25:53Z</time></trkpt><trkpt lat="43.66295661069544" lon="11.364766956364129"><ele>438.0</ele><time>2026-04-25T08:25:54Z</time></trkpt><trkpt lat="43.66298571967016" lon="11.364848803128867"><ele>438.0</ele><time>2026-04-25T08:25:55Z</time></trkpt><trkpt lat="43.66306327280258" lon="11.364941670870397"><ele>438.0</ele><time>2026-04-25T08:25:56Z</time></trkpt><trkpt lat="43.663187031392454" lon="11.364903348418794"><ele>438.0</ele><time>2026-04-25T08:25:58Z</time></trkpt><trkpt lat="43.66324065887075" lon="11.364830480966758"><ele>438.0</ele><time>2026-04-25T08:25:59Z</time></trkpt><trkpt lat="43.663289245222515" lon="11.364772690119066"><ele>438.0</ele><time>2026-04-25T08:25:59.999Z</time></trkpt><trkpt lat="43.663354229444174" lon="11.36464123988679"><ele>440.5</ele><time>2026-04-25T08:26:01.999Z</time></trkpt><trkpt lat="43.66338538849069" lon="11.364545485345992"><ele>443.0</ele><time>2026-04-25T08:26:02.999Z</time></trkpt><trkpt lat="43.66342957498141" lon="11.364431806955935"><ele>445.5</ele><time>2026-04-25T08:26:03.999Z</time></trkpt><trkpt lat="43.66347514019065" lon="11.364312689349196"><ele>448.0</ele><time>2026-04-25T08:26:04.999Z</time></trkpt><trkpt lat="43.66351938495997" lon="11.364230389365918"><ele>450.5</ele><time>2026-04-25T08:26:05.999Z</time></trkpt><trkpt lat="43.66353442455671" lon="11.364116984784554"><ele>453.0</ele><time>2026-04-25T08:26:06.999Z</time></trkpt><trkpt lat="43.66351477403192" lon="11.363943648068554"><ele>456.0</ele><time>2026-04-25T08:26:07.999Z</time></trkpt><trkpt lat="43.663489018605894" lon="11.363785844867254"><ele>459.0</ele><time>2026-04-25T08:26:08.999Z</time></trkpt><trkpt lat="43.66346483908277" lon="11.363627170934004"><ele>462.0</ele><time>2026-04-25T08:26:09.999Z</time></trkpt><trkpt lat="43.663433155608786" lon="11.363462232433326"><ele>465.0</ele><time>2026-04-25T08:26:10.999Z</time></trkpt><trkpt lat="43.663396715008396" lon="11.363280005303809"><ele>465.0</ele><time>2026-04-25T08:26:11.999Z</time></trkpt><trkpt lat="43.66337674179282" lon="11.36306284125039"><ele>465.0</ele><time>2026-04-25T08:26:12.999Z</time></trkpt><trkpt lat="43.66335783124702" lon="11.36283070295744"><ele>465.0</ele><time>2026-04-25T08:26:13.999Z</time></trkpt><trkpt lat="43.66333606363278" lon="11.362599983697104"><ele>468.5</ele><time>2026-04-25T08:26:14.999Z</time></trkpt><trkpt lat="43.663318623203715" lon="11.362417418165712"><ele>472.0</ele><time>2026-04-25T08:26:15.999Z</time></trkpt><trkpt lat="43.66331104458239" lon="11.362266184471896"><ele>475.5</ele><time>2026-04-25T08:26:16.999Z</time></trkpt><trkpt lat="43.663300371470456" lon="11.362113459340371"><ele>479.0</ele><time>2026-04-25T08:26:17.999Z</time></trkpt><trkpt lat="43.66329125049887" lon="11.36196381012639"><ele>478.99999999999994</ele><time>2026-04-25T08:26:18.999Z</time></trkpt><trkpt lat="43.663318359910186" lon="11.361870423371958"><ele>479.0</ele><time>2026-04-25T08:26:59.999Z</time></trkpt><trkpt lat="43.66333204901685" lon="11.361784512985674"><ele>479.0</ele><time>2026-04-25T08:27:01.999Z</time></trkpt><trkpt lat="43.66336324369069" lon="11.36168709998817"><ele>479.0</ele><time>2026-04-25T08:27:02.999Z</time></trkpt><trkpt lat="43.66334087819282" lon="11.361590720502516"><ele>478.99999999999994</ele><time>2026-04-25T08:27:03.999Z</time></trkpt><trkpt lat="43.663316235383114" lon="11.361497812196642"><ele>479.0</ele><time>2026-04-25T08:27:04.999Z</time></trkpt><trkpt lat="43.66326053004843" lon="11.361327755315743"><ele>479.0</ele><time>2026-04-25T08:27:05.998Z</time></trkpt><trkpt lat="43.663172916877336" lon="11.361194837737022"><ele>479.0</ele><time>2026-04-25T08:27:06.998Z</time></trkpt><trkpt lat="43.66307107997708" lon="11.361109512830852"><ele>479.0</ele><time>2026-04-25T08:27:07.998Z</time></trkpt><trkpt lat="43.662963701215105" lon="11.360999268662036"><ele>479.0</ele><time>2026-04-25T08:27:08.998Z</time></trkpt><trkpt lat="43.66287085470136" lon="11.360916157720412"><ele>479.0</ele><time>2026-04-25T08:27:09.998Z</time></trkpt><trkpt lat="43.66278808835026" lon="11.36085532983366"><ele>479.0</ele><time>2026-04-25T08:27:10.998Z</time></trkpt><trkpt lat="43.6626650051111" lon="11.36078373973744"><ele>479.0</ele><time>2026-04-25T08:27:11.998Z</time></trkpt><trkpt lat="43.662555173116246" lon="11.360712304920952"><ele>479.0</ele><time>2026-04-25T08:27:12.998Z</time></trkpt><trkpt lat="43.662440658365895" lon="11.360623880164631"><ele>479.79999999999995</ele><time>2026-04-25T08:27:13.998Z</time></trkpt><trkpt lat="43.66231791894414" lon="11.36056035013033"><ele>480.59999999999997</ele><time>2026-04-25T08:27:14.998Z</time></trkpt><trkpt lat="43.662218227241695" lon="11.360496986831459"><ele>481.4</ele><time>2026-04-25T08:27:15.998Z</time></trkpt><trkpt lat="43.662126994534354" lon="11.360432761740348"><ele>482.2</ele><time>2026-04-25T08:27:17Z</time></trkpt><trkpt lat="43.66202870513139" lon="11.360381300414968"><ele>483.0</ele><time>2026-04-25T08:27:18Z</time></trkpt><trkpt lat="43.661916567595505" lon="11.360309667591093"><ele>490.75</ele><time>2026-04-25T08:27:19Z</time></trkpt><trkpt lat="43.66180232643165" lon="11.360213411158451"><ele>498.5</ele><time>2026-04-25T08:27:20Z</time></trkpt><trkpt lat="43.661699789910905" lon="11.360105212485832"><ele>506.25</ele><time>2026-04-25T08:27:21Z</time></trkpt><trkpt lat="43.66161674378944" lon="11.360004641936632"><ele>514.0</ele><time>2026-04-25T08:27:22Z</time></trkpt><trkpt lat="43.66154289828137" lon="11.359900581118461"><ele>514.0</ele><time>2026-04-25T08:27:23Z</time></trkpt><trkpt lat="43.66146080530266" lon="11.359806017040912"><ele>514.0</ele><time>2026-04-25T08:27:24Z</time></trkpt><trkpt lat="43.661303707636506" lon="11.359762905322812"><ele>514.0</ele><time>2026-04-25T08:27:25Z</time></trkpt><trkpt lat="43.66121456037216" lon="11.359673796526476"><ele>514.0</ele><time>2026-04-25T08:27:26Z</time></trkpt><trkpt lat="43.661144560935526" lon="11.359588014587187"><ele>517.1666666666667</ele><time>2026-04-25T08:27:27Z</time></trkpt><trkpt lat="43.66113340352465" lon="11.359459147953222"><ele>520.3333333333334</ele><time>2026-04-25T08:27:28Z</time></trkpt><trkpt lat="43.661108695453166" lon="11.359341889386563"><ele>523.5</ele><time>2026-04-25T08:27:29Z</time></trkpt><trkpt lat="43.66109834345563" lon="11.359234851331474"><ele>526.6666666666666</ele><time>2026-04-25T08:27:30Z</time></trkpt><trkpt lat="43.66100486201357" lon="11.359134889259467"><ele>529.8333333333333</ele><time>2026-04-25T08:27:32Z</time></trkpt><trkpt lat="43.6609406923105" lon="11.359102221613382"><ele>533.0</ele><time>2026-04-25T08:27:34Z</time></trkpt><trkpt lat="43.66086617318911" lon="11.359112235368281"><ele>533.0</ele><time>2026-04-25T08:27:35Z</time></trkpt><trkpt lat="43.66078638619574" lon="11.359119985013931"><ele>533.0</ele><time>2026-04-25T08:27:36Z</time></trkpt><trkpt lat="43.660701307494605" lon="11.359131148513345"><ele>533.0</ele><time>2026-04-25T08:27:37Z</time></trkpt><trkpt lat="43.66060854577663" lon="11.359099825356708"><ele>533.0</ele><time>2026-04-25T08:27:38Z</time></trkpt><trkpt lat="43.66051945925707" lon="11.35906990142813"><ele>533.0</ele><time>2026-04-25T08:27:39Z</time></trkpt><trkpt lat="43.660443872552996" lon="11.359019913891947"><ele>533.0</ele><time>2026-04-25T08:27:40Z</time></trkpt><trkpt lat="43.66036009983392" lon="11.358974487686233"><ele>534.4</ele><time>2026-04-25T08:27:41Z</time></trkpt><trkpt lat="43.66028835632504" lon="11.35884756113584"><ele>535.8</ele><time>2026-04-25T08:27:42Z</time></trkpt><trkpt lat="43.660175101755236" lon="11.358788302415036"><ele>537.2</ele><time>2026-04-25T08:27:43Z</time></trkpt><trkpt lat="43.660090915718094" lon="11.35875378431027"><ele>538.6</ele><time>2026-04-25T08:27:44Z</time></trkpt><trkpt lat="43.660000952299015" lon="11.358689485315097"><ele>540.0</ele><time>2026-04-25T08:27:45Z</time></trkpt><trkpt lat="43.65992260216594" lon="11.358573902682123"><ele>540.0</ele><time>2026-04-25T08:27:46Z</time></trkpt><trkpt lat="43.65984017629453" lon="11.358475462450578"><ele>540.0</ele><time>2026-04-25T08:27:47Z</time></trkpt><trkpt lat="43.65976726283027" lon="11.358392413904623"><ele>540.0</ele><time>2026-04-25T08:27:48Z</time></trkpt><trkpt lat="43.65967397667131" lon="11.358335028349941"><ele>540.0</ele><time>2026-04-25T08:27:49Z</time></trkpt><trkpt lat="43.65961478560018" lon="11.358261366691417"><ele>540.0</ele><time>2026-04-25T08:27:50Z</time></trkpt><trkpt lat="43.65948613505254" lon="11.358271267337514"><ele>543.8</ele><time>2026-04-25T08:27:52Z</time></trkpt><trkpt lat="43.65937204732171" lon="11.358338392182649"><ele>547.6</ele><time>2026-04-25T08:27:54Z</time></trkpt><trkpt lat="43.65930483598206" lon="11.358419719398642"><ele>551.4</ele><time>2026-04-25T08:27:55Z</time></trkpt><trkpt lat="43.659207779333016" lon="11.358452797137243"><ele>555.2</ele><time>2026-04-25T08:27:56Z</time></trkpt><trkpt lat="43.65912856670794" lon="11.358457942937246"><ele>559.0</ele><time>2026-04-25T08:27:57Z</time></trkpt><trkpt lat="43.659038526757335" lon="11.35844379419109"><ele>559.0</ele><time>2026-04-25T08:27:58Z</time></trkpt><trkpt lat="43.658958123246705" lon="11.358473546461417"><ele>559.0</ele><time>2026-04-25T08:27:59Z</time></trkpt><trkpt lat="43.65886135765713" lon="11.358503779806561"><ele>559.0</ele><time>2026-04-25T08:28:00Z</time></trkpt><trkpt lat="43.65877961251016" lon="11.358444460427071"><ele>559.0</ele><time>2026-04-25T08:28:01Z</time></trkpt><trkpt lat="43.65871182960519" lon="11.358439836348676"><ele>559.0</ele><time>2026-04-25T08:28:02Z</time></trkpt><trkpt lat="43.6586396288571" lon="11.358462623455505"><ele>559.0</ele><time>2026-04-25T08:28:03Z</time></trkpt><trkpt lat="43.65855996347603" lon="11.358527172212478"><ele>561.0</ele><time>2026-04-25T08:28:04Z</time></trkpt><trkpt lat="43.65849393037223" lon="11.358609270824257"><ele>563.0</ele><time>2026-04-25T08:28:05Z</time></trkpt><trkpt lat="43.658381474755345" lon="11.358526283240293"><ele>565.0</ele><time>2026-04-25T08:28:07.999Z</time></trkpt><trkpt lat="43.658309807306324" lon="11.358450649544055"><ele>567.0</ele><time>2026-04-25T08:28:08.999Z</time></trkpt><trkpt lat="43.65825328168823" lon="11.358368980226167"><ele>569.0</ele><time>2026-04-25T08:28:09.999Z</time></trkpt><trkpt lat="43.658196738986284" lon="11.35825653185506"><ele>569.0</ele><time>2026-04-25T08:28:10.999Z</time></trkpt><trkpt lat="43.658141058656774" lon="11.358136808017566"><ele>569.0</ele><time>2026-04-25T08:28:11.999Z</time></trkpt><trkpt lat="43.658081561543504" lon="11.358035292333641"><ele>569.0</ele><time>2026-04-25T08:28:12.999Z</time></trkpt><trkpt lat="43.65801659314486" lon="11.357967877970854"><ele>569.0</ele><time>2026-04-25T08:28:13.999Z</time></trkpt><trkpt lat="43.65794508113752" lon="11.357919641118395"><ele>569.0</ele><time>2026-04-25T08:28:14.999Z</time></trkpt><trkpt lat="43.65784878372266" lon="11.35789468071264"><ele>571.0</ele><time>2026-04-25T08:28:15.999Z</time></trkpt><trkpt lat="43.657764229154274" lon="11.357860941284274"><ele>573.0</ele><time>2026-04-25T08:28:16.999Z</time></trkpt><trkpt lat="43.65769841955214" lon="11.357819964721253"><ele>575.0</ele><time>2026-04-25T08:28:17.999Z</time></trkpt><trkpt lat="43.657593475442475" lon="11.3577912179178"><ele>577.0</ele><time>2026-04-25T08:28:18.999Z</time></trkpt><trkpt lat="43.65751577510294" lon="11.357725462768766"><ele>579.0</ele><time>2026-04-25T08:28:19.999Z</time></trkpt><trkpt lat="43.6574295064859" lon="11.357653992301765"><ele>579.0</ele><time>2026-04-25T08:28:21.999Z</time></trkpt><trkpt lat="43.65735152651141" lon="11.357605970576913"><ele>579.0</ele><time>2026-04-25T08:28:22.999Z</time></trkpt><trkpt lat="43.657244135517814" lon="11.357561159128371"><ele>579.0</ele><time>2026-04-25T08:28:23.999Z</time></trkpt><trkpt lat="43.65715009847149" lon="11.357530875209765"><ele>579.0</ele><time>2026-04-25T08:28:24.999Z</time></trkpt><trkpt lat="43.65706933330039" lon="11.357493289342324"><ele>579.0</ele><time>2026-04-25T08:28:25.999Z</time></trkpt><trkpt lat="43.656986080591594" lon="11.357414312682106"><ele>580.0</ele><time>2026-04-25T08:28:26.999Z</time></trkpt><trkpt lat="43.65688457342815" lon="11.357365927606697"><ele>581.0</ele><time>2026-04-25T08:28:27.999Z</time></trkpt><trkpt lat="43.656759269823525" lon="11.357344018579756"><ele>582.0</ele><time>2026-04-25T08:28:28.999Z</time></trkpt><trkpt lat="43.65661102256693" lon="11.357332924735676"><ele>583.0</ele><time>2026-04-25T08:28:29.999Z</time></trkpt><trkpt lat="43.65649563813972" lon="11.357315129321421"><ele>583.0</ele><time>2026-04-25T08:28:30.999Z</time></trkpt><trkpt lat="43.656403745597665" lon="11.357296937239983"><ele>583.0</ele><time>2026-04-25T08:28:31.999Z</time></trkpt><trkpt lat="43.656311645758095" lon="11.357329722540701"><ele>583.0</ele><time>2026-04-25T08:28:32.999Z</time></trkpt><trkpt lat="43.656179341198936" lon="11.35737367289844"><ele>583.0</ele><time>2026-04-25T08:28:34.999Z</time></trkpt><trkpt lat="43.65609248803077" lon="11.357377613593316"><ele>583.0</ele><time>2026-04-25T08:28:35.999Z</time></trkpt><trkpt lat="43.65598572709712" lon="11.35728109886059"><ele>583.8333333333334</ele><time>2026-04-25T08:28:36.999Z</time></trkpt><trkpt lat="43.6558777769705" lon="11.357284128852664"><ele>584.6666666666667</ele><time>2026-04-25T08:28:37.999Z</time></trkpt><trkpt lat="43.65579424570899" lon="11.357268026633959"><ele>585.5</ele><time>2026-04-25T08:28:38.999Z</time></trkpt><trkpt lat="43.65571468157837" lon="11.357280682488112"><ele>586.3333333333334</ele><time>2026-04-25T08:28:39.999Z</time></trkpt><trkpt lat="43.65563173812571" lon="11.357279755911632"><ele>587.1666666666666</ele><time>2026-04-25T08:28:40.999Z</time></trkpt><trkpt lat="43.655559867174496" lon="11.357329001677362"><ele>588.0</ele><time>2026-04-25T08:28:41.999Z</time></trkpt><trkpt lat="43.65545181673606" lon="11.35745131898371"><ele>588.0</ele><time>2026-04-25T08:28:42.999Z</time></trkpt><trkpt lat="43.65535172024572" lon="11.357509173782521"><ele>588.0</ele><time>2026-04-25T08:28:43.999Z</time></trkpt><trkpt lat="43.65527984321855" lon="11.357519640234319"><ele>588.0</ele><time>2026-04-25T08:28:44.999Z</time></trkpt><trkpt lat="43.65523372801322" lon="11.357605707181937"><ele>588.0</ele><time>2026-04-25T08:28:45.999Z</time></trkpt><trkpt lat="43.65515557158338" lon="11.357809340644327"><ele>588.0</ele><time>2026-04-25T08:28:46.999Z</time></trkpt><trkpt lat="43.65507901283505" lon="11.357974432844863"><ele>587.1666666666666</ele><time>2026-04-25T08:28:47.999Z</time></trkpt><trkpt lat="43.65500789538556" lon="11.358083831044578"><ele>586.3333333333334</ele><time>2026-04-25T08:28:48.999Z</time></trkpt><trkpt lat="43.65495190172803" lon="11.358160389488322"><ele>585.5</ele><time>2026-04-25T08:28:49.999Z</time></trkpt><trkpt lat="43.654858230986825" lon="11.35811772854362"><ele>584.6666666666667</ele><time>2026-04-25T08:28:51.999Z</time></trkpt><trkpt lat="43.65479406594655" lon="11.358034374495592"><ele>583.8333333333334</ele><time>2026-04-25T08:28:52.999Z</time></trkpt><trkpt lat="43.6547400886063" lon="11.357973660499203"><ele>583.0</ele><time>2026-04-25T08:28:53.999Z</time></trkpt><trkpt lat="43.65461581688393" lon="11.357913161976727"><ele>585.5</ele><time>2026-04-25T08:28:55.999Z</time></trkpt><trkpt lat="43.65451427679031" lon="11.357912399726978"><ele>588.0</ele><time>2026-04-25T08:28:56.999Z</time></trkpt><trkpt lat="43.654429949029165" lon="11.357912018931014"><ele>590.5</ele><time>2026-04-25T08:28:57.999Z</time></trkpt><trkpt lat="43.65434998627415" lon="11.357918333578287"><ele>593.0</ele><time>2026-04-25T08:28:58.999Z</time></trkpt><trkpt lat="43.65427265346469" lon="11.357926785150662"><ele>595.5</ele><time>2026-04-25T08:28:59.999Z</time></trkpt><trkpt lat="43.65418764789652" lon="11.357950210138048"><ele>598.0</ele><time>2026-04-25T08:29:00.999Z</time></trkpt><trkpt lat="43.654111329172245" lon="11.357949635150165"><ele>598.6</ele><time>2026-04-25T08:29:01.999Z</time></trkpt><trkpt lat="43.65401753008022" lon="11.357905377893474"><ele>599.1999999999999</ele><time>2026-04-25T08:29:02.999Z</time></trkpt><trkpt lat="43.65390904622189" lon="11.357856951252407"><ele>599.8</ele><time>2026-04-25T08:29:03.999Z</time></trkpt><trkpt lat="43.65380233492648" lon="11.357812235130803"><ele>600.4</ele><time>2026-04-25T08:29:04.999Z</time></trkpt><trkpt lat="43.65370568024168" lon="11.357780101698804"><ele>601.0</ele><time>2026-04-25T08:29:05.999Z</time></trkpt><trkpt lat="43.653613564609586" lon="11.357712167105733"><ele>600.0</ele><time>2026-04-25T08:29:06.999Z</time></trkpt><trkpt lat="43.65352984205136" lon="11.357691867234694"><ele>599.0</ele><time>2026-04-25T08:29:07.999Z</time></trkpt><trkpt lat="43.65345369340954" lon="11.357683068816756"><ele>598.0</ele><time>2026-04-25T08:29:08.999Z</time></trkpt><trkpt lat="43.65337684801386" lon="11.357759211413173"><ele>597.0</ele><time>2026-04-25T08:29:09.999Z</time></trkpt><trkpt lat="43.653315485168505" lon="11.357824158734054"><ele>596.0</ele><time>2026-04-25T08:29:10.999Z</time></trkpt><trkpt lat="43.65324459125941" lon="11.357867860174025"><ele>595.0</ele><time>2026-04-25T08:29:11.999Z</time></trkpt><trkpt lat="43.65317756193298" lon="11.357867567453269"><ele>595.0</ele><time>2026-04-25T08:29:12.999Z</time></trkpt><trkpt lat="43.65311141024922" lon="11.357859960539082"><ele>595.0</ele><time>2026-04-25T08:29:13.999Z</time></trkpt><trkpt lat="43.65299402160555" lon="11.357805575007244"><ele>595.0</ele><time>2026-04-25T08:29:15.998Z</time></trkpt><trkpt lat="43.65282697796266" lon="11.357740340365357"><ele>595.0</ele><time>2026-04-25T08:29:17.998Z</time></trkpt><trkpt lat="43.6527504833489" lon="11.357738492561564"><ele>595.0</ele><time>2026-04-25T08:29:18.998Z</time></trkpt><trkpt lat="43.65267841176552" lon="11.357699480029005"><ele>593.8333333333334</ele><time>2026-04-25T08:29:19.998Z</time></trkpt><trkpt lat="43.652614312070696" lon="11.357703983272005"><ele>592.6666666666667</ele><time>2026-04-25T08:29:20.998Z</time></trkpt><trkpt lat="43.65248697155627" lon="11.357729763644741"><ele>591.5</ele><time>2026-04-25T08:29:23Z</time></trkpt><trkpt lat="43.65240190611024" lon="11.357741922828597"><ele>590.3333333333334</ele><time>2026-04-25T08:29:24Z</time></trkpt><trkpt lat="43.65233409482094" lon="11.357750753423275"><ele>589.1666666666666</ele><time>2026-04-25T08:29:25Z</time></trkpt><trkpt lat="43.65224169417019" lon="11.357786789885184"><ele>588.0</ele><time>2026-04-25T08:29:27Z</time></trkpt><trkpt lat="43.65217721278499" lon="11.357889511454697"><ele>588.0</ele><time>2026-04-25T08:29:29Z</time></trkpt><trkpt lat="43.65213168813527" lon="11.358034495491465"><ele>588.0</ele><time>2026-04-25T08:29:31Z</time></trkpt><trkpt lat="43.6520747843544" lon="11.358140596226649"><ele>588.0</ele><time>2026-04-25T08:30:14.999Z</time></trkpt><trkpt lat="43.652012532868895" lon="11.358291153435413"><ele>588.0</ele><time>2026-04-25T08:30:15.999Z</time></trkpt><trkpt lat="43.651930378619525" lon="11.358388920983383"><ele>588.0</ele><time>2026-04-25T08:30:16.999Z</time></trkpt><trkpt lat="43.65186311542037" lon="11.358383604926317"><ele>587.1666666666666</ele><time>2026-04-25T08:30:17.999Z</time></trkpt><trkpt lat="43.65178104736628" lon="11.358379381531861"><ele>586.3333333333334</ele><time>2026-04-25T08:30:18.999Z</time></trkpt><trkpt lat="43.65169410717383" lon="11.358378825954231"><ele>585.5</ele><time>2026-04-25T08:30:19.999Z</time></trkpt><trkpt lat="43.65162986677838" lon="11.358388393687562"><ele>584.6666666666667</ele><time>2026-04-25T08:30:20.999Z</time></trkpt><trkpt lat="43.65155749547063" lon="11.358399446087946"><ele>583.8333333333334</ele><time>2026-04-25T08:30:21.999Z</time></trkpt><trkpt lat="43.65148246872458" lon="11.358406157638523"><ele>583.0</ele><time>2026-04-25T08:30:22.999Z</time></trkpt><trkpt lat="43.65141982140399" lon="11.358356133415285"><ele>583.0</ele><time>2026-04-25T08:30:23.999Z</time></trkpt><trkpt lat="43.651338979593824" lon="11.358316878274515"><ele>583.0</ele><time>2026-04-25T08:30:24.999Z</time></trkpt><trkpt lat="43.651259723879164" lon="11.358242246854891"><ele>583.0</ele><time>2026-04-25T08:30:25.999Z</time></trkpt><trkpt lat="43.65119387279264" lon="11.358165315046362"><ele>583.0</ele><time>2026-04-25T08:30:26.999Z</time></trkpt><trkpt lat="43.651091984108305" lon="11.358112966530802"><ele>583.0</ele><time>2026-04-25T08:30:27.999Z</time></trkpt><trkpt lat="43.65102922586887" lon="11.358010961312733"><ele>580.8</ele><time>2026-04-25T08:30:28.999Z</time></trkpt><trkpt lat="43.6509928401923" lon="11.357854009288996"><ele>578.5999999999999</ele><time>2026-04-25T08:30:29.999Z</time></trkpt><trkpt lat="43.650931856618755" lon="11.357763403936447"><ele>576.4000000000001</ele><time>2026-04-25T08:30:30.999Z</time></trkpt><trkpt lat="43.65086869184067" lon="11.357700144511446"><ele>574.2</ele><time>2026-04-25T08:30:31.999Z</time></trkpt><trkpt lat="43.650788292596" lon="11.35764611239959"><ele>572.0</ele><time>2026-04-25T08:30:32.999Z</time></trkpt><trkpt lat="43.65070109710205" lon="11.357631761198085"><ele>572.0</ele><time>2026-04-25T08:30:33.999Z</time></trkpt><trkpt lat="43.65061066515591" lon="11.357691266611644"><ele>572.0</ele><time>2026-04-25T08:30:35.999Z</time></trkpt><trkpt lat="43.65056383484198" lon="11.357794278752738"><ele>572.0</ele><time>2026-04-25T08:30:36.999Z</time></trkpt><trkpt lat="43.6505317849036" lon="11.357944431330173"><ele>572.0</ele><time>2026-04-25T08:30:37.999Z</time></trkpt><trkpt lat="43.65048722097322" lon="11.358041320792902"><ele>572.0</ele><time>2026-04-25T08:30:38.999Z</time></trkpt><trkpt lat="43.6504502247491" lon="11.358139554013666"><ele>573.6</ele><time>2026-04-25T08:30:39.999Z</time></trkpt><trkpt lat="43.65041561391782" lon="11.358278003594052"><ele>575.2</ele><time>2026-04-25T08:30:41.999Z</time></trkpt><trkpt lat="43.65035641589639" lon="11.358436752393724"><ele>576.8</ele><time>2026-04-25T08:30:43.999Z</time></trkpt><trkpt lat="43.650284345467156" lon="11.358516321809665"><ele>578.4</ele><time>2026-04-25T08:30:45.999Z</time></trkpt><trkpt lat="43.65025880262359" lon="11.35864308447114"><ele>580.0</ele><time>2026-04-25T08:30:46.999Z</time></trkpt><trkpt lat="43.65017149527135" lon="11.358728494367645"><ele>579.0</ele><time>2026-04-25T08:30:47.999Z</time></trkpt><trkpt lat="43.65004301202141" lon="11.358818347783162"><ele>578.0</ele><time>2026-04-25T08:30:48.999Z</time></trkpt><trkpt lat="43.649977629777155" lon="11.358872570716816"><ele>577.0</ele><time>2026-04-25T08:30:49.999Z</time></trkpt><trkpt lat="43.64991748247061" lon="11.358912572778722"><ele>576.0</ele><time>2026-04-25T08:30:50.999Z</time></trkpt><trkpt lat="43.64981196999423" lon="11.358975818137356"><ele>575.0</ele><time>2026-04-25T08:30:52.999Z</time></trkpt><trkpt lat="43.649714019127984" lon="11.358994488225564"><ele>575.0</ele><time>2026-04-25T08:30:53.999Z</time></trkpt><trkpt lat="43.649651286381626" lon="11.35891226302559"><ele>575.0</ele><time>2026-04-25T08:30:55.999Z</time></trkpt><trkpt lat="43.649622644350835" lon="11.358713661067847"><ele>575.0</ele><time>2026-04-25T08:30:56.999Z</time></trkpt><trkpt lat="43.6496206298148" lon="11.358611435458116"><ele>575.0</ele><time>2026-04-25T08:30:57.999Z</time></trkpt><trkpt lat="43.649569695949204" lon="11.358500599058099"><ele>575.0</ele><time>2026-04-25T08:30:58.999Z</time></trkpt><trkpt lat="43.649449119621934" lon="11.358451732709055"><ele>571.0</ele><time>2026-04-25T08:31:00.999Z</time></trkpt><trkpt lat="43.64938040795022" lon="11.358404763610867"><ele>567.0</ele><time>2026-04-25T08:31:01.999Z</time></trkpt><trkpt lat="43.64931258266745" lon="11.358386308925436"><ele>563.0</ele><time>2026-04-25T08:31:02.999Z</time></trkpt><trkpt lat="43.64923243988377" lon="11.358377420201736"><ele>559.0</ele><time>2026-04-25T08:31:04.999Z</time></trkpt><trkpt lat="43.6492676951988" lon="11.358296601859035"><ele>555.0</ele><time>2026-04-25T08:31:15.999Z</time></trkpt><trkpt lat="43.649338397197326" lon="11.35827184353428"><ele>551.0</ele><time>2026-04-25T08:31:16.999Z</time></trkpt><trkpt lat="43.64942337180173" lon="11.358265865525114"><ele>552.3333333333333</ele><time>2026-04-25T08:31:17.999Z</time></trkpt><trkpt lat="43.649505055439995" lon="11.358267593425431"><ele>553.6666666666666</ele><time>2026-04-25T08:31:18.999Z</time></trkpt><trkpt lat="43.64959025183114" lon="11.358308409646234"><ele>555.0</ele><time>2026-04-25T08:31:19.999Z</time></trkpt><trkpt lat="43.64965050885689" lon="11.358340455929175"><ele>556.3333333333334</ele><time>2026-04-25T08:31:20.998Z</time></trkpt><trkpt lat="43.64970510420205" lon="11.358285196160471"><ele>557.6666666666667</ele><time>2026-04-25T08:31:23.998Z</time></trkpt><trkpt lat="43.649676064790825" lon="11.35816823044243"><ele>559.0</ele><time>2026-04-25T08:31:25.998Z</time></trkpt><trkpt lat="43.649620092642365" lon="11.358107369408064"><ele>559.0</ele><time>2026-04-25T08:31:26.998Z</time></trkpt><trkpt lat="43.64955902581779" lon="11.35806489458556"><ele>559.0</ele><time>2026-04-25T08:31:27.998Z</time></trkpt><trkpt lat="43.64949586362986" lon="11.358031223384097"><ele>559.0</ele><time>2026-04-25T08:31:29Z</time></trkpt><trkpt lat="43.64940682516476" lon="11.357980707983941"><ele>559.0</ele><time>2026-04-25T08:31:30Z</time></trkpt><trkpt lat="43.64931782592074" lon="11.357947454335962"><ele>559.0</ele><time>2026-04-25T08:31:31Z</time></trkpt><trkpt lat="43.64923077185033" lon="11.357956957825548"><ele>559.0</ele><time>2026-04-25T08:31:32Z</time></trkpt><trkpt lat="43.64915565418917" lon="11.357921577240829"><ele>554.1666666666667</ele><time>2026-04-25T08:31:33Z</time></trkpt><trkpt lat="43.649084223109575" lon="11.357892143957415"><ele>549.3333333333334</ele><time>2026-04-25T08:31:34Z</time></trkpt><trkpt lat="43.64900101321574" lon="11.357870832960165"><ele>544.5</ele><time>2026-04-25T08:31:35Z</time></trkpt><trkpt lat="43.64890424678004" lon="11.35787162600886"><ele>539.6666666666666</ele><time>2026-04-25T08:31:36Z</time></trkpt><trkpt lat="43.6488374699168" lon="11.357870653532848"><ele>534.8333333333333</ele><time>2026-04-25T08:31:37Z</time></trkpt><trkpt lat="43.64874535988733" lon="11.357887654180777"><ele>530.0</ele><time>2026-04-25T08:31:38Z</time></trkpt><trkpt lat="43.6486638458465" lon="11.357910641097938"><ele>529.8</ele><time>2026-04-25T08:31:39Z</time></trkpt><trkpt lat="43.648600081313546" lon="11.35795142349666"><ele>529.6</ele><time>2026-04-25T08:31:40Z</time></trkpt><trkpt lat="43.64855260181669" lon="11.358085608689938"><ele>529.4</ele><time>2026-04-25T08:31:42Z</time></trkpt><trkpt lat="43.6484961570765" lon="11.35816691782155"><ele>529.2</ele><time>2026-04-25T08:31:43Z</time></trkpt><trkpt lat="43.6484561003126" lon="11.35824572489792"><ele>529.0</ele><time>2026-04-25T08:31:44Z</time></trkpt><trkpt lat="43.64838156338918" lon="11.358377374349804"><ele>529.0</ele><time>2026-04-25T08:31:46Z</time></trkpt><trkpt lat="43.648328348034404" lon="11.358429875571252"><ele>529.0</ele><time>2026-04-25T08:31:47Z</time></trkpt><trkpt lat="43.648283666953695" lon="11.35850566514842"><ele>529.0</ele><time>2026-04-25T08:31:48Z</time></trkpt><trkpt lat="43.64819655706942" lon="11.35852314403439"><ele>529.0</ele><time>2026-04-25T08:31:49Z</time></trkpt><trkpt lat="43.648093478507235" lon="11.358538443404218"><ele>529.0</ele><time>2026-04-25T08:31:50Z</time></trkpt><trkpt lat="43.64801804279097" lon="11.358537307418544"><ele>529.0</ele><time>2026-04-25T08:31:52Z</time></trkpt><trkpt lat="43.64795232596753" lon="11.358597895375468"><ele>529.0</ele><time>2026-04-25T08:31:53Z</time></trkpt><trkpt lat="43.64786798960596" lon="11.35865039335602"><ele>529.0</ele><time>2026-04-25T08:31:54Z</time></trkpt><trkpt lat="43.64779623718149" lon="11.358712931548197"><ele>529.0</ele><time>2026-04-25T08:31:55Z</time></trkpt><trkpt lat="43.6477365692785" lon="11.35875959726496"><ele>529.0</ele><time>2026-04-25T08:31:56Z</time></trkpt><trkpt lat="43.64772963632417" lon="11.358892162952976"><ele>529.0</ele><time>2026-04-25T08:31:57Z</time></trkpt><trkpt lat="43.6476493271105" lon="11.358974113548065"><ele>529.0</ele><time>2026-04-25T08:31:58Z</time></trkpt><trkpt lat="43.64757078467627" lon="11.359044573645015"><ele>527.6</ele><time>2026-04-25T08:31:59Z</time></trkpt><trkpt lat="43.64746163495465" lon="11.359138580983585"><ele>526.2</ele><time>2026-04-25T08:32:01Z</time></trkpt><trkpt lat="43.64739555807653" lon="11.359156321902757"><ele>524.8000000000001</ele><time>2026-04-25T08:32:02Z</time></trkpt><trkpt lat="43.64733080201221" lon="11.35923215847509"><ele>523.4</ele><time>2026-04-25T08:32:04Z</time></trkpt><trkpt lat="43.64729279504986" lon="11.359128293278927"><ele>522.0</ele><time>2026-04-25T08:32:07Z</time></trkpt><trkpt lat="43.64730591613506" lon="11.358925712354194"><ele>520.4</ele><time>2026-04-25T08:32:09Z</time></trkpt><trkpt lat="43.64730751971395" lon="11.35881228571045"><ele>518.8000000000001</ele><time>2026-04-25T08:32:10Z</time></trkpt><trkpt lat="43.6472977653763" lon="11.358711057043422"><ele>517.2</ele><time>2026-04-25T08:32:12Z</time></trkpt><trkpt lat="43.64731300809422" lon="11.358621983617038"><ele>515.6</ele><time>2026-04-25T08:32:13Z</time></trkpt><trkpt lat="43.64743770938015" lon="11.35852130191482"><ele>514.0</ele><time>2026-04-25T08:32:14Z</time></trkpt><trkpt lat="43.64753268943355" lon="11.358454051835349"><ele>514.0</ele><time>2026-04-25T08:32:15Z</time></trkpt><trkpt lat="43.64757975162689" lon="11.358295078144856"><ele>514.0</ele><time>2026-04-25T08:32:17Z</time></trkpt><trkpt lat="43.64766228523886" lon="11.358182316479551"><ele>514.0</ele><time>2026-04-25T08:32:19Z</time></trkpt><trkpt lat="43.6477155174061" lon="11.358111836895763"><ele>514.0</ele><time>2026-04-25T08:32:19.999Z</time></trkpt><trkpt lat="43.64777141443519" lon="11.358043732054497"><ele>514.0</ele><time>2026-04-25T08:32:20.999Z</time></trkpt><trkpt lat="43.64783477830293" lon="11.35792194366168"><ele>513.6666666666667</ele><time>2026-04-25T08:32:22.999Z</time></trkpt><trkpt lat="43.64788004389472" lon="11.357830977872895"><ele>513.3333333333334</ele><time>2026-04-25T08:32:23.999Z</time></trkpt><trkpt lat="43.647866717475786" lon="11.357652110344679"><ele>513.0</ele><time>2026-04-25T08:32:25.999Z</time></trkpt><trkpt lat="43.647864814545756" lon="11.357554742938142"><ele>512.6666666666666</ele><time>2026-04-25T08:32:26.999Z</time></trkpt><trkpt lat="43.64787744318268" lon="11.357446807224367"><ele>512.3333333333333</ele><time>2026-04-25T08:32:27.999Z</time></trkpt><trkpt lat="43.64790493989295" lon="11.35736145950112"><ele>512.0</ele><time>2026-04-25T08:32:28.999Z</time></trkpt><trkpt lat="43.647920874179334" lon="11.35726579922974"><ele>510.16666666666663</ele><time>2026-04-25T08:32:29.999Z</time></trkpt><trkpt lat="43.647973122821256" lon="11.357178610676275"><ele>508.3333333333333</ele><time>2026-04-25T08:32:30.999Z</time></trkpt><trkpt lat="43.64801393789941" lon="11.357100083457363"><ele>506.5</ele><time>2026-04-25T08:32:31.999Z</time></trkpt><trkpt lat="43.64805078421935" lon="11.357018925389605"><ele>504.66666666666663</ele><time>2026-04-25T08:32:32.999Z</time></trkpt><trkpt lat="43.6480924905114" lon="11.356943285895227"><ele>502.8333333333333</ele><time>2026-04-25T08:32:33.999Z</time></trkpt><trkpt lat="43.648142245076585" lon="11.356866396298305"><ele>501.0</ele><time>2026-04-25T08:32:34.999Z</time></trkpt><trkpt lat="43.64821280946071" lon="11.356728820974133"><ele>501.0</ele><time>2026-04-25T08:32:36.999Z</time></trkpt><trkpt lat="43.64827669136022" lon="11.356674325280213"><ele>501.0</ele><time>2026-04-25T08:32:37.999Z</time></trkpt><trkpt lat="43.64832833368658" lon="11.356588909428021"><ele>501.0</ele><time>2026-04-25T08:32:38.999Z</time></trkpt><trkpt lat="43.64841397123419" lon="11.356528978622986"><ele>501.0</ele><time>2026-04-25T08:32:39.999Z</time></trkpt><trkpt lat="43.64846807162221" lon="11.356387890740269"><ele>501.0</ele><time>2026-04-25T08:32:41.999Z</time></trkpt><trkpt lat="43.648486664058176" lon="11.356268224857386"><ele>500.4</ele><time>2026-04-25T08:32:42.999Z</time></trkpt><trkpt lat="43.64847195813191" lon="11.356110738146407"><ele>499.8</ele><time>2026-04-25T08:32:43.999Z</time></trkpt><trkpt lat="43.64850173483856" lon="11.356002965532934"><ele>499.19999999999993</ele><time>2026-04-25T08:32:44.999Z</time></trkpt><trkpt lat="43.64850177415316" lon="11.355863521867207"><ele>498.59999999999997</ele><time>2026-04-25T08:32:46.999Z</time></trkpt><trkpt lat="43.648382606682674" lon="11.35576243041806"><ele>498.0</ele><time>2026-04-25T08:32:48.999Z</time></trkpt><trkpt lat="43.64831814119914" lon="11.355614156540318"><ele>497.0</ele><time>2026-04-25T08:32:50.999Z</time></trkpt><trkpt lat="43.64829103588642" lon="11.355491218690515"><ele>496.0</ele><time>2026-04-25T08:32:52.999Z</time></trkpt><trkpt lat="43.64831512497933" lon="11.355401389287248"><ele>495.0</ele><time>2026-04-25T08:32:54.999Z</time></trkpt><trkpt lat="43.648332681676905" lon="11.355297474788577"><ele>494.0</ele><time>2026-04-25T08:32:56.999Z</time></trkpt><trkpt lat="43.64836544550341" lon="11.355204241061696"><ele>493.0</ele><time>2026-04-25T08:32:57.999Z</time></trkpt><trkpt lat="43.6483961068101" lon="11.355081365133627"><ele>492.0</ele><time>2026-04-25T08:32:59.999Z</time></trkpt><trkpt lat="43.648375605944715" lon="11.354900270713907"><ele>492.0</ele><time>2026-04-25T08:33:01.999Z</time></trkpt><trkpt lat="43.64838313349299" lon="11.354753811342492"><ele>492.00000000000006</ele><time>2026-04-25T08:33:03.999Z</time></trkpt><trkpt lat="43.64841442098265" lon="11.354603679059624"><ele>492.00000000000006</ele><time>2026-04-25T08:33:05.999Z</time></trkpt><trkpt lat="43.64845669504031" lon="11.354437875230186"><ele>492.0</ele><time>2026-04-25T08:33:07.999Z</time></trkpt><trkpt lat="43.648496094963875" lon="11.354344315602365"><ele>492.0</ele><time>2026-04-25T08:33:09.999Z</time></trkpt><trkpt lat="43.64844335911652" lon="11.354187216606038"><ele>490.8333333333333</ele><time>2026-04-25T08:33:11.999Z</time></trkpt><trkpt lat="43.64845092892375" lon="11.354097876219857"><ele>489.66666666666663</ele><time>2026-04-25T08:33:12.999Z</time></trkpt><trkpt lat="43.648426039987356" lon="11.353973607772442"><ele>488.5</ele><time>2026-04-25T08:33:14.999Z</time></trkpt><trkpt lat="43.648414967061754" lon="11.353871218974898"><ele>487.3333333333333</ele><time>2026-04-25T08:33:15.999Z</time></trkpt><trkpt lat="43.64843439488006" lon="11.353761192217933"><ele>486.16666666666663</ele><time>2026-04-25T08:33:17.999Z</time></trkpt><trkpt lat="43.64842868079385" lon="11.353642345839386"><ele>485.0</ele><time>2026-04-25T08:33:19.999Z</time></trkpt><trkpt lat="43.64844150789463" lon="11.353539261247136"><ele>484.3333333333333</ele><time>2026-04-25T08:33:21.999Z</time></trkpt><trkpt lat="43.64848835996533" lon="11.353437981760186"><ele>483.66666666666663</ele><time>2026-04-25T08:33:22.999Z</time></trkpt><trkpt lat="43.64852383946766" lon="11.353345978504569"><ele>483.0</ele><time>2026-04-25T08:33:23.999Z</time></trkpt><trkpt lat="43.64847883190388" lon="11.353230320547526"><ele>482.33333333333337</ele><time>2026-04-25T08:33:25.998Z</time></trkpt><trkpt lat="43.648498080434905" lon="11.353122114267073"><ele>481.6666666666667</ele><time>2026-04-25T08:33:27.998Z</time></trkpt><trkpt lat="43.64851972345335" lon="11.353003369003478"><ele>481.0</ele><time>2026-04-25T08:33:28.998Z</time></trkpt><trkpt lat="43.64851357062297" lon="11.352866045298994"><ele>479.4</ele><time>2026-04-25T08:33:29.998Z</time></trkpt><trkpt lat="43.648520375982365" lon="11.352748018408294"><ele>477.8</ele><time>2026-04-25T08:33:30.998Z</time></trkpt><trkpt lat="43.648535164937364" lon="11.352582358265117"><ele>476.19999999999993</ele><time>2026-04-25T08:33:32.998Z</time></trkpt><trkpt lat="43.64851581037858" lon="11.35249911400813"><ele>474.59999999999997</ele><time>2026-04-25T08:33:33.998Z</time></trkpt><trkpt lat="43.64850073725692" lon="11.352362032963802"><ele>473.0</ele><time>2026-04-25T08:33:36Z</time></trkpt><trkpt lat="43.64858459410796" lon="11.352217309192717"><ele>471.8333333333333</ele><time>2026-04-25T08:33:39Z</time></trkpt><trkpt lat="43.64864008806378" lon="11.35215435209348"><ele>470.66666666666663</ele><time>2026-04-25T08:33:40Z</time></trkpt><trkpt lat="43.648653133119105" lon="11.352031333284343"><ele>469.5</ele><time>2026-04-25T08:33:42Z</time></trkpt><trkpt lat="43.64865752888329" lon="11.351907673774864"><ele>468.33333333333337</ele><time>2026-04-25T08:33:43Z</time></trkpt><trkpt lat="43.648604469555096" lon="11.351782540747202"><ele>467.1666666666667</ele><time>2026-04-25T08:33:45Z</time></trkpt><trkpt lat="43.64862040308108" lon="11.351694042590628"><ele>466.0</ele><time>2026-04-25T08:33:47Z</time></trkpt><trkpt lat="43.648576613333155" lon="11.351577520501362"><ele>465.6</ele><time>2026-04-25T08:33:50Z</time></trkpt><trkpt lat="43.6485185566503" lon="11.351491004186611"><ele>465.20000000000005</ele><time>2026-04-25T08:33:52Z</time></trkpt><trkpt lat="43.64850563978091" lon="11.351390637257275"><ele>464.79999999999995</ele><time>2026-04-25T08:33:54Z</time></trkpt><trkpt lat="43.64850653707414" lon="11.351201569771161"><ele>464.4</ele><time>2026-04-25T08:33:56Z</time></trkpt><trkpt lat="43.64848042027838" lon="11.35106019141919"><ele>464.0</ele><time>2026-04-25T08:33:58Z</time></trkpt><trkpt lat="43.648413551453764" lon="11.350944048212222"><ele>462.49999999999994</ele><time>2026-04-25T08:34:00Z</time></trkpt><trkpt lat="43.64834307517015" lon="11.350797006574519"><ele>461.0</ele><time>2026-04-25T08:34:02Z</time></trkpt><trkpt lat="43.64830737272692" lon="11.350705350746345"><ele>459.5</ele><time>2026-04-25T08:34:03Z</time></trkpt><trkpt lat="43.6482537253767" lon="11.350590344506687"><ele>458.0</ele><time>2026-04-25T08:34:04Z</time></trkpt><trkpt lat="43.64823357393724" lon="11.350500758602431"><ele>456.49999999999994</ele><time>2026-04-25T08:34:05Z</time></trkpt><trkpt lat="43.64820319485179" lon="11.3504088855714"><ele>455.0</ele><time>2026-04-25T08:34:06Z</time></trkpt><trkpt lat="43.64817060259257" lon="11.350292649757963"><ele>454.8333333333333</ele><time>2026-04-25T08:34:07Z</time></trkpt><trkpt lat="43.64814971633465" lon="11.350199127435973"><ele>454.66666666666663</ele><time>2026-04-25T08:34:08Z</time></trkpt><trkpt lat="43.64815628131875" lon="11.350100164481947"><ele>454.5</ele><time>2026-04-25T08:34:09Z</time></trkpt><trkpt lat="43.64813900241895" lon="11.349894244183567"><ele>454.33333333333337</ele><time>2026-04-25T08:34:11Z</time></trkpt><trkpt lat="43.64811468761954" lon="11.349804831881256"><ele>454.1666666666667</ele><time>2026-04-25T08:34:12Z</time></trkpt><trkpt lat="43.64809471620523" lon="11.349711966164053"><ele>454.0</ele><time>2026-04-25T08:34:13Z</time></trkpt><trkpt lat="43.64813564781825" lon="11.349607251722617"><ele>454.00000000000006</ele><time>2026-04-25T08:34:14Z</time></trkpt><trkpt lat="43.64816146300041" lon="11.349464889717895"><ele>454.0</ele><time>2026-04-25T08:34:16Z</time></trkpt><trkpt lat="43.648104025008244" lon="11.349339125935984"><ele>454.0</ele><time>2026-04-25T08:34:18Z</time></trkpt><trkpt lat="43.64804910145256" lon="11.349294960769909"><ele>454.0</ele><time>2026-04-25T08:34:19Z</time></trkpt><trkpt lat="43.647989721376796" lon="11.349246058834892"><ele>454.00000000000006</ele><time>2026-04-25T08:34:20Z</time></trkpt><trkpt lat="43.647892965099366" lon="11.349207784474453"><ele>454.0</ele><time>2026-04-25T08:34:20.999Z</time></trkpt><trkpt lat="43.64784817367181" lon="11.349145697609956"><ele>452.79999999999995</ele><time>2026-04-25T08:34:21.999Z</time></trkpt><trkpt lat="43.647755396543616" lon="11.34908871554496"><ele>451.59999999999997</ele><time>2026-04-25T08:34:22.999Z</time></trkpt><trkpt lat="43.647671000854125" lon="11.349038364410863"><ele>450.4</ele><time>2026-04-25T08:34:24.999Z</time></trkpt><trkpt lat="43.64756073535845" lon="11.34900405073071"><ele>449.2</ele><time>2026-04-25T08:34:26.999Z</time></trkpt><trkpt lat="43.64754620404605" lon="11.348906082625689"><ele>448.0</ele><time>2026-04-25T08:34:27.999Z</time></trkpt><trkpt lat="43.64752196426142" lon="11.348806685809757"><ele>446.2</ele><time>2026-04-25T08:34:28.999Z</time></trkpt><trkpt lat="43.64749864084293" lon="11.348639751252437"><ele>444.4</ele><time>2026-04-25T08:34:30.999Z</time></trkpt><trkpt lat="43.64748931970816" lon="11.348496329513347"><ele>442.59999999999997</ele><time>2026-04-25T08:34:32.999Z</time></trkpt><trkpt lat="43.647474200407785" lon="11.348351449399052"><ele>440.79999999999995</ele><time>2026-04-25T08:34:34.999Z</time></trkpt><trkpt lat="43.64744465951409" lon="11.348261633491594"><ele>439.0</ele><time>2026-04-25T08:34:36.999Z</time></trkpt><trkpt lat="43.647323628249325" lon="11.348135981019935"><ele>438.4</ele><time>2026-04-25T08:34:38.999Z</time></trkpt><trkpt lat="43.647295845418284" lon="11.348039209482831"><ele>437.79999999999995</ele><time>2026-04-25T08:34:39.999Z</time></trkpt><trkpt lat="43.64722855948905" lon="11.347993623311725"><ele>437.20000000000005</ele><time>2026-04-25T08:34:40.999Z</time></trkpt><trkpt lat="43.647085679830006" lon="11.347936995254095"><ele>436.6</ele><time>2026-04-25T08:34:41.999Z</time></trkpt><trkpt lat="43.64699701354832" lon="11.347869607985317"><ele>436.0</ele><time>2026-04-25T08:34:42.999Z</time></trkpt><trkpt lat="43.64689683410939" lon="11.347845545000784"><ele>436.0</ele><time>2026-04-25T08:34:43.999Z</time></trkpt><trkpt lat="43.64682486711792" lon="11.347752973656107"><ele>436.0</ele><time>2026-04-25T08:34:44.999Z</time></trkpt><trkpt lat="43.6467477616526" lon="11.347679428072404"><ele>436.0</ele><time>2026-04-25T08:34:45.999Z</time></trkpt><trkpt lat="43.64667798809821" lon="11.34765213348997"><ele>436.0</ele><time>2026-04-25T08:34:46.999Z</time></trkpt><trkpt lat="43.64659096985746" lon="11.347674391219051"><ele>436.0</ele><time>2026-04-25T08:34:47.999Z</time></trkpt><trkpt lat="43.64649776611587" lon="11.347593458598697"><ele>436.00000000000006</ele><time>2026-04-25T08:34:49.999Z</time></trkpt><trkpt lat="43.64648841632701" lon="11.347474668568196"><ele>436.0</ele><time>2026-04-25T08:34:51.999Z</time></trkpt><trkpt lat="43.64639777158705" lon="11.347408829714816"><ele>436.0</ele><time>2026-04-25T08:34:53.999Z</time></trkpt><trkpt lat="43.64635172482696" lon="11.347325551479566"><ele>436.0</ele><time>2026-04-25T08:34:55.999Z</time></trkpt><trkpt lat="43.646258242063084" lon="11.347292374179501"><ele>436.00000000000006</ele><time>2026-04-25T08:34:57.999Z</time></trkpt><trkpt lat="43.64618181240206" lon="11.347305877083688"><ele>436.0</ele><time>2026-04-25T08:34:58.999Z</time></trkpt><trkpt lat="43.64607386063791" lon="11.347185626085022"><ele>435.33333333333337</ele><time>2026-04-25T08:35:00.999Z</time></trkpt><trkpt lat="43.64598990147057" lon="11.347151537190339"><ele>434.6666666666667</ele><time>2026-04-25T08:35:01.999Z</time></trkpt><trkpt lat="43.64591780062154" lon="11.347124270154211"><ele>434.0</ele><time>2026-04-25T08:35:02.999Z</time></trkpt><trkpt lat="43.64584051915271" lon="11.347090410342709"><ele>433.33333333333337</ele><time>2026-04-25T08:35:03.999Z</time></trkpt><trkpt lat="43.64575766087034" lon="11.346984429837374"><ele>432.6666666666667</ele><time>2026-04-25T08:35:04.999Z</time></trkpt><trkpt lat="43.645693630711534" lon="11.346931426721657"><ele>432.0</ele><time>2026-04-25T08:35:05.999Z</time></trkpt><trkpt lat="43.6456150205337" lon="11.34687731637577"><ele>432.0</ele><time>2026-04-25T08:35:06.999Z</time></trkpt><trkpt lat="43.64554999866135" lon="11.346748810797557"><ele>432.00000000000006</ele><time>2026-04-25T08:35:08.999Z</time></trkpt><trkpt lat="43.64547289489332" lon="11.346682754206483"><ele>432.00000000000006</ele><time>2026-04-25T08:35:09.999Z</time></trkpt><trkpt lat="43.645449671047835" lon="11.346556518535355"><ele>432.0</ele><time>2026-04-25T08:35:10.999Z</time></trkpt><trkpt lat="43.64540082912556" lon="11.346467012210637"><ele>432.0</ele><time>2026-04-25T08:35:11.999Z</time></trkpt><trkpt lat="43.64534347100407" lon="11.346405592651484"><ele>431.6666666666667</ele><time>2026-04-25T08:35:12.999Z</time></trkpt><trkpt lat="43.64527567772061" lon="11.346423798550774"><ele>431.33333333333337</ele><time>2026-04-25T08:35:13.999Z</time></trkpt><trkpt lat="43.64518728194229" lon="11.346450118948827"><ele>431.0</ele><time>2026-04-25T08:35:15.999Z</time></trkpt><trkpt lat="43.64510467253605" lon="11.346454498406962"><ele>430.6666666666667</ele><time>2026-04-25T08:35:17.999Z</time></trkpt><trkpt lat="43.64502523205077" lon="11.34654071770904"><ele>430.33333333333337</ele><time>2026-04-25T08:35:20.999Z</time></trkpt><trkpt lat="43.64492326151607" lon="11.346580658056306"><ele>430.0</ele><time>2026-04-25T08:37:08.999Z</time></trkpt><trkpt lat="43.6448264627186" lon="11.34658068297505"><ele>430.0</ele><time>2026-04-25T08:37:10.999Z</time></trkpt><trkpt lat="43.64475585779771" lon="11.346581522649657"><ele>430.0</ele><time>2026-04-25T08:37:11.999Z</time></trkpt><trkpt lat="43.64468767123751" lon="11.346553809761165"><ele>430.0</ele><time>2026-04-25T08:37:14.999Z</time></trkpt><trkpt lat="43.64456105037322" lon="11.346755924460568"><ele>430.0</ele><time>2026-04-25T08:37:17.999Z</time></trkpt><trkpt lat="43.64444518260888" lon="11.346831633064523"><ele>427.33333333333337</ele><time>2026-04-25T08:37:19.999Z</time></trkpt><trkpt lat="43.644388658736666" lon="11.346888273183174"><ele>424.6666666666667</ele><time>2026-04-25T08:37:20.999Z</time></trkpt><trkpt lat="43.64428590018128" lon="11.346931561765263"><ele>422.0</ele><time>2026-04-25T08:37:22.999Z</time></trkpt><trkpt lat="43.64423237707001" lon="11.34698454878841"><ele>419.33333333333337</ele><time>2026-04-25T08:37:23.999Z</time></trkpt><trkpt lat="43.64414113752578" lon="11.346958578953657"><ele>416.6666666666667</ele><time>2026-04-25T08:37:25.999Z</time></trkpt><trkpt lat="43.644053568572915" lon="11.346935204585524"><ele>414.0</ele><time>2026-04-25T08:37:26.999Z</time></trkpt><trkpt lat="43.6439034962384" lon="11.347016198841512"><ele>414.0</ele><time>2026-04-25T08:37:28.999Z</time></trkpt><trkpt lat="43.643807684832" lon="11.347075248363195"><ele>414.0</ele><time>2026-04-25T08:37:30.999Z</time></trkpt><trkpt lat="43.64374134990787" lon="11.347053304709945"><ele>414.0</ele><time>2026-04-25T08:37:40.998Z</time></trkpt><trkpt lat="43.643684721701824" lon="11.346955632981839"><ele>414.0</ele><time>2026-04-25T08:37:42.998Z</time></trkpt><trkpt lat="43.643664078965166" lon="11.346873002105648"><ele>414.0</ele><time>2026-04-25T08:37:43.998Z</time></trkpt><trkpt lat="43.64362241106992" lon="11.346796475162092"><ele>414.0</ele><time>2026-04-25T08:37:45.998Z</time></trkpt><trkpt lat="43.6435653299434" lon="11.346734855271231"><ele>416.4</ele><time>2026-04-25T08:37:48Z</time></trkpt><trkpt lat="43.643464820919725" lon="11.346652981085388"><ele>418.79999999999995</ele><time>2026-04-25T08:37:50Z</time></trkpt><trkpt lat="43.64339782740909" lon="11.346584180457699"><ele>421.20000000000005</ele><time>2026-04-25T08:37:51Z</time></trkpt><trkpt lat="43.64330341351227" lon="11.34651365040829"><ele>423.6</ele><time>2026-04-25T08:37:52Z</time></trkpt><trkpt lat="43.64324580014761" lon="11.346396362459569"><ele>426.0</ele><time>2026-04-25T08:37:53Z</time></trkpt><trkpt lat="43.64319255095251" lon="11.346291956100314"><ele>421.1666666666667</ele><time>2026-04-25T08:37:54Z</time></trkpt><trkpt lat="43.64311554320462" lon="11.34621452489591"><ele>416.33333333333337</ele><time>2026-04-25T08:37:55Z</time></trkpt><trkpt lat="43.64302677617233" lon="11.346119947964857"><ele>411.5</ele><time>2026-04-25T08:37:56Z</time></trkpt><trkpt lat="43.64296814705545" lon="11.346079302222883"><ele>406.6666666666667</ele><time>2026-04-25T08:37:57Z</time></trkpt><trkpt lat="43.64290674732485" lon="11.346019410603306"><ele>401.83333333333337</ele><time>2026-04-25T08:37:58Z</time></trkpt><trkpt lat="43.64284942286173" lon="11.345968311244432"><ele>397.0</ele><time>2026-04-25T08:37:59Z</time></trkpt><trkpt lat="43.64280199329374" lon="11.345885428294293"><ele>397.0</ele><time>2026-04-25T08:38:00Z</time></trkpt><trkpt lat="43.642792139805564" lon="11.345797159103247"><ele>397.0</ele><time>2026-04-25T08:38:01Z</time></trkpt><trkpt lat="43.64274630968316" lon="11.3457291266639"><ele>397.0</ele><time>2026-04-25T08:38:02Z</time></trkpt><trkpt lat="43.642693517141964" lon="11.345533835772581"><ele>397.0</ele><time>2026-04-25T08:38:04Z</time></trkpt><trkpt lat="43.64262758177734" lon="11.345398237499792"><ele>397.0</ele><time>2026-04-25T08:38:05Z</time></trkpt><trkpt lat="43.64256695732383" lon="11.34536213644657"><ele>397.0</ele><time>2026-04-25T08:38:06Z</time></trkpt><trkpt lat="43.64251427689599" lon="11.345287031272244"><ele>397.0</ele><time>2026-04-25T08:38:07Z</time></trkpt><trkpt lat="43.642447994280566" lon="11.345234932681116"><ele>397.0</ele><time>2026-04-25T08:38:08Z</time></trkpt><trkpt lat="43.64227690553183" lon="11.345226897571607"><ele>397.0</ele><time>2026-04-25T08:38:09Z</time></trkpt><trkpt lat="43.64220204967977" lon="11.345153774908004"><ele>397.0</ele><time>2026-04-25T08:38:10Z</time></trkpt><trkpt lat="43.64211919591503" lon="11.345070531957376"><ele>397.0</ele><time>2026-04-25T08:38:11Z</time></trkpt><trkpt lat="43.642025611238545" lon="11.344998917295868"><ele>397.0</ele><time>2026-04-25T08:38:12Z</time></trkpt><trkpt lat="43.641934631689175" lon="11.344912330553264"><ele>397.0</ele><time>2026-04-25T08:38:13Z</time></trkpt><trkpt lat="43.641839340548636" lon="11.344863888016214"><ele>397.0</ele><time>2026-04-25T08:38:14Z</time></trkpt><trkpt lat="43.64175441806636" lon="11.34478620212129"><ele>397.0</ele><time>2026-04-25T08:38:15Z</time></trkpt><trkpt lat="43.64166927264556" lon="11.34469684031636"><ele>397.6</ele><time>2026-04-25T08:38:16Z</time></trkpt><trkpt lat="43.641589784549595" lon="11.344606073410388"><ele>398.20000000000005</ele><time>2026-04-25T08:38:17Z</time></trkpt><trkpt lat="43.64158616554187" lon="11.344497948864825"><ele>398.8</ele><time>2026-04-25T08:38:18Z</time></trkpt><trkpt lat="43.641499456077305" lon="11.344461830571934"><ele>399.4</ele><time>2026-04-25T08:38:19Z</time></trkpt><trkpt lat="43.64144036532054" lon="11.3443562447001"><ele>400.0</ele><time>2026-04-25T08:38:20Z</time></trkpt><trkpt lat="43.64136744634419" lon="11.344178140923223"><ele>400.0</ele><time>2026-04-25T08:38:22Z</time></trkpt><trkpt lat="43.64145545416779" lon="11.344032588547552"><ele>400.0</ele><time>2026-04-25T08:38:25Z</time></trkpt><trkpt lat="43.64145391388029" lon="11.34385646732483"><ele>400.0</ele><time>2026-04-25T08:38:27Z</time></trkpt><trkpt lat="43.641455468125244" lon="11.343738784537287"><ele>400.0</ele><time>2026-04-25T08:38:29Z</time></trkpt><trkpt lat="43.64140806211006" lon="11.343662741522204"><ele>400.0</ele><time>2026-04-25T08:38:30Z</time></trkpt><trkpt lat="43.64136508300428" lon="11.343509545605738"><ele>395.33333333333337</ele><time>2026-04-25T08:38:31.999Z</time></trkpt><trkpt lat="43.641380012936196" lon="11.343423507368472"><ele>390.6666666666667</ele><time>2026-04-25T08:38:32.999Z</time></trkpt><trkpt lat="43.64130701662142" lon="11.343380025718107"><ele>386.0</ele><time>2026-04-25T08:38:33.999Z</time></trkpt><trkpt lat="43.641282350811245" lon="11.343295516754813"><ele>381.33333333333337</ele><time>2026-04-25T08:38:34.999Z</time></trkpt><trkpt lat="43.64123415931325" lon="11.34320052370874"><ele>376.6666666666667</ele><time>2026-04-25T08:38:35.999Z</time></trkpt><trkpt lat="43.64119122824029" lon="11.343107083259975"><ele>372.0</ele><time>2026-04-25T08:38:36.999Z</time></trkpt><trkpt lat="43.64113295866015" lon="11.342989201936753"><ele>372.5</ele><time>2026-04-25T08:38:37.999Z</time></trkpt><trkpt lat="43.64109743799284" lon="11.342901510210046"><ele>373.0</ele><time>2026-04-25T08:38:38.999Z</time></trkpt><trkpt lat="43.64106538047795" lon="11.342807243550443"><ele>373.5</ele><time>2026-04-25T08:38:39.999Z</time></trkpt><trkpt lat="43.64104687978108" lon="11.342690984718436"><ele>374.0</ele><time>2026-04-25T08:38:41.999Z</time></trkpt><trkpt lat="43.64100703218307" lon="11.342567407793542"><ele>374.5</ele><time>2026-04-25T08:38:43.999Z</time></trkpt><trkpt lat="43.641002063358314" lon="11.342431666607903"><ele>375.0</ele><time>2026-04-25T08:38:45.999Z</time></trkpt><trkpt lat="43.64103552284938" lon="11.342348829212625"><ele>375.0</ele><time>2026-04-25T08:38:46.999Z</time></trkpt><trkpt lat="43.64106420386862" lon="11.342271088739516"><ele>375.0</ele><time>2026-04-25T08:38:47.999Z</time></trkpt><trkpt lat="43.64107898652578" lon="11.342178123073317"><ele>375.0</ele><time>2026-04-25T08:38:48.999Z</time></trkpt><trkpt lat="43.64105811440258" lon="11.342038276807274"><ele>375.0</ele><time>2026-04-25T08:38:50.999Z</time></trkpt><trkpt lat="43.641050036965474" lon="11.34183999088337"><ele>375.0</ele><time>2026-04-25T08:38:52.999Z</time></trkpt><trkpt lat="43.64105682023935" lon="11.341721006798682"><ele>371.1666666666667</ele><time>2026-04-25T08:38:54.999Z</time></trkpt><trkpt lat="43.64109792276271" lon="11.341632103128367"><ele>367.3333333333333</ele><time>2026-04-25T08:38:55.999Z</time></trkpt><trkpt lat="43.64109917890493" lon="11.34145740009923"><ele>363.5</ele><time>2026-04-25T08:38:57.999Z</time></trkpt><trkpt lat="43.64106998076997" lon="11.34136132826272"><ele>359.66666666666663</ele><time>2026-04-25T08:38:59.999Z</time></trkpt><trkpt lat="43.64109380694586" lon="11.341254976373472"><ele>355.8333333333333</ele><time>2026-04-25T08:39:01.999Z</time></trkpt><trkpt lat="43.6410975136949" lon="11.341167233298057"><ele>352.0</ele><time>2026-04-25T08:39:05.999Z</time></trkpt><trkpt lat="43.641030572270026" lon="11.341150308132415"><ele>352.0</ele><time>2026-04-25T08:39:07.999Z</time></trkpt><trkpt lat="43.64090587239807" lon="11.341268853530751"><ele>352.0</ele><time>2026-04-25T08:39:09.999Z</time></trkpt><trkpt lat="43.640823547399606" lon="11.34138082025406"><ele>352.0</ele><time>2026-04-25T08:39:10.999Z</time></trkpt><trkpt lat="43.64076440592486" lon="11.341428243590256"><ele>352.0</ele><time>2026-04-25T08:39:11.999Z</time></trkpt><trkpt lat="43.640664650905634" lon="11.341561144376477"><ele>352.0</ele><time>2026-04-25T08:39:13.999Z</time></trkpt><trkpt lat="43.64060792450912" lon="11.341689367579546"><ele>352.0</ele><time>2026-04-25T08:39:15.999Z</time></trkpt><trkpt lat="43.64056340387545" lon="11.341755939667614"><ele>352.0</ele><time>2026-04-25T08:39:16.999Z</time></trkpt><trkpt lat="43.64050113157147" lon="11.341797656548726"><ele>352.0</ele><time>2026-04-25T08:39:17.999Z</time></trkpt><trkpt lat="43.64040011757692" lon="11.341866320554184"><ele>352.0</ele><time>2026-04-25T08:39:19.999Z</time></trkpt><trkpt lat="43.64032996002981" lon="11.341936627879864"><ele>352.0</ele><time>2026-04-25T08:39:21.999Z</time></trkpt><trkpt lat="43.640282019991965" lon="11.342021304956218"><ele>346.20000000000005</ele><time>2026-04-25T08:39:23.999Z</time></trkpt><trkpt lat="43.64023988080818" lon="11.342088966247625"><ele>340.4</ele><time>2026-04-25T08:39:24.999Z</time></trkpt><trkpt lat="43.64018148766229" lon="11.342146455431083"><ele>334.6</ele><time>2026-04-25T08:39:26.999Z</time></trkpt><trkpt lat="43.640083050898475" lon="11.342147102674806"><ele>328.79999999999995</ele><time>2026-04-25T08:39:28.999Z</time></trkpt><trkpt lat="43.63993178972315" lon="11.342167449980863"><ele>323.0</ele><time>2026-04-25T08:39:29.999Z</time></trkpt><trkpt lat="43.639863011165865" lon="11.34214406348352"><ele>323.0</ele><time>2026-04-25T08:39:31.999Z</time></trkpt><trkpt lat="43.63978491281444" lon="11.342131120838493"><ele>323.0</ele><time>2026-04-25T08:39:33.999Z</time></trkpt><trkpt lat="43.63970924679674" lon="11.34212722225375"><ele>323.0</ele><time>2026-04-25T08:39:35.998Z</time></trkpt><trkpt lat="43.639645710987274" lon="11.342151391715348"><ele>323.0</ele><time>2026-04-25T08:39:36.998Z</time></trkpt><trkpt lat="43.63957074152794" lon="11.342171230755044"><ele>323.0</ele><time>2026-04-25T08:39:38.998Z</time></trkpt><trkpt lat="43.63949634789851" lon="11.342201073564627"><ele>323.0</ele><time>2026-04-25T08:39:40.998Z</time></trkpt><trkpt lat="43.639413533284056" lon="11.342274812645744"><ele>323.6666666666667</ele><time>2026-04-25T08:39:42.998Z</time></trkpt><trkpt lat="43.63935255369282" lon="11.342340286383893"><ele>324.33333333333337</ele><time>2026-04-25T08:39:44.998Z</time></trkpt><trkpt lat="43.63928316057841" lon="11.342345142331771"><ele>325.0</ele><time>2026-04-25T08:39:46.998Z</time></trkpt><trkpt lat="43.639216952727026" lon="11.342390964372353"><ele>325.6666666666667</ele><time>2026-04-25T08:39:51.998Z</time></trkpt><trkpt lat="43.63918733041235" lon="11.342509447412423"><ele>326.3333333333333</ele><time>2026-04-25T08:40:26Z</time></trkpt><trkpt lat="43.63916560738225" lon="11.342386490871716"><ele>327.0</ele><time>2026-04-25T08:41:12.999Z</time></trkpt><trkpt lat="43.639250526023034" lon="11.342448249392044"><ele>327.0</ele><time>2026-04-25T08:43:27.999Z</time></trkpt><trkpt lat="43.63920484551344" lon="11.342380521053288"><ele>327.0</ele><time>2026-04-25T08:43:33.999Z</time></trkpt><trkpt lat="43.63913870871866" lon="11.342345744555193"><ele>327.0</ele><time>2026-04-25T08:43:45.999Z</time></trkpt><trkpt lat="43.639066478775945" lon="11.342353693231852"><ele>327.0</ele><time>2026-04-25T08:43:47.999Z</time></trkpt><trkpt lat="43.638944194837975" lon="11.342441325492876"><ele>327.0</ele><time>2026-04-25T08:43:49.998Z</time></trkpt><trkpt lat="43.63885545218291" lon="11.342460372948473"><ele>327.0</ele><time>2026-04-25T08:43:51.998Z</time></trkpt><trkpt lat="43.63879284587938" lon="11.342475741796674"><ele>327.0</ele><time>2026-04-25T08:43:53.998Z</time></trkpt><trkpt lat="43.63872765933017" lon="11.34241897724596"><ele>327.0</ele><time>2026-04-25T08:43:55.998Z</time></trkpt><trkpt lat="43.638646008669156" lon="11.342400362892048"><ele>327.0</ele><time>2026-04-25T08:43:56.998Z</time></trkpt><trkpt lat="43.6385516705541" lon="11.342427266569198"><ele>327.0</ele><time>2026-04-25T08:43:57.998Z</time></trkpt><trkpt lat="43.63847670784025" lon="11.342389497441033"><ele>327.0</ele><time>2026-04-25T08:43:59.998Z</time></trkpt><trkpt lat="43.638412295930024" lon="11.342412811041422"><ele>327.0</ele><time>2026-04-25T08:44:03.998Z</time></trkpt><trkpt lat="43.638292078450846" lon="11.342380035436735"><ele>323.0</ele><time>2026-04-25T08:44:06Z</time></trkpt><trkpt lat="43.63819782908459" lon="11.342329811953947"><ele>319.0</ele><time>2026-04-25T08:44:08Z</time></trkpt><trkpt lat="43.6381356974276" lon="11.342235102252792"><ele>315.0</ele><time>2026-04-25T08:44:10Z</time></trkpt><trkpt lat="43.6381283847478" lon="11.342115753110184"><ele>311.0</ele><time>2026-04-25T08:44:13Z</time></trkpt><trkpt lat="43.63818575852264" lon="11.342035258581532"><ele>307.0</ele><time>2026-04-25T08:44:16Z</time></trkpt><trkpt lat="43.63823227249009" lon="11.341934624040958"><ele>303.0</ele><time>2026-04-25T08:44:18Z</time></trkpt><trkpt lat="43.63828449320045" lon="11.341866112014221"><ele>301.8333333333333</ele><time>2026-04-25T08:44:22Z</time></trkpt><trkpt lat="43.63823393254815" lon="11.341769629351422"><ele>300.6666666666667</ele><time>2026-04-25T08:44:25Z</time></trkpt><trkpt lat="43.63815552862139" lon="11.341779159839234"><ele>299.5</ele><time>2026-04-25T08:44:29Z</time></trkpt><trkpt lat="43.638097716999575" lon="11.34181585752132"><ele>298.33333333333337</ele><time>2026-04-25T08:44:33Z</time></trkpt><trkpt lat="43.638170528225224" lon="11.341780794428608"><ele>297.1666666666667</ele><time>2026-04-25T08:44:53.999Z</time></trkpt><trkpt lat="43.638091124283" lon="11.341855217109677"><ele>296.0</ele><time>2026-04-25T08:45:16.999Z</time></trkpt><trkpt lat="43.63802842227052" lon="11.34188357076283"><ele>296.0</ele><time>2026-04-25T08:45:18.999Z</time></trkpt><trkpt lat="43.63794588919129" lon="11.341951527290771"><ele>296.0</ele><time>2026-04-25T08:45:20.999Z</time></trkpt><trkpt lat="43.63788108400741" lon="11.34200428469722"><ele>296.0</ele><time>2026-04-25T08:45:21.999Z</time></trkpt><trkpt lat="43.63780239433295" lon="11.342068063273388"><ele>296.0</ele><time>2026-04-25T08:45:22.999Z</time></trkpt><trkpt lat="43.6376901255126" lon="11.342117835497708"><ele>296.0</ele><time>2026-04-25T08:45:23.999Z</time></trkpt><trkpt lat="43.637589759904145" lon="11.342206375563563"><ele>295.25</ele><time>2026-04-25T08:45:24.999Z</time></trkpt><trkpt lat="43.637501308347815" lon="11.342342119740831"><ele>294.5</ele><time>2026-04-25T08:45:25.999Z</time></trkpt><trkpt lat="43.63738634354264" lon="11.342413421114681"><ele>293.75</ele><time>2026-04-25T08:45:26.999Z</time></trkpt><trkpt lat="43.63730792549967" lon="11.342495533028673"><ele>293.0</ele><time>2026-04-25T08:45:27.999Z</time></trkpt><trkpt lat="43.63723600483265" lon="11.342579858109719"><ele>293.0</ele><time>2026-04-25T08:45:28.999Z</time></trkpt><trkpt lat="43.6371628613512" lon="11.34269347931666"><ele>293.0</ele><time>2026-04-25T08:45:30.999Z</time></trkpt><trkpt lat="43.637071064342656" lon="11.342667447094067"><ele>293.0</ele><time>2026-04-25T08:45:32.999Z</time></trkpt><trkpt lat="43.6371060995393" lon="11.34251796316615"><ele>293.0</ele><time>2026-04-25T08:45:34.999Z</time></trkpt><trkpt lat="43.63716095092389" lon="11.34239000398122"><ele>293.0</ele><time>2026-04-25T08:45:35.999Z</time></trkpt><trkpt lat="43.637223130306545" lon="11.34228521485752"><ele>295.0</ele><time>2026-04-25T08:45:36.999Z</time></trkpt><trkpt lat="43.637234609900034" lon="11.342157174510497"><ele>297.0</ele><time>2026-04-25T08:45:37.999Z</time></trkpt><trkpt lat="43.637241052012534" lon="11.342050656105902"><ele>299.0</ele><time>2026-04-25T08:45:38.999Z</time></trkpt><trkpt lat="43.63718807037748" lon="11.341953770193804"><ele>301.0</ele><time>2026-04-25T08:45:39.999Z</time></trkpt><trkpt lat="43.637069209804054" lon="11.34190545846612"><ele>303.0</ele><time>2026-04-25T08:45:41.999Z</time></trkpt><trkpt lat="43.63696201975873" lon="11.341895521240932"><ele>304.0</ele><time>2026-04-25T08:45:42.999Z</time></trkpt><trkpt lat="43.636864950954276" lon="11.341869424349166"><ele>305.0</ele><time>2026-04-25T08:45:43.999Z</time></trkpt><trkpt lat="43.63677594809061" lon="11.341824890008482"><ele>306.0</ele><time>2026-04-25T08:45:44.999Z</time></trkpt><trkpt lat="43.63666272433588" lon="11.341751476071634"><ele>307.0</ele><time>2026-04-25T08:45:45.999Z</time></trkpt><trkpt lat="43.63654498778944" lon="11.341669373451838"><ele>307.0</ele><time>2026-04-25T08:45:46.999Z</time></trkpt><trkpt lat="43.63645408159524" lon="11.341585069923298"><ele>307.0</ele><time>2026-04-25T08:45:47.999Z</time></trkpt><trkpt lat="43.636358694850124" lon="11.34151678724928"><ele>307.0</ele><time>2026-04-25T08:45:48.999Z</time></trkpt><trkpt lat="43.63629535334765" lon="11.341439837695166"><ele>307.0</ele><time>2026-04-25T08:45:49.999Z</time></trkpt><trkpt lat="43.6362554786948" lon="11.341337693377291"><ele>307.0</ele><time>2026-04-25T08:45:50.999Z</time></trkpt><trkpt lat="43.636266112286236" lon="11.341187917238273"><ele>310.75</ele><time>2026-04-25T08:45:51.999Z</time></trkpt><trkpt lat="43.636312675784815" lon="11.341075521164031"><ele>314.5</ele><time>2026-04-25T08:45:52.999Z</time></trkpt><trkpt lat="43.63643782346738" lon="11.34096094354418"><ele>318.25</ele><time>2026-04-25T08:45:54.998Z</time></trkpt><trkpt lat="43.636560462328035" lon="11.340884371541508"><ele>322.0</ele><time>2026-04-25T08:45:55.998Z</time></trkpt><trkpt lat="43.636682268852255" lon="11.340820957978583"><ele>322.0</ele><time>2026-04-25T08:45:56.998Z</time></trkpt><trkpt lat="43.63678330020091" lon="11.340740562755219"><ele>322.0</ele><time>2026-04-25T08:45:57.998Z</time></trkpt><trkpt lat="43.6368664640928" lon="11.340657785264952"><ele>322.0</ele><time>2026-04-25T08:45:58.998Z</time></trkpt><trkpt lat="43.63691103672708" lon="11.34057758236541"><ele>322.0</ele><time>2026-04-25T08:45:59.998Z</time></trkpt><trkpt lat="43.63693040708401" lon="11.340455621617915"><ele>322.0</ele><time>2026-04-25T08:46:01.998Z</time></trkpt><trkpt lat="43.63687784514862" lon="11.340385042501712"><ele>323.6</ele><time>2026-04-25T08:46:03.998Z</time></trkpt><trkpt lat="43.63680554958162" lon="11.340308772395428"><ele>325.20000000000005</ele><time>2026-04-25T08:46:05.998Z</time></trkpt><trkpt lat="43.63673460154862" lon="11.340191055708067"><ele>326.8</ele><time>2026-04-25T08:46:07.998Z</time></trkpt><trkpt lat="43.63667079303287" lon="11.340059300438353"><ele>328.4</ele><time>2026-04-25T08:46:09.998Z</time></trkpt><trkpt lat="43.63660918802403" lon="11.339933226768867"><ele>330.0</ele><time>2026-04-25T08:46:12Z</time></trkpt><trkpt lat="43.636553743392966" lon="11.339802095268972"><ele>330.2</ele><time>2026-04-25T08:46:14Z</time></trkpt><trkpt lat="43.63648302627305" lon="11.339649172472779"><ele>330.4</ele><time>2026-04-25T08:46:16Z</time></trkpt><trkpt lat="43.63643469951697" lon="11.339566824300096"><ele>330.6</ele><time>2026-04-25T08:46:17Z</time></trkpt><trkpt lat="43.63638655289954" lon="11.339482945100416"><ele>330.8</ele><time>2026-04-25T08:46:18Z</time></trkpt><trkpt lat="43.63633703991307" lon="11.339400627062398"><ele>331.0</ele><time>2026-04-25T08:46:19Z</time></trkpt><trkpt lat="43.63627449859363" lon="11.339299908598854"><ele>331.0</ele><time>2026-04-25T08:46:20Z</time></trkpt><trkpt lat="43.636224588396736" lon="11.339206044072865"><ele>331.0</ele><time>2026-04-25T08:46:21Z</time></trkpt><trkpt lat="43.63617806156148" lon="11.339132728466632"><ele>331.0</ele><time>2026-04-25T08:46:22Z</time></trkpt><trkpt lat="43.63610963431384" lon="11.339058878876685"><ele>331.0</ele><time>2026-04-25T08:46:23Z</time></trkpt><trkpt lat="43.63607133784878" lon="11.338970041831454"><ele>331.0</ele><time>2026-04-25T08:46:24Z</time></trkpt><trkpt lat="43.63601826084965" lon="11.338898036479803"><ele>331.0</ele><time>2026-04-25T08:46:26Z</time></trkpt><trkpt lat="43.63609123168525" lon="11.338822092604461"><ele>331.5</ele><time>2026-04-25T08:46:27Z</time></trkpt><trkpt lat="43.63608618640634" lon="11.338916165072982"><ele>332.0</ele><time>2026-04-25T08:46:32Z</time></trkpt><trkpt lat="43.636139815062336" lon="11.338805218337043"><ele>332.5</ele><time>2026-04-25T08:46:37Z</time></trkpt><trkpt lat="43.63614819648914" lon="11.338690121905984"><ele>333.0</ele><time>2026-04-25T08:46:39Z</time></trkpt><trkpt lat="43.63606705392131" lon="11.338644311369158"><ele>333.5</ele><time>2026-04-25T08:46:41Z</time></trkpt><trkpt lat="43.63597954757777" lon="11.338593757015149"><ele>334.0</ele><time>2026-04-25T08:46:43Z</time></trkpt><trkpt lat="43.63587033859824" lon="11.338538340603597"><ele>335.6</ele><time>2026-04-25T08:46:45Z</time></trkpt><trkpt lat="43.63575999639472" lon="11.338462301924547"><ele>337.2</ele><time>2026-04-25T08:46:47Z</time></trkpt><trkpt lat="43.63564028230174" lon="11.338397016523569"><ele>338.8</ele><time>2026-04-25T08:46:49Z</time></trkpt><trkpt lat="43.63556829100713" lon="11.338351233643412"><ele>340.40000000000003</ele><time>2026-04-25T08:46:50Z</time></trkpt><trkpt lat="43.63549680831823" lon="11.338306276970664"><ele>342.0</ele><time>2026-04-25T08:46:51Z</time></trkpt><trkpt lat="43.635418695283946" lon="11.338261922029012"><ele>342.0</ele><time>2026-04-25T08:46:52Z</time></trkpt><trkpt lat="43.63534223468826" lon="11.33821034999745"><ele>342.0</ele><time>2026-04-25T08:46:53Z</time></trkpt><trkpt lat="43.635271067967196" lon="11.338136860567127"><ele>342.0</ele><time>2026-04-25T08:46:54Z</time></trkpt><trkpt lat="43.63522394388617" lon="11.338050461860767"><ele>342.0</ele><time>2026-04-25T08:46:55Z</time></trkpt><trkpt lat="43.635192845830886" lon="11.337967218867469"><ele>342.0</ele><time>2026-04-25T08:46:56Z</time></trkpt><trkpt lat="43.63517192368703" lon="11.337877339818707"><ele>342.0</ele><time>2026-04-25T08:46:58Z</time></trkpt><trkpt lat="43.635097974006264" lon="11.337898865269342"><ele>345.6</ele><time>2026-04-25T08:46:59.999Z</time></trkpt><trkpt lat="43.635034857653544" lon="11.337927877419082"><ele>349.20000000000005</ele><time>2026-04-25T08:47:00.999Z</time></trkpt><trkpt lat="43.63498269244511" lon="11.337989317107022"><ele>352.8</ele><time>2026-04-25T08:47:01.999Z</time></trkpt><trkpt lat="43.634887299572824" lon="11.338150985270747"><ele>356.4</ele><time>2026-04-25T08:47:03.999Z</time></trkpt><trkpt lat="43.63483693904531" lon="11.338251463443779"><ele>360.0</ele><time>2026-04-25T08:47:04.999Z</time></trkpt><trkpt lat="43.6347590857754" lon="11.338372756835575"><ele>360.0</ele><time>2026-04-25T08:47:05.999Z</time></trkpt><trkpt lat="43.634699033236764" lon="11.338479219420526"><ele>360.0</ele><time>2026-04-25T08:47:06.999Z</time></trkpt><trkpt lat="43.63462932143214" lon="11.338547765825027"><ele>360.0</ele><time>2026-04-25T08:47:07.999Z</time></trkpt><trkpt lat="43.63454273849294" lon="11.338593469882126"><ele>360.0</ele><time>2026-04-25T08:47:08.999Z</time></trkpt><trkpt lat="43.634484580012746" lon="11.338654379995633"><ele>360.0</ele><time>2026-04-25T08:47:09.999Z</time></trkpt><trkpt lat="43.634431565384695" lon="11.338705751658772"><ele>360.0</ele><time>2026-04-25T08:47:10.999Z</time></trkpt><trkpt lat="43.63439832695689" lon="11.338802307192331"><ele>359.6</ele><time>2026-04-25T08:47:11.999Z</time></trkpt><trkpt lat="43.6343080462857" lon="11.338898981828834"><ele>359.2</ele><time>2026-04-25T08:47:13.999Z</time></trkpt><trkpt lat="43.634216826658694" lon="11.338926702402054"><ele>358.79999999999995</ele><time>2026-04-25T08:47:14.999Z</time></trkpt><trkpt lat="43.63408042738972" lon="11.338882419726614"><ele>358.4</ele><time>2026-04-25T08:47:16.999Z</time></trkpt><trkpt lat="43.63399058797597" lon="11.338869653918772"><ele>358.0</ele><time>2026-04-25T08:47:17.999Z</time></trkpt><trkpt lat="43.63389545548357" lon="11.338880203772446"><ele>363.4</ele><time>2026-04-25T08:47:18.999Z</time></trkpt><trkpt lat="43.633776598931874" lon="11.338824166866267"><ele>368.79999999999995</ele><time>2026-04-25T08:47:20.999Z</time></trkpt><trkpt lat="43.63371583239771" lon="11.338705477467824"><ele>374.2</ele><time>2026-04-25T08:47:21.999Z</time></trkpt><trkpt lat="43.6336377840293" lon="11.338802628225746"><ele>379.6</ele><time>2026-04-25T08:47:22.999Z</time></trkpt><trkpt lat="43.63372166943339" lon="11.338777809736804"><ele>385.0</ele><time>2026-04-25T08:47:23.999Z</time></trkpt><trkpt lat="43.633753849183584" lon="11.33888018817046"><ele>380.50000000000006</ele><time>2026-04-25T08:47:29.999Z</time></trkpt><trkpt lat="43.633833708198445" lon="11.339028206938956"><ele>376.0</ele><time>2026-04-25T08:47:31.999Z</time></trkpt><trkpt lat="43.63386204136227" lon="11.339114834452124"><ele>371.5</ele><time>2026-04-25T08:47:32.999Z</time></trkpt><trkpt lat="43.63382555368186" lon="11.33921580827438"><ele>367.0</ele><time>2026-04-25T08:47:33.999Z</time></trkpt><trkpt lat="43.63382945180974" lon="11.339308277586218"><ele>362.5</ele><time>2026-04-25T08:47:34.999Z</time></trkpt><trkpt lat="43.633828696411975" lon="11.339398475882247"><ele>358.0</ele><time>2026-04-25T08:47:35.999Z</time></trkpt><trkpt lat="43.63381545823794" lon="11.339568962791354"><ele>358.0</ele><time>2026-04-25T08:47:37.999Z</time></trkpt><trkpt lat="43.63379317994524" lon="11.339685585576827"><ele>358.0</ele><time>2026-04-25T08:47:39.999Z</time></trkpt><trkpt lat="43.63375178804065" lon="11.339759122593588"><ele>358.0</ele><time>2026-04-25T08:47:40.999Z</time></trkpt><trkpt lat="43.63373287517051" lon="11.339854155555896"><ele>358.0</ele><time>2026-04-25T08:47:41.999Z</time></trkpt><trkpt lat="43.63369922397656" lon="11.33995812350913"><ele>358.0</ele><time>2026-04-25T08:47:42.999Z</time></trkpt><trkpt lat="43.63364480518397" lon="11.340035270113527"><ele>358.0</ele><time>2026-04-25T08:47:43.999Z</time></trkpt><trkpt lat="43.6335987986983" lon="11.340109929273584"><ele>364.16666666666663</ele><time>2026-04-25T08:47:44.999Z</time></trkpt><trkpt lat="43.633547459816825" lon="11.340176902945903"><ele>370.3333333333333</ele><time>2026-04-25T08:47:45.999Z</time></trkpt><trkpt lat="43.633489856468735" lon="11.340242564010397"><ele>376.5</ele><time>2026-04-25T08:47:46.999Z</time></trkpt><trkpt lat="43.63343016800543" lon="11.340325188223167"><ele>382.66666666666663</ele><time>2026-04-25T08:47:47.999Z</time></trkpt><trkpt lat="43.63335747930078" lon="11.340393488405995"><ele>388.8333333333333</ele><time>2026-04-25T08:47:48.999Z</time></trkpt><trkpt lat="43.63326639925703" lon="11.340452075630326"><ele>395.0</ele><time>2026-04-25T08:47:49.999Z</time></trkpt><trkpt lat="43.633189133619034" lon="11.340485786450026"><ele>394.99999999999994</ele><time>2026-04-25T08:47:50.999Z</time></trkpt><trkpt lat="43.63310267142429" lon="11.34048216317499"><ele>395.0</ele><time>2026-04-25T08:47:51.999Z</time></trkpt><trkpt lat="43.632984487034314" lon="11.340380660989979"><ele>395.0</ele><time>2026-04-25T08:47:53.999Z</time></trkpt><trkpt lat="43.632925481906526" lon="11.340328337925733"><ele>395.0</ele><time>2026-04-25T08:47:54.999Z</time></trkpt><trkpt lat="43.632879392551054" lon="11.340263419848712"><ele>394.99999999999994</ele><time>2026-04-25T08:47:55.999Z</time></trkpt><trkpt lat="43.63281824909743" lon="11.340227820930107"><ele>395.0</ele><time>2026-04-25T08:47:56.999Z</time></trkpt><trkpt lat="43.63276346773771" lon="11.340183796829534"><ele>395.0</ele><time>2026-04-25T08:47:58.999Z</time></trkpt><trkpt lat="43.63274406298479" lon="11.340051242157902"><ele>395.0</ele><time>2026-04-25T08:48:01.999Z</time></trkpt><trkpt lat="43.63286197484354" lon="11.33991958451577"><ele>395.0</ele><time>2026-04-25T08:48:02.999Z</time></trkpt><trkpt lat="43.63294992339915" lon="11.339898970137266"><ele>395.0</ele><time>2026-04-25T08:48:03.999Z</time></trkpt><trkpt lat="43.63294665021526" lon="11.339736791115705"><ele>396.49999999999994</ele><time>2026-04-25T08:48:05.998Z</time></trkpt><trkpt lat="43.63295988269912" lon="11.33965014625182"><ele>398.0</ele><time>2026-04-25T08:48:06.998Z</time></trkpt><trkpt lat="43.63299146817317" lon="11.339545814899878"><ele>399.5</ele><time>2026-04-25T08:48:07.998Z</time></trkpt><trkpt lat="43.633049902306595" lon="11.33938962776976"><ele>401.0</ele><time>2026-04-25T08:48:09.998Z</time></trkpt><trkpt lat="43.63308474752651" lon="11.339310592248747"><ele>402.49999999999994</ele><time>2026-04-25T08:48:10.998Z</time></trkpt><trkpt lat="43.63305019326947" lon="11.3392086430387"><ele>404.0</ele><time>2026-04-25T08:48:12.998Z</time></trkpt><trkpt lat="43.63298607858002" lon="11.339190631368405"><ele>404.0</ele><time>2026-04-25T08:48:13.998Z</time></trkpt><trkpt lat="43.632867698286105" lon="11.339213068300527"><ele>404.0</ele><time>2026-04-25T08:48:15.998Z</time></trkpt><trkpt lat="43.63278273094667" lon="11.339322263332857"><ele>404.0</ele><time>2026-04-25T08:48:17Z</time></trkpt><trkpt lat="43.632622895413654" lon="11.339367962895025"><ele>404.0</ele><time>2026-04-25T08:48:19Z</time></trkpt><trkpt lat="43.632554554415734" lon="11.33932603697392"><ele>412.25</ele><time>2026-04-25T08:48:21Z</time></trkpt><trkpt lat="43.6324510480149" lon="11.339396744107807"><ele>420.5</ele><time>2026-04-25T08:48:22Z</time></trkpt><trkpt lat="43.632332904621755" lon="11.339394442218577"><ele>428.75</ele><time>2026-04-25T08:48:23Z</time></trkpt><trkpt lat="43.63224564567695" lon="11.339466848578365"><ele>437.0</ele><time>2026-04-25T08:48:24Z</time></trkpt><trkpt lat="43.63210937532415" lon="11.339700363797625"><ele>440.25</ele><time>2026-04-25T08:48:25Z</time></trkpt><trkpt lat="43.63197311483419" lon="11.339682330758011"><ele>443.5</ele><time>2026-04-25T08:48:26Z</time></trkpt><trkpt lat="43.63183402495713" lon="11.33983674491359"><ele>446.75</ele><time>2026-04-25T08:48:27Z</time></trkpt><trkpt lat="43.63177185363341" lon="11.339921583738233"><ele>450.0</ele><time>2026-04-25T08:48:28Z</time></trkpt><trkpt lat="43.63170518944406" lon="11.34007767524006"><ele>450.0</ele><time>2026-04-25T08:48:29Z</time></trkpt><trkpt lat="43.631634498074845" lon="11.340290617296715"><ele>450.0</ele><time>2026-04-25T08:48:31Z</time></trkpt><trkpt lat="43.6315861599907" lon="11.340405503837182"><ele>450.0</ele><time>2026-04-25T08:48:32Z</time></trkpt><trkpt lat="43.63156188885925" lon="11.340494087415802"><ele>450.0</ele><time>2026-04-25T08:48:33Z</time></trkpt><trkpt lat="43.6315503139819" lon="11.34059156214382"><ele>450.0</ele><time>2026-04-25T08:48:34Z</time></trkpt><trkpt lat="43.631483775332114" lon="11.340654947017454"><ele>450.0</ele><time>2026-04-25T08:48:36Z</time></trkpt><trkpt lat="43.63141926530256" lon="11.340695800775928"><ele>450.0</ele><time>2026-04-25T08:48:38Z</time></trkpt><trkpt lat="43.63137780468617" lon="11.340620756546247"><ele>450.0</ele><time>2026-04-25T08:48:41Z</time></trkpt><trkpt lat="43.63131397338974" lon="11.340538739547597"><ele>450.0</ele><time>2026-04-25T08:48:45Z</time></trkpt><trkpt lat="43.63122494585879" lon="11.340578807398147"><ele>450.0</ele><time>2026-04-25T08:48:48Z</time></trkpt><trkpt lat="43.63116401916977" lon="11.34061594753377"><ele>450.0</ele><time>2026-04-25T08:48:53Z</time></trkpt><trkpt lat="43.63112741771151" lon="11.34050932266344"><ele>450.0</ele><time>2026-04-25T08:49:40.999Z</time></trkpt><trkpt lat="43.63116465275194" lon="11.340599283597955"><ele>450.0</ele><time>2026-04-25T08:50:23Z</time></trkpt><trkpt lat="43.63111380247402" lon="11.34066993330023"><ele>450.0</ele><time>2026-04-25T08:50:28Z</time></trkpt><trkpt lat="43.63115201979606" lon="11.340596651601036"><ele>450.0</ele><time>2026-04-25T08:50:30Z</time></trkpt><trkpt lat="43.63117024914884" lon="11.340500015590953"><ele>450.0</ele><time>2026-04-25T08:50:32Z</time></trkpt><trkpt lat="43.63122719610702" lon="11.340331252392724"><ele>450.0</ele><time>2026-04-25T08:50:35Z</time></trkpt><trkpt lat="43.631279360422006" lon="11.34026891496425"><ele>450.0</ele><time>2026-04-25T08:50:36Z</time></trkpt><trkpt lat="43.63122320792631" lon="11.340165425561407"><ele>450.0</ele><time>2026-04-25T08:50:38Z</time></trkpt><trkpt lat="43.63114874005192" lon="11.340050330387514"><ele>450.0</ele><time>2026-04-25T08:50:40Z</time></trkpt><trkpt lat="43.63118011329455" lon="11.339886187222595"><ele>450.0</ele><time>2026-04-25T08:50:43Z</time></trkpt><trkpt lat="43.63122624083349" lon="11.339773720365177"><ele>450.0</ele><time>2026-04-25T08:50:47Z</time></trkpt><trkpt lat="43.63123385704055" lon="11.339687324785492"><ele>453.8</ele><time>2026-04-25T08:52:16.998Z</time></trkpt><trkpt lat="43.63116555254855" lon="11.339609111628384"><ele>457.6</ele><time>2026-04-25T08:52:19.998Z</time></trkpt><trkpt lat="43.63108776586927" lon="11.339647620350727"><ele>461.4</ele><time>2026-04-25T08:52:22.998Z</time></trkpt><trkpt lat="43.63100092675693" lon="11.33962738678351"><ele>465.2</ele><time>2026-04-25T08:52:24.998Z</time></trkpt><trkpt lat="43.63091242882096" lon="11.339655712677256"><ele>469.0</ele><time>2026-04-25T08:52:25.998Z</time></trkpt><trkpt lat="43.630744129000384" lon="11.339777500167212"><ele>470.79999999999995</ele><time>2026-04-25T08:52:26.998Z</time></trkpt><trkpt lat="43.630615244690155" lon="11.339789852070533"><ele>472.59999999999997</ele><time>2026-04-25T08:52:29Z</time></trkpt><trkpt lat="43.63051033798499" lon="11.339810146789583"><ele>474.4</ele><time>2026-04-25T08:52:31Z</time></trkpt><trkpt lat="43.63044846195675" lon="11.339850124280517"><ele>476.2</ele><time>2026-04-25T08:52:32Z</time></trkpt><trkpt lat="43.630373288341964" lon="11.339760533089215"><ele>478.0</ele><time>2026-04-25T08:52:34Z</time></trkpt><trkpt lat="43.6303122227213" lon="11.339792769531439"><ele>482.83333333333337</ele><time>2026-04-25T08:52:35Z</time></trkpt><trkpt lat="43.630238895877405" lon="11.339848742610592"><ele>487.6666666666667</ele><time>2026-04-25T08:52:38Z</time></trkpt><trkpt lat="43.630173006008434" lon="11.33988169376521"><ele>492.5</ele><time>2026-04-25T08:52:40Z</time></trkpt><trkpt lat="43.63009462572334" lon="11.339897938966839"><ele>497.33333333333337</ele><time>2026-04-25T08:52:43Z</time></trkpt><trkpt lat="43.630044128263435" lon="11.339953179093941"><ele>502.1666666666667</ele><time>2026-04-25T08:52:48Z</time></trkpt><trkpt lat="43.629969024245845" lon="11.3399973838542"><ele>507.0</ele><time>2026-04-25T08:52:58Z</time></trkpt><trkpt lat="43.62989241422675" lon="11.340029922257472"><ele>507.0</ele><time>2026-04-25T08:53:01Z</time></trkpt><trkpt lat="43.629881292814204" lon="11.339888128774339"><ele>507.00000000000006</ele><time>2026-04-25T08:53:04Z</time></trkpt><trkpt lat="43.62995231345541" lon="11.339784636124028"><ele>507.00000000000006</ele><time>2026-04-25T08:53:05Z</time></trkpt><trkpt lat="43.63004700161044" lon="11.339710367582411"><ele>507.0</ele><time>2026-04-25T08:53:06Z</time></trkpt><trkpt lat="43.630123521801714" lon="11.33957971917043"><ele>507.0</ele><time>2026-04-25T08:53:08Z</time></trkpt><trkpt lat="43.63010400725099" lon="11.339463646509897"><ele>510.6666666666667</ele><time>2026-04-25T08:53:09Z</time></trkpt><trkpt lat="43.63010834021114" lon="11.339365468552023"><ele>514.3333333333334</ele><time>2026-04-25T08:53:10Z</time></trkpt><trkpt lat="43.630112533087406" lon="11.339231374416777"><ele>518.0</ele><time>2026-04-25T08:53:11Z</time></trkpt><trkpt lat="43.63009739458301" lon="11.339070142392563"><ele>521.6666666666667</ele><time>2026-04-25T08:53:12Z</time></trkpt><trkpt lat="43.630094893514055" lon="11.338975273802065"><ele>525.3333333333334</ele><time>2026-04-25T08:53:13Z</time></trkpt><trkpt lat="43.63011696515395" lon="11.338875126892825"><ele>529.0</ele><time>2026-04-25T08:53:13.999Z</time></trkpt><trkpt lat="43.63016343031752" lon="11.338759674424022"><ele>531.3333333333334</ele><time>2026-04-25T08:53:14.999Z</time></trkpt><trkpt lat="43.63019929200761" lon="11.33863587641035"><ele>533.6666666666667</ele><time>2026-04-25T08:53:15.999Z</time></trkpt><trkpt lat="43.63024256293305" lon="11.338559172415225"><ele>536.0</ele><time>2026-04-25T08:53:16.999Z</time></trkpt><trkpt lat="43.630308468499344" lon="11.338490645118531"><ele>538.3333333333334</ele><time>2026-04-25T08:53:17.999Z</time></trkpt><trkpt lat="43.63037011525664" lon="11.338439633155321"><ele>540.6666666666666</ele><time>2026-04-25T08:53:18.999Z</time></trkpt><trkpt lat="43.63041398616475" lon="11.338363756581256"><ele>543.0</ele><time>2026-04-25T08:53:20.999Z</time></trkpt><trkpt lat="43.630393353245374" lon="11.338238221040712"><ele>543.0</ele><time>2026-04-25T08:53:22.999Z</time></trkpt><trkpt lat="43.63033895922889" lon="11.338193995519664"><ele>543.0</ele><time>2026-04-25T08:53:23.999Z</time></trkpt><trkpt lat="43.63024829516455" lon="11.338095131333192"><ele>543.0</ele><time>2026-04-25T08:53:25.999Z</time></trkpt><trkpt lat="43.630186172632506" lon="11.338037432717849"><ele>543.0</ele><time>2026-04-25T08:53:26.999Z</time></trkpt><trkpt lat="43.63010474999024" lon="11.337974807780038"><ele>543.0</ele><time>2026-04-25T08:53:27.999Z</time></trkpt><trkpt lat="43.63000425590839" lon="11.337929525316174"><ele>542.8</ele><time>2026-04-25T08:53:28.999Z</time></trkpt><trkpt lat="43.629938111689725" lon="11.33784342263218"><ele>542.5999999999999</ele><time>2026-04-25T08:53:29.999Z</time></trkpt><trkpt lat="43.629859140011106" lon="11.337760193131828"><ele>542.4000000000001</ele><time>2026-04-25T08:53:30.999Z</time></trkpt><trkpt lat="43.62975543518407" lon="11.337639905522899"><ele>542.2</ele><time>2026-04-25T08:53:31.999Z</time></trkpt><trkpt lat="43.629671794200384" lon="11.337547581673482"><ele>542.0</ele><time>2026-04-25T08:53:32.999Z</time></trkpt><trkpt lat="43.629574966125794" lon="11.337425844170058"><ele>542.0</ele><time>2026-04-25T08:53:33.999Z</time></trkpt><trkpt lat="43.62949010037804" lon="11.337307195478594"><ele>542.0</ele><time>2026-04-25T08:53:34.999Z</time></trkpt><trkpt lat="43.629402332923874" lon="11.337167705766914"><ele>542.0</ele><time>2026-04-25T08:53:35.999Z</time></trkpt><trkpt lat="43.629371818100594" lon="11.337045036732727"><ele>542.0</ele><time>2026-04-25T08:53:36.999Z</time></trkpt><trkpt lat="43.62935842970301" lon="11.336942560662601"><ele>542.0</ele><time>2026-04-25T08:53:37.999Z</time></trkpt><trkpt lat="43.6293217884703" lon="11.336830332519401"><ele>548.5</ele><time>2026-04-25T08:53:39.999Z</time></trkpt><trkpt lat="43.62927338181598" lon="11.336669804775203"><ele>555.0</ele><time>2026-04-25T08:53:40.999Z</time></trkpt><trkpt lat="43.62935219413129" lon="11.336460789971957"><ele>561.5</ele><time>2026-04-25T08:53:43.999Z</time></trkpt><trkpt lat="43.629366374822865" lon="11.336346340864495"><ele>568.0</ele><time>2026-04-25T08:53:45.999Z</time></trkpt><trkpt lat="43.6294099146022" lon="11.336267371289445"><ele>567.6666666666667</ele><time>2026-04-25T08:53:46.999Z</time></trkpt><trkpt lat="43.62949660116945" lon="11.336195112420702"><ele>567.3333333333334</ele><time>2026-04-25T08:53:47.999Z</time></trkpt><trkpt lat="43.62954218203658" lon="11.336100580836858"><ele>567.0</ele><time>2026-04-25T08:53:48.999Z</time></trkpt><trkpt lat="43.62959458837491" lon="11.336039092531"><ele>566.6666666666666</ele><time>2026-04-25T08:53:49.999Z</time></trkpt><trkpt lat="43.629640381837675" lon="11.335925393925999"><ele>566.3333333333333</ele><time>2026-04-25T08:53:50.999Z</time></trkpt><trkpt lat="43.62973157563008" lon="11.33591546457059"><ele>566.0</ele><time>2026-04-25T08:53:51.999Z</time></trkpt><trkpt lat="43.62977043798605" lon="11.335831994653416"><ele>566.0</ele><time>2026-04-25T08:53:52.999Z</time></trkpt><trkpt lat="43.62984037543955" lon="11.335744448369502"><ele>566.0</ele><time>2026-04-25T08:53:53.999Z</time></trkpt><trkpt lat="43.62981817717298" lon="11.33560198928186"><ele>566.0</ele><time>2026-04-25T08:53:55.999Z</time></trkpt><trkpt lat="43.62975304749768" lon="11.335593494316885"><ele>566.0</ele><time>2026-04-25T08:53:56.999Z</time></trkpt><trkpt lat="43.62969329588511" lon="11.335558499864884"><ele>566.0</ele><time>2026-04-25T08:53:57.999Z</time></trkpt><trkpt lat="43.6295284329267" lon="11.335521775188644"><ele>570.6</ele><time>2026-04-25T08:53:59.999Z</time></trkpt><trkpt lat="43.62943646574859" lon="11.335504504909574"><ele>575.2</ele><time>2026-04-25T08:54:00.999Z</time></trkpt><trkpt lat="43.629345541531656" lon="11.335485622337462"><ele>579.8</ele><time>2026-04-25T08:54:01.999Z</time></trkpt><trkpt lat="43.62925477188431" lon="11.335457577580183"><ele>584.4</ele><time>2026-04-25T08:54:02.999Z</time></trkpt><trkpt lat="43.62918160897976" lon="11.335437510031152"><ele>589.0</ele><time>2026-04-25T08:54:03.999Z</time></trkpt><trkpt lat="43.62907033249463" lon="11.335412871341509"><ele>589.0</ele><time>2026-04-25T08:54:05.999Z</time></trkpt><trkpt lat="43.62897866112302" lon="11.335330379945086"><ele>589.0</ele><time>2026-04-25T08:54:07.999Z</time></trkpt><trkpt lat="43.62890443455612" lon="11.33544377347896"><ele>589.0</ele><time>2026-04-25T08:54:09.999Z</time></trkpt><trkpt lat="43.62884604772517" lon="11.335497309064984"><ele>589.0</ele><time>2026-04-25T08:54:10.999Z</time></trkpt><trkpt lat="43.628756124238" lon="11.335500760353895"><ele>589.0</ele><time>2026-04-25T08:54:12.999Z</time></trkpt><trkpt lat="43.62867245149134" lon="11.335569890673174"><ele>589.0</ele><time>2026-04-25T08:54:14.999Z</time></trkpt><trkpt lat="43.6286551549796" lon="11.335655588475294"><ele>589.0</ele><time>2026-04-25T08:54:15.999Z</time></trkpt><trkpt lat="43.62869459828171" lon="11.3355712097184"><ele>589.0</ele><time>2026-04-25T08:54:16.999Z</time></trkpt><trkpt lat="43.628629795388946" lon="11.33558669581326"><ele>589.0</ele><time>2026-04-25T08:54:38Z</time></trkpt><trkpt lat="43.62871170427606" lon="11.335474600064535"><ele>589.0</ele><time>2026-04-25T08:54:52Z</time></trkpt><trkpt lat="43.62879573163873" lon="11.335389111757022"><ele>589.0</ele><time>2026-04-25T08:54:54Z</time></trkpt><trkpt lat="43.628881779508674" lon="11.335323903528911"><ele>589.0</ele><time>2026-04-25T08:54:55Z</time></trkpt><trkpt lat="43.62896220316632" lon="11.335275618875993"><ele>589.0</ele><time>2026-04-25T08:54:56Z</time></trkpt><trkpt lat="43.629061001516426" lon="11.335173434404052"><ele>589.0</ele><time>2026-04-25T08:54:57Z</time></trkpt><trkpt lat="43.62913119327181" lon="11.33512563800593"><ele>589.0</ele><time>2026-04-25T08:54:58Z</time></trkpt><trkpt lat="43.6291985841265" lon="11.33495432404181"><ele>589.0</ele><time>2026-04-25T08:54:59Z</time></trkpt><trkpt lat="43.629269860130535" lon="11.334962155341131"><ele>589.0</ele><time>2026-04-25T08:55:00Z</time></trkpt><trkpt lat="43.629333062571" lon="11.334902141765301"><ele>589.0</ele><time>2026-04-25T08:55:01Z</time></trkpt><trkpt lat="43.62939566926862" lon="11.334812870415343"><ele>589.0</ele><time>2026-04-25T08:55:02Z</time></trkpt><trkpt lat="43.62945915353512" lon="11.334732316311118"><ele>589.0</ele><time>2026-04-25T08:55:03Z</time></trkpt><trkpt lat="43.629524884314755" lon="11.334714677004467"><ele>589.0</ele><time>2026-04-25T08:55:04Z</time></trkpt><trkpt lat="43.629613749692396" lon="11.334658001386982"><ele>589.0</ele><time>2026-04-25T08:55:05Z</time></trkpt><trkpt lat="43.62971749292492" lon="11.334616638816133"><ele>588.6</ele><time>2026-04-25T08:55:06Z</time></trkpt><trkpt lat="43.629822990926115" lon="11.334622410020263"><ele>588.2</ele><time>2026-04-25T08:55:07Z</time></trkpt><trkpt lat="43.629921258559776" lon="11.33457786916319"><ele>587.8000000000001</ele><time>2026-04-25T08:55:08Z</time></trkpt><trkpt lat="43.63002592941723" lon="11.33452203304166"><ele>587.4</ele><time>2026-04-25T08:55:09Z</time></trkpt><trkpt lat="43.630103614683584" lon="11.334478959440135"><ele>587.0</ele><time>2026-04-25T08:55:10Z</time></trkpt><trkpt lat="43.63019193967613" lon="11.334369591511527"><ele>587.0</ele><time>2026-04-25T08:55:12Z</time></trkpt><trkpt lat="43.6302541483512" lon="11.334305638014614"><ele>587.0</ele><time>2026-04-25T08:55:13Z</time></trkpt><trkpt lat="43.63033610711327" lon="11.334248126320679"><ele>587.0</ele><time>2026-04-25T08:55:14Z</time></trkpt><trkpt lat="43.63039660925269" lon="11.334181635857648"><ele>587.0</ele><time>2026-04-25T08:55:15Z</time></trkpt><trkpt lat="43.630467757692315" lon="11.33413273595457"><ele>587.0</ele><time>2026-04-25T08:55:16Z</time></trkpt><trkpt lat="43.630582335541646" lon="11.334147047612745"><ele>587.0</ele><time>2026-04-25T08:55:17Z</time></trkpt><trkpt lat="43.63066722354112" lon="11.334172735225764"><ele>585.1666666666666</ele><time>2026-04-25T08:55:18Z</time></trkpt><trkpt lat="43.63073465759116" lon="11.334155814526055"><ele>583.3333333333333</ele><time>2026-04-25T08:55:19Z</time></trkpt><trkpt lat="43.630769840738246" lon="11.334065223233136"><ele>581.5</ele><time>2026-04-25T08:55:19.999Z</time></trkpt><trkpt lat="43.6306979502508" lon="11.333943817755689"><ele>579.6666666666666</ele><time>2026-04-25T08:55:21.999Z</time></trkpt><trkpt lat="43.63066280729897" lon="11.333851041127817"><ele>577.8333333333334</ele><time>2026-04-25T08:55:22.999Z</time></trkpt><trkpt lat="43.63065747673617" lon="11.333722868774624"><ele>576.0</ele><time>2026-04-25T08:55:23.999Z</time></trkpt><trkpt lat="43.630699471246956" lon="11.333654587175422"><ele>576.0</ele><time>2026-04-25T08:55:24.999Z</time></trkpt><trkpt lat="43.63070889044432" lon="11.333545446888325"><ele>576.0</ele><time>2026-04-25T08:55:25.999Z</time></trkpt><trkpt lat="43.63066304074284" lon="11.33348190669991"><ele>576.0</ele><time>2026-04-25T08:55:26.999Z</time></trkpt><trkpt lat="43.63061015311176" lon="11.333391444222919"><ele>576.0</ele><time>2026-04-25T08:55:27.999Z</time></trkpt><trkpt lat="43.63054192343015" lon="11.333248885373283"><ele>576.0</ele><time>2026-04-25T08:55:28.999Z</time></trkpt><trkpt lat="43.63049259982977" lon="11.333131795190024"><ele>576.8</ele><time>2026-04-25T08:55:29.999Z</time></trkpt><trkpt lat="43.630464181167184" lon="11.332995292985089"><ele>577.6</ele><time>2026-04-25T08:55:30.999Z</time></trkpt><trkpt lat="43.63045610896242" lon="11.332840938178029"><ele>578.4</ele><time>2026-04-25T08:55:31.999Z</time></trkpt><trkpt lat="43.63041993305795" lon="11.33271637794584"><ele>579.2</ele><time>2026-04-25T08:55:32.999Z</time></trkpt><trkpt lat="43.630378454052426" lon="11.332616330726287"><ele>580.0</ele><time>2026-04-25T08:55:33.999Z</time></trkpt><trkpt lat="43.630332385108325" lon="11.33254437151431"><ele>584.2</ele><time>2026-04-25T08:55:34.999Z</time></trkpt><trkpt lat="43.63025302189441" lon="11.332438726238385"><ele>588.4</ele><time>2026-04-25T08:55:35.999Z</time></trkpt><trkpt lat="43.630185798605154" lon="11.332356645878276"><ele>592.6</ele><time>2026-04-25T08:55:36.999Z</time></trkpt><trkpt lat="43.63013364641512" lon="11.332229758315243"><ele>596.8</ele><time>2026-04-25T08:55:38.999Z</time></trkpt><trkpt lat="43.63015724505229" lon="11.332128116658634"><ele>601.0</ele><time>2026-04-25T08:56:03.999Z</time></trkpt><trkpt lat="43.63014590999148" lon="11.331999299675818"><ele>601.0</ele><time>2026-04-25T08:56:58Z</time></trkpt><trkpt lat="43.6301731849539" lon="11.331885575068014"><ele>601.0</ele><time>2026-04-25T08:56:59Z</time></trkpt><trkpt lat="43.63020772829986" lon="11.331772026258648"><ele>601.0</ele><time>2026-04-25T08:57:00Z</time></trkpt><trkpt lat="43.63023306434085" lon="11.331681127159174"><ele>601.0</ele><time>2026-04-25T08:57:01Z</time></trkpt><trkpt lat="43.63024663073729" lon="11.33159245703648"><ele>601.0</ele><time>2026-04-25T08:57:02Z</time></trkpt><trkpt lat="43.63028501623696" lon="11.331486827438479"><ele>601.0</ele><time>2026-04-25T08:57:03Z</time></trkpt><trkpt lat="43.630333031730636" lon="11.331362696779028"><ele>597.8</ele><time>2026-04-25T08:57:04Z</time></trkpt><trkpt lat="43.63035193407709" lon="11.331272331493562"><ele>594.6</ele><time>2026-04-25T08:57:05Z</time></trkpt><trkpt lat="43.63037645584341" lon="11.331148597029934"><ele>591.4</ele><time>2026-04-25T08:57:07Z</time></trkpt><trkpt lat="43.630422484110944" lon="11.33096612905289"><ele>588.2</ele><time>2026-04-25T08:57:09Z</time></trkpt><trkpt lat="43.630448480692536" lon="11.330865349659284"><ele>585.0</ele><time>2026-04-25T08:57:10Z</time></trkpt><trkpt lat="43.63049257110075" lon="11.330728473374615"><ele>585.0</ele><time>2026-04-25T08:57:11Z</time></trkpt><trkpt lat="43.63052802793891" lon="11.330617711817913"><ele>585.0</ele><time>2026-04-25T08:57:12Z</time></trkpt><trkpt lat="43.63058661877377" lon="11.330540203153612"><ele>585.0</ele><time>2026-04-25T08:57:13Z</time></trkpt><trkpt lat="43.6306544362702" lon="11.330458554179001"><ele>585.0</ele><time>2026-04-25T08:57:14Z</time></trkpt><trkpt lat="43.63071692855824" lon="11.330363896044368"><ele>585.0</ele><time>2026-04-25T08:57:15Z</time></trkpt><trkpt lat="43.63074440405094" lon="11.330260999176295"><ele>585.0</ele><time>2026-04-25T08:57:16Z</time></trkpt><trkpt lat="43.63071520581225" lon="11.330138923159469"><ele>584.8</ele><time>2026-04-25T08:57:18Z</time></trkpt><trkpt lat="43.630645789099795" lon="11.330005106495083"><ele>584.6</ele><time>2026-04-25T08:57:20Z</time></trkpt><trkpt lat="43.630578848785476" lon="11.329921762618772"><ele>584.4</ele><time>2026-04-25T08:57:21Z</time></trkpt><trkpt lat="43.63051696663109" lon="11.329849405278011"><ele>584.2</ele><time>2026-04-25T08:57:22Z</time></trkpt><trkpt lat="43.63044808472815" lon="11.329766591102988"><ele>584.0</ele><time>2026-04-25T08:57:23Z</time></trkpt><trkpt lat="43.63035697885221" lon="11.329822854148864"><ele>584.2857142857142</ele><time>2026-04-25T08:57:24Z</time></trkpt><trkpt lat="43.630308008713" lon="11.329761190503275"><ele>584.5714285714286</ele><time>2026-04-25T08:57:25Z</time></trkpt><trkpt lat="43.63025164879257" lon="11.329695645286932"><ele>584.8571428571429</ele><time>2026-04-25T08:57:26Z</time></trkpt><trkpt lat="43.63023788356636" lon="11.329603491452154"><ele>585.1428571428571</ele><time>2026-04-25T08:57:27Z</time></trkpt><trkpt lat="43.63019133705098" lon="11.329540418277968"><ele>585.4285714285714</ele><time>2026-04-25T08:57:28Z</time></trkpt><trkpt lat="43.63013223630175" lon="11.32947462414662"><ele>585.7142857142857</ele><time>2026-04-25T08:57:28.999Z</time></trkpt><trkpt lat="43.63010717805712" lon="11.329366743944346"><ele>586.0</ele><time>2026-04-25T08:57:29.999Z</time></trkpt><trkpt lat="43.63006278471823" lon="11.32930027089598"><ele>584.3333333333334</ele><time>2026-04-25T08:57:30.999Z</time></trkpt><trkpt lat="43.63003063726951" lon="11.329212734298597"><ele>582.6666666666667</ele><time>2026-04-25T08:57:31.999Z</time></trkpt><trkpt lat="43.629965174512456" lon="11.329103810244492"><ele>581.0</ele><time>2026-04-25T08:57:33.999Z</time></trkpt><trkpt lat="43.629923709316714" lon="11.329038152244301"><ele>579.3333333333334</ele><time>2026-04-25T08:57:34.999Z</time></trkpt><trkpt lat="43.629831230442285" lon="11.328976786687614"><ele>577.6666666666666</ele><time>2026-04-25T08:57:36.999Z</time></trkpt><trkpt lat="43.62977531939388" lon="11.328929499036049"><ele>576.0</ele><time>2026-04-25T08:57:37.999Z</time></trkpt><trkpt lat="43.629722242286725" lon="11.328862986832865"><ele>573.4</ele><time>2026-04-25T08:57:38.999Z</time></trkpt><trkpt lat="43.62963345733998" lon="11.328783955553636"><ele>570.8</ele><time>2026-04-25T08:57:40.999Z</time></trkpt><trkpt lat="43.629575981829284" lon="11.328738714729505"><ele>568.1999999999999</ele><time>2026-04-25T08:57:41.999Z</time></trkpt><trkpt lat="43.62949011525615" lon="11.328744821251917"><ele>565.6</ele><time>2026-04-25T08:57:43.999Z</time></trkpt><trkpt lat="43.629396857957936" lon="11.32878939340343"><ele>563.0</ele><time>2026-04-25T08:57:45.999Z</time></trkpt><trkpt lat="43.629284643697034" lon="11.32884238726336"><ele>560.5</ele><time>2026-04-25T08:57:47.999Z</time></trkpt><trkpt lat="43.629216309888065" lon="11.328815964994709"><ele>558.0</ele><time>2026-04-25T08:57:48.999Z</time></trkpt><trkpt lat="43.62912995478086" lon="11.328817845626151"><ele>555.5</ele><time>2026-04-25T08:57:49.999Z</time></trkpt><trkpt lat="43.62906264284369" lon="11.328844382647935"><ele>553.0</ele><time>2026-04-25T08:57:50.999Z</time></trkpt><trkpt lat="43.628990206010265" lon="11.328842044884171"><ele>550.5</ele><time>2026-04-25T08:57:51.999Z</time></trkpt><trkpt lat="43.628922069434275" lon="11.32881583610966"><ele>548.0</ele><time>2026-04-25T08:57:52.999Z</time></trkpt><trkpt lat="43.62880909720268" lon="11.328748017346417"><ele>548.0</ele><time>2026-04-25T08:57:54.999Z</time></trkpt><trkpt lat="43.62872225472456" lon="11.328693025208379"><ele>548.0</ele><time>2026-04-25T08:57:55.999Z</time></trkpt><trkpt lat="43.62863775228858" lon="11.328657313284415"><ele>548.0</ele><time>2026-04-25T08:57:56.999Z</time></trkpt><trkpt lat="43.62855239261928" lon="11.32862826151754"><ele>548.0</ele><time>2026-04-25T08:57:57.999Z</time></trkpt><trkpt lat="43.62848158236815" lon="11.328620080493268"><ele>548.0</ele><time>2026-04-25T08:57:58.999Z</time></trkpt><trkpt lat="43.628403514994105" lon="11.328591567218933"><ele>548.0</ele><time>2026-04-25T08:57:59.999Z</time></trkpt><trkpt lat="43.628304271737086" lon="11.328547030317054"><ele>546.8</ele><time>2026-04-25T08:58:00.999Z</time></trkpt><trkpt lat="43.62823327878166" lon="11.328538717357697"><ele>545.5999999999999</ele><time>2026-04-25T08:58:01.999Z</time></trkpt><trkpt lat="43.628153398955305" lon="11.328590386525576"><ele>544.4000000000001</ele><time>2026-04-25T08:58:02.999Z</time></trkpt><trkpt lat="43.62807048860948" lon="11.328627940679594"><ele>543.2</ele><time>2026-04-25T08:58:03.999Z</time></trkpt><trkpt lat="43.627971113638424" lon="11.328688754352335"><ele>542.0</ele><time>2026-04-25T08:58:04.999Z</time></trkpt><trkpt lat="43.62789282024672" lon="11.328763839931279"><ele>542.0</ele><time>2026-04-25T08:58:05.999Z</time></trkpt><trkpt lat="43.627824363644436" lon="11.32875600849642"><ele>542.0</ele><time>2026-04-25T08:58:07.999Z</time></trkpt><trkpt lat="43.627782409878066" lon="11.328826920509687"><ele>542.0</ele><time>2026-04-25T08:58:08.999Z</time></trkpt><trkpt lat="43.62770840996961" lon="11.32892549828206"><ele>542.0</ele><time>2026-04-25T08:58:10.999Z</time></trkpt><trkpt lat="43.62758505314889" lon="11.328895114319465"><ele>542.0</ele><time>2026-04-25T08:58:12.999Z</time></trkpt><trkpt lat="43.62746392512873" lon="11.32885636058567"><ele>539.8000000000001</ele><time>2026-04-25T08:58:13.999Z</time></trkpt><trkpt lat="43.627366980863535" lon="11.328834575177824"><ele>537.6</ele><time>2026-04-25T08:58:14.999Z</time></trkpt><trkpt lat="43.6272949168095" lon="11.328808031332022"><ele>535.4000000000001</ele><time>2026-04-25T08:58:15.999Z</time></trkpt><trkpt lat="43.62721380028812" lon="11.328736060489744"><ele>533.2</ele><time>2026-04-25T08:58:17.999Z</time></trkpt><trkpt lat="43.62712267653881" lon="11.328724345915811"><ele>531.0</ele><time>2026-04-25T08:58:19.999Z</time></trkpt><trkpt lat="43.62704323794818" lon="11.328665271767377"><ele>531.0</ele><time>2026-04-25T08:58:21.999Z</time></trkpt><trkpt lat="43.627020421824696" lon="11.32854682088366"><ele>531.0</ele><time>2026-04-25T08:58:23.999Z</time></trkpt><trkpt lat="43.62695790351791" lon="11.328473061175096"><ele>531.0</ele><time>2026-04-25T08:58:25.999Z</time></trkpt><trkpt lat="43.626835742557006" lon="11.328375618906772"><ele>531.0</ele><time>2026-04-25T08:58:27.999Z</time></trkpt><trkpt lat="43.62673860773444" lon="11.328406048639563"><ele>531.0</ele><time>2026-04-25T08:58:28.999Z</time></trkpt><trkpt lat="43.62663327488762" lon="11.328379723071354"><ele>528.4</ele><time>2026-04-25T08:58:29.999Z</time></trkpt><trkpt lat="43.62653685913077" lon="11.328276520574281"><ele>525.8</ele><time>2026-04-25T08:58:31.999Z</time></trkpt><trkpt lat="43.626436140064264" lon="11.328383971956399"><ele>523.1999999999999</ele><time>2026-04-25T08:58:33.998Z</time></trkpt><trkpt lat="43.62634276648442" lon="11.328330707754182"><ele>520.6</ele><time>2026-04-25T08:58:35.998Z</time></trkpt><trkpt lat="43.62627966965055" lon="11.328292009602924"><ele>518.0</ele><time>2026-04-25T08:58:36.998Z</time></trkpt><trkpt lat="43.62619908177132" lon="11.328298578377328"><ele>518.0</ele><time>2026-04-25T08:58:39.998Z</time></trkpt><trkpt lat="43.62616212373387" lon="11.328214544449501"><ele>518.0</ele><time>2026-04-25T08:58:47Z</time></trkpt><trkpt lat="43.62607473276283" lon="11.328179659697023"><ele>518.0</ele><time>2026-04-25T08:58:51Z</time></trkpt><trkpt lat="43.6260504153021" lon="11.328097970122466"><ele>518.0</ele><time>2026-04-25T08:58:52Z</time></trkpt><trkpt lat="43.625896760665185" lon="11.328008704312282"><ele>518.0</ele><time>2026-04-25T08:58:54Z</time></trkpt><trkpt lat="43.62577172686547" lon="11.328080847230524"><ele>516.8</ele><time>2026-04-25T08:58:55Z</time></trkpt><trkpt lat="43.6256736791572" lon="11.32813053565622"><ele>515.5999999999999</ele><time>2026-04-25T08:58:56Z</time></trkpt><trkpt lat="43.62556484018794" lon="11.32813139485335"><ele>514.4000000000001</ele><time>2026-04-25T08:59:01Z</time></trkpt><trkpt lat="43.625471575232325" lon="11.328130417267722"><ele>513.2</ele><time>2026-04-25T08:59:02Z</time></trkpt><trkpt lat="43.625412237479786" lon="11.328097608952486"><ele>512.0</ele><time>2026-04-25T08:59:03Z</time></trkpt><trkpt lat="43.625333201735295" lon="11.328092525266833"><ele>505.20000000000005</ele><time>2026-04-25T08:59:04Z</time></trkpt><trkpt lat="43.625208559390394" lon="11.327994429284521"><ele>498.40000000000003</ele><time>2026-04-25T08:59:05Z</time></trkpt><trkpt lat="43.62522065206478" lon="11.327877374030127"><ele>491.59999999999997</ele><time>2026-04-25T08:59:08Z</time></trkpt><trkpt lat="43.6251199217532" lon="11.327833464801728"><ele>484.79999999999995</ele><time>2026-04-25T08:59:10Z</time></trkpt><trkpt lat="43.62505221219206" lon="11.327868959828322"><ele>478.0</ele><time>2026-04-25T08:59:22Z</time></trkpt><trkpt lat="43.625134731329716" lon="11.327815339665229"><ele>478.0</ele><time>2026-04-25T08:59:40.999Z</time></trkpt><trkpt lat="43.62522842049487" lon="11.327786998355663"><ele>477.99999999999994</ele><time>2026-04-25T08:59:42.999Z</time></trkpt><trkpt lat="43.62530415690429" lon="11.327792276777581"><ele>477.99999999999994</ele><time>2026-04-25T08:59:43.999Z</time></trkpt><trkpt lat="43.62538133762027" lon="11.327785866064627"><ele>478.0</ele><time>2026-04-25T08:59:44.999Z</time></trkpt><trkpt lat="43.62546881692641" lon="11.327715917182996"><ele>478.0</ele><time>2026-04-25T08:59:46.999Z</time></trkpt><trkpt lat="43.62543784481386" lon="11.327555561779539"><ele>478.0</ele><time>2026-04-25T08:59:52.999Z</time></trkpt><trkpt lat="43.625348130181756" lon="11.327530184047195"><ele>477.99999999999994</ele><time>2026-04-25T08:59:54.999Z</time></trkpt><trkpt lat="43.62522924526722" lon="11.327524760217512"><ele>477.99999999999994</ele><time>2026-04-25T08:59:56.999Z</time></trkpt><trkpt lat="43.62515217233693" lon="11.327532052820358"><ele>478.0</ele><time>2026-04-25T08:59:57.999Z</time></trkpt><trkpt lat="43.62506918692641" lon="11.327550439176743"><ele>478.0</ele><time>2026-04-25T08:59:58.999Z</time></trkpt><trkpt lat="43.624986058103694" lon="11.327570633669673"><ele>478.00000000000006</ele><time>2026-04-25T08:59:59.999Z</time></trkpt><trkpt lat="43.624909184922736" lon="11.327587086607942"><ele>478.0</ele><time>2026-04-25T09:00:00.999Z</time></trkpt><trkpt lat="43.624831554647905" lon="11.327597130512068"><ele>478.0</ele><time>2026-04-25T09:00:01.999Z</time></trkpt><trkpt lat="43.62475796617669" lon="11.327607489887185"><ele>478.0</ele><time>2026-04-25T09:00:02.999Z</time></trkpt><trkpt lat="43.62467627652218" lon="11.327620868382164"><ele>478.00000000000006</ele><time>2026-04-25T09:00:03.999Z</time></trkpt><trkpt lat="43.624582891932455" lon="11.327656023049176"><ele>478.0</ele><time>2026-04-25T09:00:05.999Z</time></trkpt><trkpt lat="43.62451993513769" lon="11.327737886977422"><ele>477.79999999999995</ele><time>2026-04-25T09:00:06.999Z</time></trkpt><trkpt lat="43.624461870603234" lon="11.327913488505889"><ele>477.59999999999997</ele><time>2026-04-25T09:00:08.999Z</time></trkpt><trkpt lat="43.62440246429746" lon="11.328007185513375"><ele>477.40000000000003</ele><time>2026-04-25T09:00:09.999Z</time></trkpt><trkpt lat="43.6243227067059" lon="11.32809308893513"><ele>477.20000000000005</ele><time>2026-04-25T09:00:10.999Z</time></trkpt><trkpt lat="43.62423538910902" lon="11.328138094445688"><ele>477.0</ele><time>2026-04-25T09:00:11.999Z</time></trkpt><trkpt lat="43.6241465316535" lon="11.328167188523608"><ele>477.0</ele><time>2026-04-25T09:00:12.999Z</time></trkpt><trkpt lat="43.624020433963125" lon="11.328190927202565"><ele>477.0</ele><time>2026-04-25T09:00:13.999Z</time></trkpt><trkpt lat="43.62392730121143" lon="11.328241326072048"><ele>477.0</ele><time>2026-04-25T09:00:14.999Z</time></trkpt><trkpt lat="43.62382483716733" lon="11.32836595803632"><ele>477.0</ele><time>2026-04-25T09:00:16.999Z</time></trkpt><trkpt lat="43.62372136674433" lon="11.32844535128584"><ele>472.40000000000003</ele><time>2026-04-25T09:00:17.999Z</time></trkpt><trkpt lat="43.62364175189713" lon="11.328447354513159"><ele>467.80000000000007</ele><time>2026-04-25T09:00:18.999Z</time></trkpt><trkpt lat="43.62355328302898" lon="11.328451363639191"><ele>463.2</ele><time>2026-04-25T09:00:20.999Z</time></trkpt><trkpt lat="43.623438775043816" lon="11.328478353301675"><ele>458.6</ele><time>2026-04-25T09:00:21.999Z</time></trkpt><trkpt lat="43.623294540788116" lon="11.328563013985589"><ele>454.0</ele><time>2026-04-25T09:00:23.999Z</time></trkpt><trkpt lat="43.62320480913899" lon="11.328589260883154"><ele>454.00000000000006</ele><time>2026-04-25T09:00:24.999Z</time></trkpt><trkpt lat="43.623164587111724" lon="11.328663052436138"><ele>454.0</ele><time>2026-04-25T09:00:25.999Z</time></trkpt><trkpt lat="43.623083838745345" lon="11.32857337967562"><ele>454.0</ele><time>2026-04-25T09:00:27.999Z</time></trkpt><trkpt lat="43.6230640651372" lon="11.328487625157544"><ele>454.0</ele><time>2026-04-25T09:00:28.999Z</time></trkpt><trkpt lat="43.62301339609254" lon="11.328421114044318"><ele>454.00000000000006</ele><time>2026-04-25T09:00:29.999Z</time></trkpt><trkpt lat="43.62297251503038" lon="11.328308785939251"><ele>454.0</ele><time>2026-04-25T09:00:30.998Z</time></trkpt><trkpt lat="43.62290053705284" lon="11.328212720005464"><ele>449.33333333333337</ele><time>2026-04-25T09:00:31.998Z</time></trkpt><trkpt lat="43.622812568738944" lon="11.328184327293355"><ele>444.6666666666667</ele><time>2026-04-25T09:00:32.998Z</time></trkpt><trkpt lat="43.62272217251533" lon="11.328089027092686"><ele>440.0</ele><time>2026-04-25T09:00:33.998Z</time></trkpt><trkpt lat="43.62265073547636" lon="11.328013495835984"><ele>435.33333333333337</ele><time>2026-04-25T09:00:34.998Z</time></trkpt><trkpt lat="43.6226118041842" lon="11.32793503058445"><ele>430.6666666666667</ele><time>2026-04-25T09:00:35.998Z</time></trkpt><trkpt lat="43.62258134130258" lon="11.327833849637905"><ele>426.0</ele><time>2026-04-25T09:00:36.998Z</time></trkpt><trkpt lat="43.62258007808824" lon="11.327727500618334"><ele>426.0</ele><time>2026-04-25T09:00:37.998Z</time></trkpt><trkpt lat="43.62258070323421" lon="11.327618590990596"><ele>426.0</ele><time>2026-04-25T09:00:38.998Z</time></trkpt><trkpt lat="43.62258430790772" lon="11.327485623938447"><ele>426.0</ele><time>2026-04-25T09:00:39.998Z</time></trkpt><trkpt lat="43.62257917917441" lon="11.327351583450206"><ele>426.0</ele><time>2026-04-25T09:00:40.998Z</time></trkpt><trkpt lat="43.62257703714833" lon="11.327211935576912"><ele>426.0</ele><time>2026-04-25T09:00:41.998Z</time></trkpt><trkpt lat="43.62257588554313" lon="11.327080605296723"><ele>424.4</ele><time>2026-04-25T09:00:42.998Z</time></trkpt><trkpt lat="43.62256573324676" lon="11.326948092842748"><ele>422.8</ele><time>2026-04-25T09:00:43.998Z</time></trkpt><trkpt lat="43.62255291507147" lon="11.326813831925538"><ele>421.2</ele><time>2026-04-25T09:00:44.998Z</time></trkpt><trkpt lat="43.62253049917194" lon="11.32670922467301"><ele>419.59999999999997</ele><time>2026-04-25T09:00:45.998Z</time></trkpt><trkpt lat="43.62249381691552" lon="11.326589384653586"><ele>418.0</ele><time>2026-04-25T09:00:46.998Z</time></trkpt><trkpt lat="43.6224316778986" lon="11.326489931197216"><ele>415.4</ele><time>2026-04-25T09:00:47.998Z</time></trkpt><trkpt lat="43.622362232234686" lon="11.32636894300385"><ele>412.79999999999995</ele><time>2026-04-25T09:00:48.998Z</time></trkpt><trkpt lat="43.622302208557954" lon="11.326314009438006"><ele>410.2</ele><time>2026-04-25T09:00:49.998Z</time></trkpt><trkpt lat="43.622169174119485" lon="11.32626306625556"><ele>407.6</ele><time>2026-04-25T09:00:51.998Z</time></trkpt><trkpt lat="43.62209239583413" lon="11.326276859836588"><ele>405.0</ele><time>2026-04-25T09:00:53Z</time></trkpt><trkpt lat="43.62200089320303" lon="11.32623666204342"><ele>403.0</ele><time>2026-04-25T09:00:54Z</time></trkpt><trkpt lat="43.621919594329164" lon="11.32616665167413"><ele>401.0</ele><time>2026-04-25T09:00:55Z</time></trkpt><trkpt lat="43.621850090180686" lon="11.32611506560257"><ele>399.0</ele><time>2026-04-25T09:00:56Z</time></trkpt><trkpt lat="43.62178163175057" lon="11.326037476426947"><ele>397.0</ele><time>2026-04-25T09:00:57Z</time></trkpt><trkpt lat="43.62171985622624" lon="11.325961041720122"><ele>395.0</ele><time>2026-04-25T09:00:58Z</time></trkpt><trkpt lat="43.62163268551601" lon="11.325841056132298"><ele>395.0</ele><time>2026-04-25T09:00:59Z</time></trkpt><trkpt lat="43.621548653521494" lon="11.325730272243495"><ele>395.0</ele><time>2026-04-25T09:01:00Z</time></trkpt><trkpt lat="43.62146858811792" lon="11.325637046228778"><ele>395.0</ele><time>2026-04-25T09:01:01Z</time></trkpt><trkpt lat="43.62137326046051" lon="11.32551155298441"><ele>395.0</ele><time>2026-04-25T09:01:02Z</time></trkpt><trkpt lat="43.621284240692724" lon="11.325394363868464"><ele>392.5</ele><time>2026-04-25T09:01:03Z</time></trkpt><trkpt lat="43.62118690263244" lon="11.325297691406094"><ele>390.0</ele><time>2026-04-25T09:01:04Z</time></trkpt><trkpt lat="43.62110799768577" lon="11.325184946479204"><ele>387.5</ele><time>2026-04-25T09:01:05Z</time></trkpt><trkpt lat="43.621029855600945" lon="11.325077246310878"><ele>385.0</ele><time>2026-04-25T09:01:06Z</time></trkpt><trkpt lat="43.62094719827422" lon="11.324969235905865"><ele>383.6</ele><time>2026-04-25T09:01:07Z</time></trkpt><trkpt lat="43.620882651200866" lon="11.324892188514305"><ele>382.2</ele><time>2026-04-25T09:01:08Z</time></trkpt><trkpt lat="43.62083274206327" lon="11.32479570677628"><ele>380.79999999999995</ele><time>2026-04-25T09:01:10Z</time></trkpt><trkpt lat="43.620892435929505" lon="11.32466407679417"><ele>379.4</ele><time>2026-04-25T09:01:12Z</time></trkpt><trkpt lat="43.62090835293509" lon="11.324542522234056"><ele>378.0</ele><time>2026-04-25T09:01:13Z</time></trkpt><trkpt lat="43.62090400988162" lon="11.324341718005476"><ele>376.79999999999995</ele><time>2026-04-25T09:01:15Z</time></trkpt><trkpt lat="43.6208795689171" lon="11.32421327748045"><ele>375.6</ele><time>2026-04-25T09:01:16Z</time></trkpt><trkpt lat="43.62083017109668" lon="11.324069087453614"><ele>374.4</ele><time>2026-04-25T09:01:17Z</time></trkpt><trkpt lat="43.62077544348619" lon="11.32394356622155"><ele>373.20000000000005</ele><time>2026-04-25T09:01:18Z</time></trkpt><trkpt lat="43.620711129688324" lon="11.323802911697484"><ele>372.0</ele><time>2026-04-25T09:01:19Z</time></trkpt><trkpt lat="43.620671977771096" lon="11.323667084761015"><ele>370.6</ele><time>2026-04-25T09:01:20Z</time></trkpt><trkpt lat="43.62066695626908" lon="11.32353870360644"><ele>369.20000000000005</ele><time>2026-04-25T09:01:21Z</time></trkpt><trkpt lat="43.6205826969511" lon="11.323442312519905"><ele>367.8</ele><time>2026-04-25T09:01:22Z</time></trkpt><trkpt lat="43.62056726798967" lon="11.323305059029105"><ele>366.4</ele><time>2026-04-25T09:01:23Z</time></trkpt><trkpt lat="43.62053842386666" lon="11.323148500300029"><ele>365.0</ele><time>2026-04-25T09:01:24Z</time></trkpt><trkpt lat="43.62050304884223" lon="11.32298741669014"><ele>363.5</ele><time>2026-04-25T09:01:25Z</time></trkpt><trkpt lat="43.620454372709915" lon="11.322829959115452"><ele>362.0</ele><time>2026-04-25T09:01:26Z</time></trkpt><trkpt lat="43.62042679349231" lon="11.322649945149216"><ele>360.5</ele><time>2026-04-25T09:01:27Z</time></trkpt><trkpt lat="43.62038786111794" lon="11.32247605351418"><ele>359.0</ele><time>2026-04-25T09:01:28Z</time></trkpt><trkpt lat="43.62035402378189" lon="11.322324218086154"><ele>358.79999999999995</ele><time>2026-04-25T09:01:29Z</time></trkpt><trkpt lat="43.62030752755844" lon="11.322177697935887"><ele>358.59999999999997</ele><time>2026-04-25T09:01:30Z</time></trkpt><trkpt lat="43.62029185459172" lon="11.322049082006783"><ele>358.4</ele><time>2026-04-25T09:01:31Z</time></trkpt><trkpt lat="43.62026372127836" lon="11.321909817884276"><ele>358.2</ele><time>2026-04-25T09:01:32Z</time></trkpt><trkpt lat="43.62024097932987" lon="11.321795522517565"><ele>358.0</ele><time>2026-04-25T09:01:33Z</time></trkpt><trkpt lat="43.62020474803872" lon="11.321710420032169"><ele>358.0</ele><time>2026-04-25T09:01:34Z</time></trkpt><trkpt lat="43.62017886618051" lon="11.3216081058364"><ele>358.0</ele><time>2026-04-25T09:01:35Z</time></trkpt><trkpt lat="43.62011395465046" lon="11.321484674711646"><ele>358.0</ele><time>2026-04-25T09:01:37Z</time></trkpt><trkpt lat="43.62009048368281" lon="11.321382023256493"><ele>358.0</ele><time>2026-04-25T09:01:38.999Z</time></trkpt><trkpt lat="43.62005311269399" lon="11.321285838415053"><ele>358.0</ele><time>2026-04-25T09:01:42.999Z</time></trkpt><trkpt lat="43.620026516283346" lon="11.321205192785083"><ele>358.0</ele><time>2026-04-25T09:01:47.999Z</time></trkpt><trkpt lat="43.619964144213796" lon="11.32110527962606"><ele>358.0</ele><time>2026-04-25T09:02:12.999Z</time></trkpt><trkpt lat="43.619916338414114" lon="11.320993308469925"><ele>358.0</ele><time>2026-04-25T09:02:14.999Z</time></trkpt><trkpt lat="43.619866803995016" lon="11.320882348363256"><ele>358.0</ele><time>2026-04-25T09:02:16.999Z</time></trkpt><trkpt lat="43.61981680462452" lon="11.320750461699113"><ele>358.0</ele><time>2026-04-25T09:02:18.999Z</time></trkpt><trkpt lat="43.61978267429568" lon="11.320630911303644"><ele>358.0</ele><time>2026-04-25T09:02:20.999Z</time></trkpt><trkpt lat="43.61973285331721" lon="11.320502960949993"><ele>358.0</ele><time>2026-04-25T09:02:22.999Z</time></trkpt><trkpt lat="43.61969702912746" lon="11.32041638569473"><ele>358.0</ele><time>2026-04-25T09:02:25.999Z</time></trkpt><trkpt lat="43.61964831838072" lon="11.320313648202445"><ele>358.0</ele><time>2026-04-25T09:02:29.999Z</time></trkpt><trkpt lat="43.619589609272104" lon="11.32023161283182"><ele>358.0</ele><time>2026-04-25T09:02:30.999Z</time></trkpt><trkpt lat="43.619504096926505" lon="11.320123177403826"><ele>358.0</ele><time>2026-04-25T09:02:32.999Z</time></trkpt><trkpt lat="43.61944299242162" lon="11.320054845515834"><ele>358.0</ele><time>2026-04-25T09:02:33.999Z</time></trkpt><trkpt lat="43.61937543743339" lon="11.319994081032847"><ele>357.8333333333333</ele><time>2026-04-25T09:02:34.999Z</time></trkpt><trkpt lat="43.61933555032518" lon="11.319915372338464"><ele>357.66666666666663</ele><time>2026-04-25T09:02:35.999Z</time></trkpt><trkpt lat="43.61928057267726" lon="11.319856335762301"><ele>357.5</ele><time>2026-04-25T09:02:36.999Z</time></trkpt><trkpt lat="43.61923018660009" lon="11.319801966075058"><ele>357.3333333333333</ele><time>2026-04-25T09:02:37.999Z</time></trkpt><trkpt lat="43.6191421713506" lon="11.319689481680362"><ele>357.1666666666667</ele><time>2026-04-25T09:02:39.999Z</time></trkpt><trkpt lat="43.61908972187398" lon="11.31961818892869"><ele>357.0</ele><time>2026-04-25T09:02:40.999Z</time></trkpt><trkpt lat="43.619046135398456" lon="11.319529252597622"><ele>357.0</ele><time>2026-04-25T09:02:41.999Z</time></trkpt><trkpt lat="43.61898248032618" lon="11.31944862546629"><ele>357.0</ele><time>2026-04-25T09:02:42.999Z</time></trkpt><trkpt lat="43.618911860727316" lon="11.31936768606251"><ele>357.0</ele><time>2026-04-25T09:02:43.999Z</time></trkpt><trkpt lat="43.61883977370249" lon="11.319284133561636"><ele>357.0</ele><time>2026-04-25T09:02:44.999Z</time></trkpt><trkpt lat="43.618756985030195" lon="11.319185013667854"><ele>357.0</ele><time>2026-04-25T09:02:45.998Z</time></trkpt><trkpt lat="43.61866605564229" lon="11.319102744537286"><ele>357.25</ele><time>2026-04-25T09:02:46.998Z</time></trkpt><trkpt lat="43.61857315397669" lon="11.318981798975777"><ele>357.5</ele><time>2026-04-25T09:02:47.998Z</time></trkpt><trkpt lat="43.61847081229712" lon="11.318849186127116"><ele>357.75</ele><time>2026-04-25T09:02:48.998Z</time></trkpt><trkpt lat="43.618371316682506" lon="11.3186969723047"><ele>358.0</ele><time>2026-04-25T09:02:49.998Z</time></trkpt><trkpt lat="43.61827966898338" lon="11.31855941630449"><ele>358.79999999999995</ele><time>2026-04-25T09:02:50.998Z</time></trkpt><trkpt lat="43.61820779851988" lon="11.318444705963437"><ele>359.6</ele><time>2026-04-25T09:02:51.998Z</time></trkpt><trkpt lat="43.61811379410965" lon="11.318358445571873"><ele>360.4</ele><time>2026-04-25T09:02:52.998Z</time></trkpt><trkpt lat="43.61801829325712" lon="11.318302760942851"><ele>361.20000000000005</ele><time>2026-04-25T09:02:53.998Z</time></trkpt><trkpt lat="43.61791192506136" lon="11.318238340251906"><ele>362.0</ele><time>2026-04-25T09:02:54.998Z</time></trkpt><trkpt lat="43.61780075223431" lon="11.318161309102912"><ele>361.75</ele><time>2026-04-25T09:02:55.998Z</time></trkpt><trkpt lat="43.617695632823526" lon="11.318077084872916"><ele>361.5</ele><time>2026-04-25T09:02:56.998Z</time></trkpt><trkpt lat="43.617587764648185" lon="11.317992784262573"><ele>361.25</ele><time>2026-04-25T09:02:57.998Z</time></trkpt><trkpt lat="43.6174821695104" lon="11.317903874219537"><ele>361.0</ele><time>2026-04-25T09:02:59Z</time></trkpt><trkpt lat="43.61737562610096" lon="11.317827306909725"><ele>361.0</ele><time>2026-04-25T09:03:00Z</time></trkpt><trkpt lat="43.617277117136034" lon="11.317754390641904"><ele>361.0</ele><time>2026-04-25T09:03:01Z</time></trkpt><trkpt lat="43.61719048320615" lon="11.317694992478442"><ele>361.0</ele><time>2026-04-25T09:03:02Z</time></trkpt><trkpt lat="43.61709588931897" lon="11.317644113323658"><ele>361.0</ele><time>2026-04-25T09:03:03Z</time></trkpt><trkpt lat="43.616995515470805" lon="11.317570440271613"><ele>361.0</ele><time>2026-04-25T09:03:04Z</time></trkpt><trkpt lat="43.61690046483018" lon="11.317468366649976"><ele>360.5</ele><time>2026-04-25T09:03:05Z</time></trkpt><trkpt lat="43.616813024428644" lon="11.31735363861327"><ele>360.0</ele><time>2026-04-25T09:03:06Z</time></trkpt><trkpt lat="43.61671865449216" lon="11.317220929219411"><ele>359.5</ele><time>2026-04-25T09:03:07Z</time></trkpt><trkpt lat="43.616652659506784" lon="11.317092560176297"><ele>359.0</ele><time>2026-04-25T09:03:08Z</time></trkpt><trkpt lat="43.61657319219982" lon="11.317019224435441"><ele>359.0</ele><time>2026-04-25T09:03:09Z</time></trkpt><trkpt lat="43.61650212867971" lon="11.31692840498058"><ele>359.0</ele><time>2026-04-25T09:03:10Z</time></trkpt><trkpt lat="43.61645511431901" lon="11.316828219286851"><ele>359.0</ele><time>2026-04-25T09:03:11Z</time></trkpt><trkpt lat="43.61638701465802" lon="11.316777031489423"><ele>359.0</ele><time>2026-04-25T09:03:12Z</time></trkpt><trkpt lat="43.61634180654614" lon="11.316680130414921"><ele>359.0</ele><time>2026-04-25T09:03:13Z</time></trkpt><trkpt lat="43.61629530754799" lon="11.316605780186434"><ele>359.0</ele><time>2026-04-25T09:03:14Z</time></trkpt><trkpt lat="43.61624977131334" lon="11.31654072263399"><ele>358.25</ele><time>2026-04-25T09:03:15Z</time></trkpt><trkpt lat="43.61610353515896" lon="11.31667497122437"><ele>357.5</ele><time>2026-04-25T09:03:16Z</time></trkpt><trkpt lat="43.6159644509108" lon="11.3166130201144"><ele>356.75</ele><time>2026-04-25T09:03:18Z</time></trkpt><trkpt lat="43.61588377788826" lon="11.316521008890529"><ele>356.0</ele><time>2026-04-25T09:03:19Z</time></trkpt><trkpt lat="43.61581128419796" lon="11.316468291913063"><ele>356.0</ele><time>2026-04-25T09:03:20Z</time></trkpt><trkpt lat="43.615695639560556" lon="11.316423243720955"><ele>356.0</ele><time>2026-04-25T09:03:21Z</time></trkpt><trkpt lat="43.615586466538154" lon="11.316384076227706"><ele>356.0</ele><time>2026-04-25T09:03:22Z</time></trkpt><trkpt lat="43.61547680756581" lon="11.316349327043708"><ele>356.0</ele><time>2026-04-25T09:03:23Z</time></trkpt><trkpt lat="43.6153643375388" lon="11.316349783024048"><ele>354.0</ele><time>2026-04-25T09:03:24Z</time></trkpt><trkpt lat="43.61524910533639" lon="11.316392157276642"><ele>352.0</ele><time>2026-04-25T09:03:25Z</time></trkpt><trkpt lat="43.61513086141778" lon="11.31638406167915"><ele>350.0</ele><time>2026-04-25T09:03:26Z</time></trkpt><trkpt lat="43.615017802110174" lon="11.316374976478711"><ele>348.0</ele><time>2026-04-25T09:03:27Z</time></trkpt><trkpt lat="43.61491752185507" lon="11.316358957374117"><ele>348.0</ele><time>2026-04-25T09:03:28Z</time></trkpt><trkpt lat="43.61479904654708" lon="11.316337328406783"><ele>348.0</ele><time>2026-04-25T09:03:29Z</time></trkpt><trkpt lat="43.61468266319521" lon="11.3163259755269"><ele>348.0</ele><time>2026-04-25T09:03:30Z</time></trkpt><trkpt lat="43.614566592720315" lon="11.316310788794436"><ele>348.0</ele><time>2026-04-25T09:03:31Z</time></trkpt><trkpt lat="43.6144437109607" lon="11.316298316072821"><ele>344.5</ele><time>2026-04-25T09:03:32Z</time></trkpt><trkpt lat="43.61431471459912" lon="11.316299980090204"><ele>341.0</ele><time>2026-04-25T09:03:33Z</time></trkpt><trkpt lat="43.6141931843872" lon="11.316312660408727"><ele>337.5</ele><time>2026-04-25T09:03:34Z</time></trkpt><trkpt lat="43.61406766657618" lon="11.3163114289087"><ele>334.0</ele><time>2026-04-25T09:03:35Z</time></trkpt><trkpt lat="43.613926990331684" lon="11.316264031478426"><ele>334.0</ele><time>2026-04-25T09:03:36Z</time></trkpt><trkpt lat="43.613770609010835" lon="11.316241976802479"><ele>334.0</ele><time>2026-04-25T09:03:37Z</time></trkpt><trkpt lat="43.613601859349835" lon="11.316187194887986"><ele>334.0</ele><time>2026-04-25T09:03:38Z</time></trkpt><trkpt lat="43.61343638894063" lon="11.316140298163537"><ele>331.75</ele><time>2026-04-25T09:03:39Z</time></trkpt><trkpt lat="43.61329788144192" lon="11.316107512235352"><ele>329.5</ele><time>2026-04-25T09:03:40Z</time></trkpt><trkpt lat="43.613145069112356" lon="11.316067579063706"><ele>327.25</ele><time>2026-04-25T09:03:41Z</time></trkpt><trkpt lat="43.613010354022485" lon="11.31602287663234"><ele>325.0</ele><time>2026-04-25T09:03:41.999Z</time></trkpt><trkpt lat="43.61288598872075" lon="11.315980571767541"><ele>323.5</ele><time>2026-04-25T09:03:42.999Z</time></trkpt><trkpt lat="43.61276231486483" lon="11.315946933396543"><ele>322.0</ele><time>2026-04-25T09:03:43.999Z</time></trkpt><trkpt lat="43.61265316091489" lon="11.315927023931048"><ele>320.5</ele><time>2026-04-25T09:03:44.999Z</time></trkpt><trkpt lat="43.612538598047045" lon="11.315904094677146"><ele>319.0</ele><time>2026-04-25T09:03:45.999Z</time></trkpt><trkpt lat="43.612430514716756" lon="11.315882541008003"><ele>319.0</ele><time>2026-04-25T09:03:46.999Z</time></trkpt><trkpt lat="43.612316135869705" lon="11.315873904510273"><ele>319.0</ele><time>2026-04-25T09:03:47.999Z</time></trkpt><trkpt lat="43.61220701343134" lon="11.315866205514348"><ele>319.0</ele><time>2026-04-25T09:03:48.999Z</time></trkpt><trkpt lat="43.61210630070129" lon="11.315818980940792"><ele>319.0</ele><time>2026-04-25T09:03:49.999Z</time></trkpt><trkpt lat="43.61199757605379" lon="11.315749890160367"><ele>318.0</ele><time>2026-04-25T09:03:50.999Z</time></trkpt><trkpt lat="43.61187666388169" lon="11.315685215892017"><ele>317.0</ele><time>2026-04-25T09:03:51.999Z</time></trkpt><trkpt lat="43.61175819913588" lon="11.315598903410631"><ele>316.0</ele><time>2026-04-25T09:03:52.999Z</time></trkpt><trkpt lat="43.61163382293434" lon="11.315523283498552"><ele>315.0</ele><time>2026-04-25T09:03:53.999Z</time></trkpt><trkpt lat="43.61150797304617" lon="11.31547105881144"><ele>313.5</ele><time>2026-04-25T09:03:54.999Z</time></trkpt><trkpt lat="43.61138903282784" lon="11.315432927835271"><ele>312.0</ele><time>2026-04-25T09:03:55.999Z</time></trkpt><trkpt lat="43.611276887276" lon="11.315383789493096"><ele>310.5</ele><time>2026-04-25T09:03:56.999Z</time></trkpt><trkpt lat="43.611178837070455" lon="11.315306983844957"><ele>309.0</ele><time>2026-04-25T09:03:57.999Z</time></trkpt><trkpt lat="43.61108445066501" lon="11.31520299006989"><ele>308.25</ele><time>2026-04-25T09:03:58.999Z</time></trkpt><trkpt lat="43.61098216014162" lon="11.315086720871635"><ele>307.5</ele><time>2026-04-25T09:03:59.999Z</time></trkpt><trkpt lat="43.61086783360278" lon="11.314980012734644"><ele>306.75</ele><time>2026-04-25T09:04:00.999Z</time></trkpt><trkpt lat="43.61074878824347" lon="11.314889436448057"><ele>306.0</ele><time>2026-04-25T09:04:01.999Z</time></trkpt><trkpt lat="43.61065145123165" lon="11.314774186578871"><ele>303.0</ele><time>2026-04-25T09:04:02.999Z</time></trkpt><trkpt lat="43.6105384024872" lon="11.314679232060554"><ele>300.0</ele><time>2026-04-25T09:04:03.999Z</time></trkpt><trkpt lat="43.61043547908629" lon="11.314567121220808"><ele>297.0</ele><time>2026-04-25T09:04:04.999Z</time></trkpt><trkpt lat="43.61032746828671" lon="11.3144527255834"><ele>294.0</ele><time>2026-04-25T09:04:05.999Z</time></trkpt><trkpt lat="43.6102306136027" lon="11.314324216869084"><ele>293.75</ele><time>2026-04-25T09:04:06.999Z</time></trkpt><trkpt lat="43.610121492467236" lon="11.314212025617339"><ele>293.5</ele><time>2026-04-25T09:04:07.999Z</time></trkpt><trkpt lat="43.61001373527188" lon="11.314077085989977"><ele>293.25</ele><time>2026-04-25T09:04:08.999Z</time></trkpt><trkpt lat="43.609907803847115" lon="11.313966975793342"><ele>293.0</ele><time>2026-04-25T09:04:09.999Z</time></trkpt><trkpt lat="43.60980965030625" lon="11.313883149996538"><ele>290.25</ele><time>2026-04-25T09:04:10.999Z</time></trkpt><trkpt lat="43.609683397222625" lon="11.313841383988661"><ele>287.5</ele><time>2026-04-25T09:04:11.999Z</time></trkpt><trkpt lat="43.609569779855434" lon="11.31378467012085"><ele>284.75</ele><time>2026-04-25T09:04:12.999Z</time></trkpt><trkpt lat="43.60945801843681" lon="11.313711450170668"><ele>282.0</ele><time>2026-04-25T09:04:13.999Z</time></trkpt><trkpt lat="43.60934165835191" lon="11.313630904331493"><ele>281.75</ele><time>2026-04-25T09:04:14.999Z</time></trkpt><trkpt lat="43.60923678881891" lon="11.31355932419131"><ele>281.5</ele><time>2026-04-25T09:04:15.999Z</time></trkpt><trkpt lat="43.6091365069146" lon="11.313482119924172"><ele>281.25</ele><time>2026-04-25T09:04:16.999Z</time></trkpt><trkpt lat="43.60904786770278" lon="11.313369988942615"><ele>281.0</ele><time>2026-04-25T09:04:17.999Z</time></trkpt><trkpt lat="43.60896987343385" lon="11.313235612998152"><ele>281.0</ele><time>2026-04-25T09:04:18.999Z</time></trkpt><trkpt lat="43.60887912012587" lon="11.313106875192725"><ele>281.0</ele><time>2026-04-25T09:04:19.999Z</time></trkpt><trkpt lat="43.608808263033936" lon="11.312964469737931"><ele>281.0</ele><time>2026-04-25T09:04:20.999Z</time></trkpt><trkpt lat="43.608722721224375" lon="11.312810012920773"><ele>281.0</ele><time>2026-04-25T09:04:21.999Z</time></trkpt><trkpt lat="43.608622022256625" lon="11.312666987170232"><ele>276.75</ele><time>2026-04-25T09:04:22.999Z</time></trkpt><trkpt lat="43.608502357888966" lon="11.312536868640155"><ele>272.5</ele><time>2026-04-25T09:04:23.999Z</time></trkpt><trkpt lat="43.608397348980944" lon="11.31244071383987"><ele>268.25</ele><time>2026-04-25T09:04:24.999Z</time></trkpt><trkpt lat="43.60828514846922" lon="11.312329756037158"><ele>264.0</ele><time>2026-04-25T09:04:25.999Z</time></trkpt><trkpt lat="43.60820037752068" lon="11.31219931513363"><ele>263.75</ele><time>2026-04-25T09:04:26.999Z</time></trkpt><trkpt lat="43.60812760187365" lon="11.312080612184127"><ele>263.5</ele><time>2026-04-25T09:04:27.999Z</time></trkpt><trkpt lat="43.608050401926796" lon="11.311953854339539"><ele>263.25</ele><time>2026-04-25T09:04:28.999Z</time></trkpt><trkpt lat="43.6079801795467" lon="11.3118070158604"><ele>263.0</ele><time>2026-04-25T09:04:29.999Z</time></trkpt><trkpt lat="43.60792714071361" lon="11.311659250445242"><ele>263.0</ele><time>2026-04-25T09:04:30.999Z</time></trkpt><trkpt lat="43.60785127003929" lon="11.311497877390046"><ele>263.0</ele><time>2026-04-25T09:04:31.999Z</time></trkpt><trkpt lat="43.60778889268503" lon="11.311355038882075"><ele>263.0</ele><time>2026-04-25T09:04:32.999Z</time></trkpt><trkpt lat="43.60771828266472" lon="11.31121655222962"><ele>263.0</ele><time>2026-04-25T09:04:33.999Z</time></trkpt><trkpt lat="43.60764149856159" lon="11.311068039616"><ele>260.0</ele><time>2026-04-25T09:04:34.999Z</time></trkpt><trkpt lat="43.607573305241935" lon="11.310941102549991"><ele>257.0</ele><time>2026-04-25T09:04:35.999Z</time></trkpt><trkpt lat="43.60750539484186" lon="11.3108350415274"><ele>254.0</ele><time>2026-04-25T09:04:36.999Z</time></trkpt><trkpt lat="43.607412399938106" lon="11.310740385154446"><ele>251.0</ele><time>2026-04-25T09:04:37.999Z</time></trkpt><trkpt lat="43.607305930124014" lon="11.310635719262068"><ele>248.25</ele><time>2026-04-25T09:04:38.999Z</time></trkpt><trkpt lat="43.607229995525636" lon="11.310517641562114"><ele>245.5</ele><time>2026-04-25T09:04:39.999Z</time></trkpt><trkpt lat="43.60712663793723" lon="11.310391667095258"><ele>242.75</ele><time>2026-04-25T09:04:40.999Z</time></trkpt><trkpt lat="43.607018088985406" lon="11.310269260315744"><ele>240.0</ele><time>2026-04-25T09:04:41.999Z</time></trkpt><trkpt lat="43.606955299607314" lon="11.310129132345194"><ele>239.75</ele><time>2026-04-25T09:04:42.999Z</time></trkpt><trkpt lat="43.606896427296974" lon="11.309972364751724"><ele>239.5</ele><time>2026-04-25T09:04:43.999Z</time></trkpt><trkpt lat="43.60683657088425" lon="11.309852825170921"><ele>239.25</ele><time>2026-04-25T09:04:44.999Z</time></trkpt><trkpt lat="43.606751730730196" lon="11.309743195803556"><ele>239.0</ele><time>2026-04-25T09:04:45.999Z</time></trkpt><trkpt lat="43.60665764149414" lon="11.309635864511302"><ele>236.75</ele><time>2026-04-25T09:04:46.999Z</time></trkpt><trkpt lat="43.60657762846965" lon="11.309516881444367"><ele>234.5</ele><time>2026-04-25T09:04:47.999Z</time></trkpt><trkpt lat="43.60645514705555" lon="11.309393827759678"><ele>232.25</ele><time>2026-04-25T09:04:48.999Z</time></trkpt><trkpt lat="43.606317965168984" lon="11.309308713193479"><ele>230.0</ele><time>2026-04-25T09:04:49.999Z</time></trkpt><trkpt lat="43.60620428637309" lon="11.309143864387023"><ele>229.75</ele><time>2026-04-25T09:04:50.998Z</time></trkpt><trkpt lat="43.60610771836809" lon="11.309011706541101"><ele>229.5</ele><time>2026-04-25T09:04:51.998Z</time></trkpt><trkpt lat="43.60599463849146" lon="11.308876129122165"><ele>229.25</ele><time>2026-04-25T09:04:52.998Z</time></trkpt><trkpt lat="43.60589638814397" lon="11.308710477898304"><ele>229.0</ele><time>2026-04-25T09:04:53.998Z</time></trkpt><trkpt lat="43.60577588702882" lon="11.308582918677407"><ele>228.5</ele><time>2026-04-25T09:04:54.998Z</time></trkpt><trkpt lat="43.60566768370575" lon="11.308458159293508"><ele>228.0</ele><time>2026-04-25T09:04:55.998Z</time></trkpt><trkpt lat="43.60556897228988" lon="11.30832440367955"><ele>227.5</ele><time>2026-04-25T09:04:56.998Z</time></trkpt><trkpt lat="43.60546214145553" lon="11.30820672896589"><ele>227.0</ele><time>2026-04-25T09:04:57.998Z</time></trkpt><trkpt lat="43.6053654933161" lon="11.308100552755818"><ele>226.50000000000003</ele><time>2026-04-25T09:04:58.998Z</time></trkpt><trkpt lat="43.605268784330875" lon="11.30800397317869"><ele>226.0</ele><time>2026-04-25T09:04:59.998Z</time></trkpt><trkpt lat="43.6051846942673" lon="11.307930496535404"><ele>225.5</ele><time>2026-04-25T09:05:00.998Z</time></trkpt><trkpt lat="43.60511970808937" lon="11.307885716234667"><ele>225.0</ele><time>2026-04-25T09:05:01.998Z</time></trkpt><trkpt lat="43.60504944615863" lon="11.30788616183672"><ele>224.50000000000003</ele><time>2026-04-25T09:05:02.998Z</time></trkpt><trkpt lat="43.604976856419775" lon="11.307911962113328"><ele>224.0</ele><time>2026-04-25T09:05:03.998Z</time></trkpt><trkpt lat="43.604891022143654" lon="11.307941041561408"><ele>224.0</ele><time>2026-04-25T09:05:05Z</time></trkpt><trkpt lat="43.60477994468289" lon="11.30798204745968"><ele>223.99999999999997</ele><time>2026-04-25T09:05:06Z</time></trkpt><trkpt lat="43.60467300532832" lon="11.307966435729051"><ele>223.99999999999997</ele><time>2026-04-25T09:05:07Z</time></trkpt><trkpt lat="43.60457834866212" lon="11.307955498254968"><ele>224.0</ele><time>2026-04-25T09:05:08Z</time></trkpt><trkpt lat="43.604498693718675" lon="11.307934834803222"><ele>224.0</ele><time>2026-04-25T09:05:09Z</time></trkpt><trkpt lat="43.604431445840454" lon="11.307932353103878"><ele>222.66666666666669</ele><time>2026-04-25T09:05:10Z</time></trkpt><trkpt lat="43.6043687033026" lon="11.307909974433263"><ele>221.33333333333334</ele><time>2026-04-25T09:05:11Z</time></trkpt><trkpt lat="43.604267892727485" lon="11.307957133799977"><ele>220.0</ele><time>2026-04-25T09:05:13Z</time></trkpt><trkpt lat="43.604243832003924" lon="11.30804658060499"><ele>218.66666666666669</ele><time>2026-04-25T09:05:14Z</time></trkpt><trkpt lat="43.60424192214682" lon="11.308138383882042"><ele>217.33333333333334</ele><time>2026-04-25T09:05:15Z</time></trkpt><trkpt lat="43.604245737810224" lon="11.308229331012926"><ele>216.0</ele><time>2026-04-25T09:05:16Z</time></trkpt><trkpt lat="43.60420820221821" lon="11.308374981906018"><ele>216.0</ele><time>2026-04-25T09:05:18Z</time></trkpt></trkseg></trk></gpx>